VIVICITTA' 2009
F.I.D.A.L.
Organizzazione: UISP BARI
Serie   -   Risultati
Largo 2 Giugno
Data: 19/04/2009   Ora Inizio: 10:30   Ora Fine: 12:00
Cl. Cat. Cl. Cat. Pett. Atleta Anno Societą Tempo
    1 SM     1     1 ANDRIANI Ottaviano 1974 PD131 G.S. FIAMME ORO PADOVA 00:37:24
    2 MM35     1   449 BONVINO Gennaro 1973 BA597 ASD NUOVA ATLETICA GIOVINAZZO 00:37:34
    3 SM     2     5 SARDELLA Vito 1974 CZ234 VIOLETTACLUB 00:38:00
    4 PM     1   840 BELLINO Giovanni 1988 BA007 CUS BARI 00:39:14
    5 PM     2  1495 ZULLO Luigi 1989 BA091 ATL. ADEN  EXPRIVIA MOLFETTA 00:39:16
    6 MM35     2     7 NITTI Rocco 1973 BA029 A.A.'E. MANZARI' CASAMASSIMA 00:39:34
    7 TM     1  1029 GRAZIOSI Vito 1977 BA050 A.S.NICOLAUS ATHLETIC CENTER 00:40:28
    8 MM35     3   965 ANCORA Rocco 1970 BR144 ATALAS SAN VITO DEI NORMANNI 00:40:32
    9 SM     3   205 ZACCHEO Antonio 1980 SS197 ATL CIVITAS OLBIA 00:40:37
    10 MM40     1   940 DELLACCIO Gianfranco 1966 BA005 AMATORI ATL. ACQUAVIVA 00:40:47
    11 MM45     1  1002 DI DONNA Giuliano 1964 TA423 CLUB RUNNER 87 VALENTE ARREDI 00:41:08
    12 MM40     2   273 SERIO Luigi 1965 BR113 ATLETICA CASALINI 00:41:12
    13 TM     2  1259 MUSARDO Ivano 1981 BA548 G.S. ESERCITO 10¦ RE.TRA 00:41:13
    14 MM40     3    18 GRATTON Giovanni 1969 BA029 A.A.'E. MANZARI' CASAMASSIMA 00:41:14
    15 MM40     4   465 CASSANO Michele 1969 BA509 POD. CANUSIUM 2004 00:41:16
    16 MM35     4   330 TEDONE Domenico 1971 BA525 CRAL AMIU BARI 00:41:29
    17 MM35     5   462 DI CROCE Michele 1974 BA509 POD. CANUSIUM 2004 00:41:45
    18 MM40     5   369 GELSOMINO Giovanni 1966 BA007 CUS BARI 00:41:52
    19 MM35     6   182 PEPE Luca 1974 BA093 ATLETIC CLUB ALTAMURA 00:42:02
    20 MM35     7  3524 LOIZZI Michele 1973 BA535 A.S. ATLETICA POLIGNANO 00:42:07
    21 MM40     6   938 MONTEMURRO Ciro 1969 BA005 AMATORI ATL. ACQUAVIVA 00:42:21
    22 MM35     8   183 PEPE Raffaele 1972 BA093 ATLETIC CLUB ALTAMURA 00:42:25
    23 MM35     9   974 ZAMMILLO Vincenzo 1970 BR144 ATALAS SAN VITO DEI NORMANNI 00:42:37
    24 MM35    10   967 FRANCAVILLA Stefano 1972 BR144 ATALAS SAN VITO DEI NORMANNI 00:42:38
    25 MM45     2    14 SOMMA Vincenzo 1964 BA586 A.S.D.ASOPICO RUNNER BARI 00:42:44
    26 MM45     3   623 CUOCO Michele 1964 BR148 LE OMBRE DELL'ALBERO 00:42:48
    27 TM     3   536 FORNARELLI Stefano 1986 BA029 A.A.'E. MANZARI' CASAMASSIMA 00:42:55
    28 MM40     7   588 RIZZI Michele 1969 BA544 ATLETICA DISFIDA DI BARLETTA 00:42:57
    29 MM45     4   601 BOVE Nicola 1963 BA544 ATLETICA DISFIDA DI BARLETTA 00:42:58
    30 MM40     8   768 NOTARNICOLA Pietro 1966 BA502 A.S.D. MONTEDORO NOCI 00:43:02
    31 PM     3   962 VENEZIANO Giuseppe 1989 BA005 AMATORI ATL. ACQUAVIVA 00:43:03
    32 PM     4   961 SCIANNIMANICO Vito 1987 BA005 AMATORI ATL. ACQUAVIVA 00:43:15
    33 MM40     9  1277 CRUDELE Domenico 1967 BA049 G.S.P. III REGIONE AEREA BARI 00:43:18
    34 TM     4  1013 IACOBINO Salvatore 1976 TA423 CLUB RUNNER 87 VALENTE ARREDI 00:43:18
    35 MM35    11   291 MASDEA Giovanni 1973 BA039 A.S. AMICI STRADA DEL TESORO 00:43:35
    36 MM45     5  1444 LEONE Francesco 1960 BA586 A.S.D.ASOPICO RUNNER BARI 00:43:38
    37 MM35    12   540 LONGO Angelo 1974 BA029 A.A.'E. MANZARI' CASAMASSIMA 00:43:43
    38 MM45     6  1001 CARRIERO Carmelo 1962 TA423 CLUB RUNNER 87 VALENTE ARREDI 00:43:44
    39 MM40    10  1346 ARSALE Vito 1967 BA043 G.S.ATLETICA AMATORI CORATO 00:43:44
    40 TM     5   402 MOLITERNI Giuseppe 1977 BA099 POL. 'D. PIETRI' GRAVINA 00:43:45
    41 PM     5   842 GALASSO Gianvito 1988 BA007 CUS BARI 00:43:50
    42 TM     6  1014 MAZZARINO Danilo 1985 TA423 CLUB RUNNER 87 VALENTE ARREDI 00:44:01
    43 AM     1   845 SPILOTROS Giovanni 1992 BA007 CUS BARI 00:44:15
    44 MM35    13  1232 PAGANO Emilio 1971 BA529 A.S. TRANI MARATHON 00:44:17
    45 TM     7   883 LOCONTE Riccardo 1977 BA507 A.MARATONETI ANDRIESI 00:44:21
    46 MM40    11   608 DICORATO Michele Antoni 1967 BA544 ATLETICA DISFIDA DI BARLETTA 00:44:32
    47 MM40    12   149 PENNACCHIA Francesco 1969 BA093 ATLETIC CLUB ALTAMURA 00:44:33
    48 NTF     1  3436 FILOGRASSO Michele 1971 BA999 NON TESSERATI FIDAL 00:44:50
    49 TM     8   730 MINECCIA Andrea 1975 BA062 A.S. KANKUDAI 00:45:01
    50 MM40    13  1480 PALMA Giampiero 1965 BR131 A.S. ATLETICA LATIANO 00:45:05
    51 MM45     7   472 VALENTINO Giuliano 1962 BA509 POD. CANUSIUM 2004 00:45:07
    52 TM     9   902 PETRUZZELLI Savino 1978 BA507 A.MARATONETI ANDRIESI 00:45:15
    53 MM40    14    25 TAVANO Lorenzo 1969 BA062 A.S. KANKUDAI 00:45:16
    54 MM35    14   297 DE LUCA Salvatore 1974 BA586 A.S.D.ASOPICO RUNNER BARI 00:45:16
    55 MM45     8   899 PAPARUSSO Michele 1960 BA507 A.MARATONETI ANDRIESI 00:45:17
    56 MM50     1   825 DIBISCEGLIA Giuseppe 1955 FG264 A.S. CULTURALE POD. S. STEFANO 00:45:20
    57 MM45     9  1285 SFORZA Natale 1961 BA049 G.S.P. III REGIONE AEREA BARI 00:45:21
    58 TM    10   284 GIRGENTI Domenico 1982 BA580 A.S.D.  AGORA' 00:45:25
    59 MM55     1   480 GERMINARIO Giuseppe 1953 BA509 POD. CANUSIUM 2004 00:45:31
    60 TM    11   482 DELL'ISOLA Giancarlo 1982 BA509 POD. CANUSIUM 2004 00:45:32
    61 MM35    15   543 MELE Antonio 1974 BA029 A.A.'E. MANZARI' CASAMASSIMA 00:45:33
    62 MM35    16   606 MIOLLA Bruno 1973 BA544 ATLETICA DISFIDA DI BARLETTA 00:45:35
    63 MM40    15  1481 VITALE Pietro 1966 BR131 A.S. ATLETICA LATIANO 00:45:36
    64 NTF     2  3989 PRECCHIAZZI Matteo 1959 BA999 NON TESSERATI FIDAL 00:45:37
    65 MM35    17    80 MAGGI Giorgio 1970 BA546 POD. VALLE D'ITRIA LOCOROTONDO 00:45:38
    66 TM    12   372 INFANTE Marco 1979 BA007 CUS BARI 00:45:39
    67 MM40    16  1278 MARASCO Salvatore 1965 BA049 G.S.P. III REGIONE AEREA BARI 00:45:43
    68 MM35    18    81 L'ABATE Giacomo Orazio 1974 BA546 POD. VALLE D'ITRIA LOCOROTONDO 00:45:48
    69 MM45    10   428 FALCO Domenico 1963 BA052 BARI ROAD RUNNERS CLUB 00:45:55
    70 MM35    19   558 MORRA Giuliano 1971 BA097 SPORT CENTER 00:45:56
    71 SF     1     3 RESTA Alessandra 1981 BA089 ALTERATLETICA LOCOROTONDO 00:45:58
    72 MM45    11    19 BASSI Vincenzo 1963 BA097 SPORT CENTER 00:45:59
    73 AM     2   841 ESPOSITO Aurelio 1992 BA007 CUS BARI 00:46:02
    74 MM40    17   889 MANSI Savino 1965 BA507 A.MARATONETI ANDRIESI 00:46:04
    75 MM40    18   586 LANOTTE Savino 1969 BA544 ATLETICA DISFIDA DI BARLETTA 00:46:09
    76 MM50     2  1128 DIMASTROCHICCO Ruggero 1956 BA531 A.S.D. SAN NICOLA RUNNERS 00:46:11
    77 MM50     3   675 NANULA Savino 1958 FG285 ATLETICA TRINITAPOLI 00:46:21
    78 MM40    19   287 MONNO Giuseppe 1966 BA039 A.S. AMICI STRADA DEL TESORO 00:46:22
    79 TM    13   184 LATERZA Francesco 1975 BA093 ATLETIC CLUB ALTAMURA 00:46:27
    80 MM40    20   538 IPPOLITO Giovanni 1966 BA029 A.A.'E. MANZARI' CASAMASSIMA 00:46:30
    81 MM35    20  1274 FIORENTINO Paolo 1971 BA049 G.S.P. III REGIONE AEREA BARI 00:46:32
    82 MM40    21   568 ARMENISE Michele 1965 BA007 CUS BARI 00:46:32
    83 MM40    22  1483 RIBEZZO Mario 1967 BR131 A.S. ATLETICA LATIANO 00:46:33
    84 TM    14   947 ESPOSITO Antonio Giusep 1986 BA005 AMATORI ATL. ACQUAVIVA 00:46:34
    85 NTF     3  2924 FORTUNATO Felice 1911 BA999 NON TESSERATI FIDAL 00:46:34
    86 TM    15  1069 TALDONE Lorenzo 1977 BA587 LA PIETRA 00:46:40
    87 MM40    23  1220 ANGARANO Saverio 1966 BA529 A.S. TRANI MARATHON 00:46:44
    88 MM40    24   397 LAGONIGRO Nicola 1966 BA099 POL. 'D. PIETRI' GRAVINA 00:46:45
    89 MM35    21   726 LOTRIGLIO Antonio 1972 BA062 A.S. KANKUDAI 00:46:51
    90 MM45    12    77 GIANFRATE Gianni 1962 BA546 POD. VALLE D'ITRIA LOCOROTONDO 00:46:54
    91 MM40    25  1052 CAPORUSSO Domenico 1967 BA587 LA PIETRA 00:46:54
    92 MM40    26   547 PALMIERI Pasquale 1968 BA029 A.A.'E. MANZARI' CASAMASSIMA 00:46:56
    93 TM    16  1424 MARZOCCA Gaetano 1976 BA538 ATLETI  VALLE DELL'OFANTO 00:47:01
    94 MM35    22   951 LOMBARDI Francesco 1970 BA005 AMATORI ATL. ACQUAVIVA 00:47:01
    95 TM    17  3396 CARBONARA Michele 1981 BA551 ASS. NAZIONALE BERSAGLIERI BAR 00:47:02
    96 MM50     4   503 D'APRILE Giovanni 1959 BA541 ALTEATLETICA ALTAMURA 00:47:04
    97 MM45    13   317 MILETO Francesco 1961 BA525 CRAL AMIU BARI 00:47:05
    98 MM35    23  1433 CIANCIOLO Marco 1970 BA538 ATLETI  VALLE DELL'OFANTO 00:47:06
    99 MM55 2   362 COLAIANNI Scipione 1953 BA007 CUS BARI 00:47:06
    100 TM    18   789 UVA Michele 1980 BA554 FREE RUNNERS MOLFETTA 00:47:07
    101 MM45    14  1140 PADOLECCHIA Luciano 1963 BA531 A.S.D. SAN NICOLA RUNNERS 00:47:08
    102 MM35    24   600 BALICE Sergio 1971 BA544 ATLETICA DISFIDA DI BARLETTA 00:47:09
    103 MM40    27   318 SODANO Onofrio 1965 BA525 CRAL AMIU BARI 00:47:12
    104 MM40    28   671 CANCELLI Nicola 1965 BA082 ATLETICA TOMMASO ASSI TRANI 00:47:14
    105 MM45    15   949 MELE Nicola Domenico 1962 BA005 AMATORI ATL. ACQUAVIVA 00:47:15
    106 TM    19  1025 DI CAMPI Gaetano 1975 BA050 A.S.NICOLAUS ATHLETIC CENTER 00:47:17
    107 TM    20   892 MATARRESE Giuseppe 1984 BA507 A.MARATONETI ANDRIESI 00:47:19
    108 MM50     5   708 D'INGEO Francesco 1958 BA062 A.S. KANKUDAI 00:47:20
    109 MM45    16   929 SACCENTE Luigi 1961 BA530 G.S.BRIGATA CORAZZATA PINEROLO 00:47:21
    110 MM45    17    13 AFFUSO Rocco Alfredo 1961 BA039 A.S. AMICI STRADA DEL TESORO 00:47:24
    111 MM35    25   779 ABBATEPAOLO Vito 1972 BA535 A.S. ATLETICA POLIGNANO 00:47:26
    112 TM    21   818 SPINOSA Filippo 1978 BA057 ATHLETIC MARATHON SANTERAMO 00:47:31
    113 MM45    18   473 ZENTI Nicola 1960 BA509 POD. CANUSIUM 2004 00:47:34
    114 MM40    29   118 CASSANO Donato 1966 BA505 A.S. QUELLI DELLA PINETA 00:47:35
    115 MM35    26   655 STELLACCI Vito 1971 BA099 POL. 'D. PIETRI' GRAVINA 00:47:38
    116 TM    22   305 ORLANDO Lorenzo 1982 BA586 A.S.D.ASOPICO RUNNER BARI 00:47:40
    117 MM35    27  1493 VITALE Domenico 1971 BA099 POL. 'D. PIETRI' GRAVINA 00:47:42
    118 TM    23  1020 CASSANO Nicola 1978 BA517 ASS. DILETTANTIST BARIMARATONA 00:47:47
    119 TM    24   448 RANIERI Francesco 1976 BA597 ASD NUOVA ATLETICA GIOVINAZZO 00:47:48
    120 MM50     6   477 PAULICELLI Vincenzo 1956 BA509 POD. CANUSIUM 2004 00:47:48
    121 MM60     1   191 LATERZA Domenico 1946 BA093 ATLETIC CLUB ALTAMURA 00:47:50
    122 MM45    19  1385 PASTORE Giuseppe 1960 BA041 ATLETICA PRO CANOSA 00:47:51
    123 TM    25   187 CASANOVA Francesco 1976 BA093 ATLETIC CLUB ALTAMURA 00:47:52
    124 MM40    30   865 D'AMBROSIO Antonio 1968 BA507 A.MARATONETI ANDRIESI 00:47:54
    125 SF     2     2 VENTRELLA Immacolata 1981 BA015 A.S. OLIMPIA CLUB 00:47:55
    126 TM    26   206 ZACCHEO Vincenzo 1976 BA005 AMATORI ATL. ACQUAVIVA 00:48:03
    127 MM50     7  1130 FERRARA Vincenzo 1958 BA531 A.S.D. SAN NICOLA RUNNERS 00:48:05
    128 MM35    28  1275 VITALE Nicola 1970 BA049 G.S.P. III REGIONE AEREA BARI 00:48:06
    129 MM35    29  1352 LORIZZO Onofrio 1973 BA043 G.S.ATLETICA AMATORI CORATO 00:48:08
    130 MM50     8   364 DE CANDIA Giovanni 1959 BA007 CUS BARI 00:48:10
    131 MM40    31   531 CIPRIANO Giuseppe 1969 BA029 A.A.'E. MANZARI' CASAMASSIMA 00:48:13
    132 MM35    30   837 ZIRO Salvatore 1970 FG264 A.S. CULTURALE POD. S. STEFANO 00:48:15
    133 MM60     2   444 D'AMBRUOSO Michele 1946 BA052 BARI ROAD RUNNERS CLUB 00:48:20
    134 MM35    31   629 DI TOMA Simone 1971 BA592 BARLETTA SPORTIVA 00:48:21
    135 MM35    32   694 SCIBILIA Sergio 1972 FG284 MARGHERITA DI SAVOIA RUNNERS 00:48:22
    136 MM40    32   353 ZACCARO Sabino 1965 BA578 ATLETICA AUFIDUS 00:48:23
    137 MM40    33   943 DINIELLI Pietro 1966 BA005 AMATORI ATL. ACQUAVIVA 00:48:25
    138 MM40    34   692 PIAZZOLLA Salvatore 1967 FG284 MARGHERITA DI SAVOIA RUNNERS 00:48:26
    139 SM     4   847 CAMPOBASSO Vito 1974 BA008 A.S.D.ATL. TRIGGIANO PUGLIA 00:48:27
    140 MM35    33    72 ACQUAVIVA Massimiliano 1973 BA546 POD. VALLE D'ITRIA LOCOROTONDO 00:48:28
    141 MM35    34    73 MARANGI GRASSI Giuseppe 1971 BA546 POD. VALLE D'ITRIA LOCOROTONDO 00:48:32
    142 MM35    35   791 CALO' Andrea Giuseppe 1970 BA554 FREE RUNNERS MOLFETTA 00:48:33
    143 MM60     3  1019 ATTOLICO Tommaso 1948 BA517 ASS. DILETTANTIST BARIMARATONA 00:48:34
    144 MM55 3   595 CASCELLA Vito 1954 BA544 ATLETICA DISFIDA DI BARLETTA 00:48:40
    145 MM40    35   316 VENTURO Donato 1966 BA586 A.S.D.ASOPICO RUNNER BARI 00:48:41
    146 NTF     4  1442 MARRANO Michele 1973 BA999 NON TESSERATI FIDAL 00:48:42
    147 MM45    20  1023 RANIERI Vito 1960 BA517 ASS. DILETTANTIST BARIMARATONA 00:48:43
    148 MM35    36   817 TRITTO Erasmo 1973 BA057 ATHLETIC MARATHON SANTERAMO 00:48:43
    149 NTF     5  1356 PIARULLI Felice 1970 BA999 NON TESSERATI FIDAL 00:48:44
    150 MM45    21  1384 ORBELLO Sabino 1960 BA041 ATLETICA PRO CANOSA 00:48:45
    151 MM60     4  1389 PIGLIONICA Michele 1949 BA041 ATLETICA PRO CANOSA 00:48:45
    152 MM35    37    89 GRANATA Giuseppe 1970 BA546 POD. VALLE D'ITRIA LOCOROTONDO 00:48:47
    153 MM40    36   391 DAMBROSIO Andrea 1968 BA099 POL. 'D. PIETRI' GRAVINA 00:48:47
    154 MM50     9   907 POLICASTRO Andrea 1957 BA507 A.MARATONETI ANDRIESI 00:48:48
    155 TM    27  1266 TAURO Domenico 1984 BA011 A.S. ATLETICA CASTELLANA 00:48:49
    156 MM45    22  1153 SERVIDIO Francesco 1961 BA531 A.S.D. SAN NICOLA RUNNERS 00:48:51
    157 MM35    38  1306 VALENTINI Domenico 1974 BA521 A.S. DOF AMATORI TURI 00:48:59
    158 NTF     6  3553 SCAVO Michele 1970 BA999 NON TESSERATI FIDAL 00:48:59
    159 MM45    23   560 VALERIO Nicola 1962 BA097 SPORT CENTER 00:49:00
    160 MM40    37  1054 CAPUTO Gino 1967 BA587 LA PIETRA 00:49:01
    161 MM55 4   535 FORNARELLI Gaetano 1950 BA029 A.A.'E. MANZARI' CASAMASSIMA 00:49:01
    162 MM40    38   466 CATALANO Matteo 1965 BA509 POD. CANUSIUM 2004 00:49:02
    163 MM35    39   746 TURI Nicola 1971 BA062 A.S. KANKUDAI 00:49:03
    164 MM40    39  1188 RAFASCHIERI Massimo 1968 BA517 ASS. DILETTANTIST BARIMARATONA 00:49:05
    165 NTF     7  3551 DI MODUGNO Carlo 1960 BA999 NON TESSERATI FIDAL 00:49:06
    166 MM50    10   724 LAFORGIA Giovanni 1957 BA062 A.S. KANKUDAI 00:49:10
    167 MM35    40  1242 MOSCATELLI Angelo 1971 BA529 A.S. TRANI MARATHON 00:49:15
    168 MM40    40    82 CHIAPPARINO Raffaele 1968 BA546 POD. VALLE D'ITRIA LOCOROTONDO 00:49:16
    169 JF     1     4 CASTELLANA Paola 1990 BA089 ALTERATLETICA LOCOROTONDO 00:49:16
    170 TM    28   264 CARRIERI Cosimo 1981 BA058 ATLETICA  MONOPOLI 00:49:20
    171 MM45    24   581 DICUONZO Domenico 1964 BA544 ATLETICA DISFIDA DI BARLETTA 00:49:24
    172 TM    29  1012 COLANGELO Giambattista 1976 TA423 CLUB RUNNER 87 VALENTE ARREDI 00:49:24
    173 MM55 5  1386 PELLEGRINO Cosimo 1951 BA041 ATLETICA PRO CANOSA 00:49:25
    174 PM     6  1035 SIMEONE Cosimo 1988 BA050 A.S.NICOLAUS ATHLETIC CENTER 00:49:25
    175 MM35    41  1221 AVVENIENTE Nunzio 1971 BA529 A.S. TRANI MARATHON 00:49:26
    176 NTF     8  1338 LORUSSO Michele 1982 BA999 NON TESSERATI FIDAL 00:49:29
    177 NTF     9  1212 LUCARELLI Donato 1960 BA999 NON TESSERATI FIDAL 00:49:29
    178 MM35    42  1133 LOMBARDI Marino 1973 BA531 A.S.D. SAN NICOLA RUNNERS 00:49:36
    179 NTF    10   400 MASIELLO Innocenzo 1964 BA999 NON TESSERATI FIDAL 00:49:36
    180 TM    30  1235 PINTO Ignazio 1976 BA529 A.S. TRANI MARATHON 00:49:37
    181 MM35    43   405 SILVESTRI Luigi 1970 BA099 POL. 'D. PIETRI' GRAVINA 00:49:37
    182 AM     3   208 LOPRIENO Roberto 1993 BA091 ATL. ADEN  EXPRIVIA MOLFETTA 00:49:38
    183 MM50    11   356 SALVEMINI Nico 1957 BA007 CUS BARI 00:49:39
    184 MM40    41  1334 MURAGLIA Domenico 1968 BA550 AVIS IN CORSA CONVERSANO 00:49:39
    185 TM    31  3403 MILELLA Nicola 1975 BA551 ASS. NAZIONALE BERSAGLIERI BAR 00:49:41
    186 MM55 6  1150 SANTORO Gennaro 1951 BA531 A.S.D. SAN NICOLA RUNNERS 00:49:43
    187 MM35    44   556 LABARILE Raffaele 1970 BA057 ATHLETIC MARATHON SANTERAMO 00:49:44
    188 MM50    12  1361 BALDASSARRE Francesco 1957 BA041 ATLETICA PRO CANOSA 00:49:47
    189 MM45    25   739 RUBINI Giuseppe 1960 BA062 A.S. KANKUDAI 00:49:48
    190 MM40    42   626 CASCELLA Vincenzo 1969 BA592 BARLETTA SPORTIVA 00:49:49
    191 MM55 7   243 RUGGIERO Vincenzo 1951 BA039 A.S. AMICI STRADA DEL TESORO 00:49:52
    192 TM    32  1118 ARDITO Francesco 1975 BA531 A.S.D. SAN NICOLA RUNNERS 00:49:54
    193 PM     7   844 MARTIRADONNA Saverio 1989 BA007 CUS BARI 00:49:54
    194 MM40    43   577 NAPOLETANO Francesco 1966 BA544 ATLETICA DISFIDA DI BARLETTA 00:49:55
    195 MM40    44   175 BRUNO Giacomo 1968 BA093 ATLETIC CLUB ALTAMURA 00:49:56
    196 MM45    26  1283 DURANTE Pasquale 1964 BA049 G.S.P. III REGIONE AEREA BARI 00:49:57
    197 MM40    45   117 BRUNO Domenico 1966 BA505 A.S. QUELLI DELLA PINETA 00:49:57
    198 MM45    27   678 LOMAGLIO Carlo 1962 RM054 CLUB ATL. CENTRALE 00:49:58
    199 MM40    46  1326 CAPOZZI Giuseppe 1967 BA553 ATLETICA ADELFIA 00:50:00
    200 MM45    28   744 TRAVERSA Giovanni 1964 BA062 A.S. KANKUDAI 00:50:01
    201 MM55 8   479 FILETTO Cosimo Damiano 1952 BA509 POD. CANUSIUM 2004 00:50:03
    202 MM40    47   971 PIGNATELLI Carlo 1965 BR144 ATALAS SAN VITO DEI NORMANNI 00:50:04
    203 MM55 9   743 TIMEO Giovanni 1953 BA062 A.S. KANKUDAI 00:50:08
    204 MM35    45   116 PATRUNO Nicola 1970 BA505 A.S. QUELLI DELLA PINETA 00:50:10
    205 MM45    29   392 DEBENEDICTIS Michele 1963 BA099 POL. 'D. PIETRI' GRAVINA 00:50:12
    206 MM45    30  1347 CASAFINA Giovanni 1963 BA043 G.S.ATLETICA AMATORI CORATO 00:50:12
    207 MM45    31   425 ABBINANTE Sebastiano 1961 BA052 BARI ROAD RUNNERS CLUB 00:50:16
    208 MM50    13  1330 GENEROSO Domenico 1959 BA550 AVIS IN CORSA CONVERSANO 00:50:17
    209 MM35    46   611 SCIUSCO Francesco 1972 BA544 ATLETICA DISFIDA DI BARLETTA 00:50:19
    210 MM40    48   288 MORETTI Angelo 1966 BA039 A.S. AMICI STRADA DEL TESORO 00:50:21
    211 MM40    49   944 DI BARI Salvatore 1968 BA005 AMATORI ATL. ACQUAVIVA 00:50:22
    212 MM35    47   174 TAMBORRA Raffaele 1970 BA093 ATLETIC CLUB ALTAMURA 00:50:23
    213 MM45    32   528 BORREGGINE Vito 1963 BA029 A.A.'E. MANZARI' CASAMASSIMA 00:50:24
    214 NTF    11   446 AVOLIO Alberto 1966 BA999 NON TESSERATI FIDAL 00:50:24
    215 MM40    50   186 NINIVAGGI Arcangelo 1966 BA093 ATLETIC CLUB ALTAMURA 00:50:25
    216 MM40    51   661 ALICINO Riccardo 1969 BA082 ATLETICA TOMMASO ASSI TRANI 00:50:26
    217 MM35    48   393 DEL VECCHIO Michele 1971 BA099 POL. 'D. PIETRI' GRAVINA 00:50:28
    218 MM50    14   959 AMORINO Domenico 1957 BA005 AMATORI ATL. ACQUAVIVA 00:50:29
    219 MM50    15   583 VALERIO Luigi 1959 BA544 ATLETICA DISFIDA DI BARLETTA 00:50:30
    220 MM45    33   709 D'INGEO Marcello 1962 BA062 A.S. KANKUDAI 00:50:31
    221 MM35    49  1137 MARZILIANO Angelo 1972 BA531 A.S.D. SAN NICOLA RUNNERS 00:50:33
    222 MM45    34   713 DE MARIO Pietro 1962 BA062 A.S. KANKUDAI 00:50:35
    223 MM40    52   749 VITERBO Vito 1969 BA062 A.S. KANKUDAI 00:50:35
    224 MM45    35  1230 MAGRONE Luigi 1963 BA529 A.S. TRANI MARATHON 00:50:36
    225 MM40    53  1145 QUAGLIANA Stefano 1966 BA531 A.S.D. SAN NICOLA RUNNERS 00:50:37
    226 MM45    36   121 LADISA Francesco 1962 BA505 A.S. QUELLI DELLA PINETA 00:50:39
    227 MM40    54  1279 PIGNATELLI Domenico 1968 BA049 G.S.P. III REGIONE AEREA BARI 00:50:41
    228 TM    33   584 LASALA Ruggiero 1976 BA544 ATLETICA DISFIDA DI BARLETTA 00:50:44
    229 MM40    55   992 SCAVO Giuseppe 1966 BA553 ATLETICA ADELFIA 00:50:47
    230 MM40    56  1299 GIULIANO Mario Luciano 1966 BA521 A.S. DOF AMATORI TURI 00:50:48
    231 MM50    16   706 COLELLA Gaetano 1958 BA062 A.S. KANKUDAI 00:50:50
    232 NTF    12  3917 CIANI Luigi 1964 BA999 NON TESSERATI FIDAL 00:50:50
    233 NTF    13  1478 NASCHETTI Alfonso 1959 BA999 NON TESSERATI FIDAL 00:50:51
    234 MM40    57  1276 ANGELILLO Donato 1965 BA049 G.S.P. III REGIONE AEREA BARI 00:50:51
    235 MM40    58   667 DI TOMA Domenico 1967 BA082 ATLETICA TOMMASO ASSI TRANI 00:50:52
    236 MM45    37  1146 RIZZI Michele 1960 BA531 A.S.D. SAN NICOLA RUNNERS 00:50:52
    237 NTF    14  3759 PETRUZZELLA Nicola 1960 BA999 NON TESSERATI FIDAL 00:50:53
    238 MM40    59   358 BALENA Pasquale 1966 BA007 CUS BARI 00:50:53
    239 TM    34  3394 DI FIDIO Nicola 1976 BA551 ASS. NAZIONALE BERSAGLIERI BAR 00:51:00
    240 MM45    38   993 STAFFIERI Vincenzo 1961 BA553 ATLETICA ADELFIA 00:51:02
    241 NTF    15   447 RIZZOTTI Michele 1968 BA999 NON TESSERATI FIDAL 00:51:02
    242 NTF    16   643 CANTATORE Marco 1972 BA999 NON TESSERATI FIDAL 00:51:07
    243 MM45    39   545 NANNA Michele 1962 BA029 A.A.'E. MANZARI' CASAMASSIMA 00:51:07
    244 TM    35  2953 SUSCO Giacomo 1978 BA007 CUS BARI 00:51:09
    245 TM    36  1021 DE NAPOLI Daniele 1975 BA517 ASS. DILETTANTIST BARIMARATONA 00:51:09
    246 MM40    60  1308 TRAVERSA Nicola 1966 BA025 A.S. AMATORI PUTIGNANO 00:51:10
    247 TF     1   787 IANIA Silvana 1983 BA554 FREE RUNNERS MOLFETTA 00:51:10
    248 MM45    40   796 DE CANDIA Corrado 1964 BA554 FREE RUNNERS MOLFETTA 00:51:11
    249 MM40    61  1328 CACCIOPPOLI Paolo Vince 1966 BA550 AVIS IN CORSA CONVERSANO 00:51:12
    250 MM45    41  1336 VAVALLE Valter 1964 BA550 AVIS IN CORSA CONVERSANO 00:51:12
    251 SM     5   836 PAPAGNI Vincenzo 1986 FG264 A.S. CULTURALE POD. S. STEFANO 00:51:13
    252 NTF    17   491 FILOMENO Mino 1967 BA999 NON TESSERATI FIDAL 00:51:14
    253 MM35    50   861 CONVERSANO Vincenzo 1973 BA507 A.MARATONETI ANDRIESI 00:51:15
    254 MM50    17   798 GERVASIO Sergio Edmondo 1955 BA554 FREE RUNNERS MOLFETTA 00:51:19
    255 NTF    18  1441 MASELLIS Gaetano 1911 BA999 NON TESSERATI FIDAL 00:51:20
    256 MM45    42  1056 CUTRIGNELLI Angelo 1961 BA587 LA PIETRA 00:51:24
    257 TM    37   139 ABBONDANZA Alessandro 1982 BA505 A.S. QUELLI DELLA PINETA 00:51:25
    258 NTF    19  3823 SIMONE Savino 1957 BA999 NON TESSERATI FIDAL 00:51:26
    259 MM50    18   131 RADICCHIO Biagio 1956 BA505 A.S. QUELLI DELLA PINETA 00:51:27
    260 MM55 10   270 ROTONDO Ferruccio 1953 BA058 ATLETICA  MONOPOLI 00:51:28
    261 NTF    20  1114 DEL CARMELO  Camillo 1966 BA999 NON TESSERATI FIDAL 00:51:29
    262 MM50    19   534 DELLINO Nicola 1959 BA029 A.A.'E. MANZARI' CASAMASSIMA 00:51:32
    263 MM35    51   333 MASTRANDREA Felice 1972 BA525 CRAL AMIU BARI 00:51:33
    264 MM45    43   982 DI PINTO Luigi 1962 BA553 ATLETICA ADELFIA 00:51:35
    265 MM50    20   267 DI BELLO Nicolo' 1956 BA058 ATLETICA  MONOPOLI 00:51:36
    266 MM40    62   290 ROSSINI Roberto 1965 BA039 A.S. AMICI STRADA DEL TESORO 00:51:37
    267 MM50    21  1263 SANTAMARIA Vito Leonard 1957 BA039 A.S. AMICI STRADA DEL TESORO 00:51:38
    268 MM40    63  1147 ROMAGNOLO Diego 1965 BA531 A.S.D. SAN NICOLA RUNNERS 00:51:39
    269 MM50    22   476 MINERVA Nicola Rosario 1956 BA509 POD. CANUSIUM 2004 00:51:40
    270 MM50    23    20 LORUSSO Angelo 1958 BA097 SPORT CENTER 00:51:41
    271 MM40    64   745 TRIGGIANI Michele 1967 BA062 A.S. KANKUDAI 00:51:42
    272 CM     1  3799 GAGLIARDI Giacomo 1995 BA020 FIAMMA OLIMPIA PALO 00:51:43
    273 MM55 11   268 PASSIATORE Franco 1954 BA058 ATLETICA  MONOPOLI 00:51:44
    274 MM40    65   908 POMO Giuseppe 1966 BA507 A.MARATONETI ANDRIESI 00:51:44
    275 NTF    21  3945 LABROCCA Nicola 1960 BA999 NON TESSERATI FIDAL 00:51:45
    276 MM40    66   329 MORETTI Giovanni 1965 BA525 CRAL AMIU BARI 00:51:46
    277 MM40    67   265 MAIELLARO Vito 1969 BA058 ATLETICA  MONOPOLI 00:51:48
    278 MM45    44   373 LOSAVIO Giacomo 1962 BA007 CUS BARI 00:51:48
    279 MM35    52   879 GUADAGNO Donato 1970 BA507 A.MARATONETI ANDRIESI 00:51:50
    280 TM    38  1050 CAIATI Nicola 1977 BA587 LA PIETRA 00:51:51
    281 MM40    68  1057 DITARANTO Angelo 1968 BA587 LA PIETRA 00:51:51
    282 MM45    45  1284 ROBERTO Luigi 1964 BA049 G.S.P. III REGIONE AEREA BARI 00:51:52
    283 TM    39   557 OCCHIOGROSSO Lenardo 1982 BA057 ATHLETIC MARATHON SANTERAMO 00:51:52
    284 MM35    53   792 DE PALMA Marcantonio 1972 BA554 FREE RUNNERS MOLFETTA 00:51:54
    285 MM35    54   585 BRUNO Angelo Michele 1970 BA544 ATLETICA DISFIDA DI BARLETTA 00:51:54
    286 MM40    69   998 PARABITA Casimiro 1965 TA423 CLUB RUNNER 87 VALENTE ARREDI 00:51:55
    287 MM55 12   443 TARALLO Antonio 1951 BA052 BARI ROAD RUNNERS CLUB 00:51:55
    288 TM    40   285 DE TULLIO Tommaso 1985 BA580 A.S.D.  AGORA' 00:51:56
    289 MM45    46  1134 MARASCO Francesco 1960 BA531 A.S.D. SAN NICOLA RUNNERS 00:51:56
    290 MM45    47   781 DE RUSSIS Vito 1961 BA535 A.S. ATLETICA POLIGNANO 00:51:57
    291 MM40    70   542 MAGNIFICO Raffaele 1968 BA029 A.A.'E. MANZARI' CASAMASSIMA 00:51:58
    292 TM    41   532 CRISTANTIELLI Giuseppe 1979 BA029 A.A.'E. MANZARI' CASAMASSIMA 00:51:58
    293 MM45    48  1045 ROMANO Giampiero 1964 BA547 A.S.CORRIMONDO BITONTO 00:51:59
    294 MM50    24  1472 RENNA Raffaele 1958 BA543 MARATHON CLUB MINERVINO 00:51:59
    295 MM45    49   495 RAGONE Cosimo 1964 BA541 ALTEATLETICA ALTAMURA 00:52:00
    296 MM40    71   194 CHIRONNA Evangelista 1966 BA093 ATLETIC CLUB ALTAMURA 00:52:00
    297 MM45    50   579 GISSI Giuseppe 1962 BA544 ATLETICA DISFIDA DI BARLETTA 00:52:01
    298 TM    42  1015 ROCCO Vincenzo 1981 TA423 CLUB RUNNER 87 VALENTE ARREDI 00:52:01
    299 MM50    25  1273 PRETE Romeo 1955 BR113 ATLETICA CASALINI 00:52:02
    300 MM45    51  1445 CONTICCHIO Nicola 1963 BA512 POL.GRAVINA AELECTI S.GRAMEGNA 00:52:02
    301 MM45    52   248 PAVESI Lorenzo 1964 BA039 A.S. AMICI STRADA DEL TESORO 00:52:03
    302 MM50    26   430 TRIGGIANI Bruno 1959 BA052 BARI ROAD RUNNERS CLUB 00:52:03
    303 NTF    22  3834 DE FLORIO Arcangelo 1973 BA999 NON TESSERATI FIDAL 00:52:04
    304 NTF    23   504 LORUSSO Donato 1967 BA999 NON TESSERATI FIDAL 00:52:04
    305 MM40    72  1229 LOSAPIO Domenico 1969 BA529 A.S. TRANI MARATHON 00:52:05
    306 MM40    73   319 AMEDEO Michele 1967 BA525 CRAL AMIU BARI 00:52:06
    307 MM40    74   499 FRANCIA Pasquale 1965 BA541 ALTEATLETICA ALTAMURA 00:52:06
    308 NTF    24  1189 SPADA Giovanni 1911 BA999 NON TESSERATI FIDAL 00:52:07
    309 MM40    75   311 SCHIRONE Pietro 1965 BA586 A.S.D.ASOPICO RUNNER BARI 00:52:09
    310 NTF    25  1171 SANTAMATO Alessandro 1970 BA999 NON TESSERATI FIDAL 00:52:10
    311 NTF    26  3531 GIORDANO Angelo 1976 BA999 NON TESSERATI FIDAL 00:52:11
    312 MM40    76   266 PERRICCI Saverio 1965 BA058 ATLETICA  MONOPOLI 00:52:13
    313 TM    43   165 GARZONE Nicola 1975 BA093 ATLETIC CLUB ALTAMURA 00:52:14
    314 NTF    27  3621 MANCA Fabio 1966 BA999 NON TESSERATI FIDAL 00:52:14
    315 MM45    53   378 NESTA Mario 1962 BA007 CUS BARI 00:52:15
    316 NTF    28  2568 ATLANTE Vito 1966 BA999 NON TESSERATI FIDAL 00:52:16
    317 MM40    77   894 MOLFETTA Mario 1968 BA507 A.MARATONETI ANDRIESI 00:52:18
    318 MF45     1  1420 LATTANZIO Anna Serafina 1960 BA538 ATLETI  VALLE DELL'OFANTO 00:52:20
    319 MM45    54  1363 CARUCCI Pietro 1963 BA041 ATLETICA PRO CANOSA 00:52:21
    320 MM35    55   498 CASAMASSIMA Andrea 1970 BA541 ALTEATLETICA ALTAMURA 00:52:22
    321 MM55 13   620 CIANCIOTTA Nicola 1950 BA595 A.P.DIL. INSIEME PER LO SPORT 00:52:23
    322 MF35     1   552 LASSANDRO Isabella 1974 BA057 ATHLETIC MARATHON SANTERAMO 00:52:24
    323 MM40    78   554 LAZAZZERA Giuseppe 1968 BA057 ATHLETIC MARATHON SANTERAMO 00:52:25
    324 MM45    55   146 BRUNO Michele 1961 BA093 ATLETIC CLUB ALTAMURA 00:52:26
    325 NTF    29  3120 TRIGGIANI Giovanni 1952 BA999 NON TESSERATI FIDAL 00:52:29
    326 MM50    27   489 COLAMONACO Diego 1956 BA541 ALTEATLETICA ALTAMURA 00:52:31
    327 MM40    79  1258 MORETTI Filomeno 1966 BA548 G.S. ESERCITO 10¦ RE.TRA 00:52:31
    328 NTF    30  3533 MUTANDA Jonny 1973 BA999 NON TESSERATI FIDAL 00:52:32
    329 MM45    56   970 NIMIS Claudio 1963 BR144 ATALAS SAN VITO DEI NORMANNI 00:52:32
    330 NTF    31  1248 LETTINI Matteo 1954 BA999 NON TESSERATI FIDAL 00:52:33
    331 MM40    80   321 CORTIGIANO Mattia 1967 BA525 CRAL AMIU BARI 00:52:34
    332 MM45    57   719 FACCILONGO Giovanni 1963 BA062 A.S. KANKUDAI 00:52:34
    333 MM45    58  1003 RIZZI Giovanni 1960 TA423 CLUB RUNNER 87 VALENTE ARREDI 00:52:34
    334 NTF    32  1112 PANTALEO Antonio 1970 BA999 NON TESSERATI FIDAL 00:52:35
    335 NTF    33  3866 DI MASTROCHICCO Vincenz 1959 BA999 NON TESSERATI FIDAL 00:52:35
    336 MM40    81  1281 SERINO Gaetano 1969 BA049 G.S.P. III REGIONE AEREA BARI 00:52:36
    337 MM50    28  1289 DONGIOVANNI Nicola 1958 BA049 G.S.P. III REGIONE AEREA BARI 00:52:36
    338 MM40    82   423 PANEBIANCO Adriano 1969 BA052 BARI ROAD RUNNERS CLUB 00:52:37
    339 MM50    29   605 RONDINONE Giuseppe 1957 BA544 ATLETICA DISFIDA DI BARLETTA 00:52:38
    340 MM40    83   326 LAVERMICOCCA Gaetano 1965 BA525 CRAL AMIU BARI 00:52:38
    341 MM40    84   615 PEPE Francesco 1968 BA595 A.P.DIL. INSIEME PER LO SPORT 00:52:39
    342 NTF    34  3538 RICUPERO Domenico 1981 BA999 NON TESSERATI FIDAL 00:52:40
    343 MM55 14   562 SPANO Giovanni 1952 BA097 SPORT CENTER 00:52:41
    344 MM35    56  1366 D'AMBRA Sergio Salvator 1971 BA041 ATLETICA PRO CANOSA 00:52:42
    345 TM    44  1030 MINCUZZI Massimo 1977 BA050 A.S.NICOLAUS ATHLETIC CENTER 00:52:44
    346 MM45    59  1267 SPERTI Ernesto 1960 BA011 A.S. ATLETICA CASTELLANA 00:52:44
    347 MM55 15   800 DE GIOIA Giuseppe Anton 1954 BA554 FREE RUNNERS MOLFETTA 00:52:45
    348 MM45    60  1034 SILEO Francesco 1963 BA050 A.S.NICOLAUS ATHLETIC CENTER 00:52:46
    349 MM35    57   188 CASANOVA Giuseppe 1973 BA093 ATLETIC CLUB ALTAMURA 00:52:47
    350 MF45     2   932 MELE Antonia 1964 BA047 NUOVA ATL. FEMM. ACQUAVIVA 00:52:48
    351 MM45    61  1335 VALENTE Nicola Giuseppe 1960 BA550 AVIS IN CORSA CONVERSANO 00:52:49
    352 MM45    62  1058 GAGLIARDI Rocco 1960 BA587 LA PIETRA 00:52:54
    353 MM40    85   887 LOVAGLIO Francesco 1966 BA507 A.MARATONETI ANDRIESI 00:52:56
    354 MM40    86   424 PICCININNO Antonio 1965 BA052 BARI ROAD RUNNERS CLUB 00:52:58
    355 MM40    87   871 DI NICCOLO Giuseppe 1967 BA507 A.MARATONETI ANDRIESI 00:52:59
    356 MM40    88  1223 AVVENIENTE Vincenzo 1966 BA529 A.S. TRANI MARATHON 00:52:59
    357 TM    45  1228 DI PALMA Riccardo Stefa 1976 BA529 A.S. TRANI MARATHON 00:53:01
    358 SF     3   934 GIUSTINO Viola 1986 BA047 NUOVA ATL. FEMM. ACQUAVIVA 00:53:02
    359 MM45    63   279 MILELLA Agostino 1960 BA580 A.S.D.  AGORA' 00:53:02
    360 MM55 16   395 FONTE Fulvio 1954 BA099 POL. 'D. PIETRI' GRAVINA 00:53:03
    361 MM35    58   403 PAPAGNA Giuseppe 1970 BA099 POL. 'D. PIETRI' GRAVINA 00:53:03
    362 MM45    64   298 GLORIOSO Giacomo 1960 BA586 A.S.D.ASOPICO RUNNER BARI 00:53:04
    363 MM40    89   376 MARINO Vito 1968 BA007 CUS BARI 00:53:05
    364 NTF    35  3159 MNZARI Nicola 1974 BA999 NON TESSERATI FIDAL 00:53:06
    365 MM40    90   207 RAMUNNO Paolo 1966 BA005 AMATORI ATL. ACQUAVIVA 00:53:09
    366 MM50    30   773 BRUNO Giuseppe 1955 BA502 A.S.D. MONTEDORO NOCI 00:53:10
    367 MM50    31   984 FANELLI Giuseppe 1957 BA553 ATLETICA ADELFIA 00:53:12
    368 MM40    91  1393 SCIANNAMEA Michele 1968 BA041 ATLETICA PRO CANOSA 00:53:13
    369 NTF    36  1195 LOIUDICE Roberto 1968 BA999 NON TESSERATI FIDAL 00:53:14
    370 MM50    32   438 TARALLO Mario 1959 BA052 BARI ROAD RUNNERS CLUB 00:53:14
    371 MM35    59  1067 SCHIAVONE Nicola 1970 BA587 LA PIETRA 00:53:15
    372 TM    46  1061 MARKOVIC Marco 1980 BA587 LA PIETRA 00:53:16
    373 MM45    65  1022 GIULIANI Giuseppe 1961 BA517 ASS. DILETTANTIST BARIMARATONA 00:53:17
    374 MM45    66   147 OSTUNI Salvatore 1962 BA093 ATLETIC CLUB ALTAMURA 00:53:17
    375 MM45    67   170 RAFAELE Angelo 1964 BA093 ATLETIC CLUB ALTAMURA 00:53:20
    376 NTF    37  3177 SEMPLICE Giovanni 1970 BA999 NON TESSERATI FIDAL 00:53:21
    377 MM45    68  1087 SCOLAMIERO Francesco 1960 PZ555 PODISTICA HERMES LAVELLO 00:53:23
    378 MM35    60   732 PASCAZIO Lorenzo 1970 BA062 A.S. KANKUDAI 00:53:23
    379 MM45    69   141 LADISA Francesco 1963 BA505 A.S. QUELLI DELLA PINETA 00:53:24
    380 MM50    33   668 CARIATI Antonio 1956 BA082 ATLETICA TOMMASO ASSI TRANI 00:53:25
    381 MM45    70   727 MALTARINA Pietro 1962 BA062 A.S. KANKUDAI 00:53:26
    382 TM    47   790 DEL VESCOVO Leonardo 1978 BA554 FREE RUNNERS MOLFETTA 00:53:27
    383 MF35     2  1156 CARELLA Carmen 1971 BA531 A.S.D. SAN NICOLA RUNNERS 00:53:27
    384 MM35    61   710 DAMIANI Donato 1972 BA062 A.S. KANKUDAI 00:53:28
    385 NTF    38  3757 VENTURA Giuseppe Fabian 1973 BA999 NON TESSERATI FIDAL 00:53:28
    386 MM45    71   827 RUSSO Savino 1964 FG264 A.S. CULTURALE POD. S. STEFANO 00:53:29
    387 MM40    92   831 MANSI Matteo 1966 FG264 A.S. CULTURALE POD. S. STEFANO 00:53:29
    388 NTF    39   486 DINARDO Domenico 1993 BA999 NON TESSERATI FIDAL 00:53:30
    389 MM45    72   496 PALASCIANO Felice 1964 BA541 ALTEATLETICA ALTAMURA 00:53:31
    390 MM50    34  1126 COPPOLECCHIA Elia 1959 BA531 A.S.D. SAN NICOLA RUNNERS 00:53:31
    391 MM35    62  1039 COLASANTO Gaetano 1973 BA547 A.S.CORRIMONDO BITONTO 00:53:32
    392 MM45    73  1219 ALTIERI Antonio 1963 BA529 A.S. TRANI MARATHON 00:53:32
    393 MM45    74    79 DELLA ROSA Eliodoro Fra 1962 BA546 POD. VALLE D'ITRIA LOCOROTONDO 00:53:33
    394 TM    48  1256 CHIRULLI Angelo 1981 TA441 G.S. PAOLOTTI - ATL MARTINA 00:53:34
    395 MM40    93   904 PINTO Giuseppe 1967 BA507 A.MARATONETI ANDRIESI 00:53:34
    396 MM35    63  1463 INGLESE Raffaele 1970 BA543 MARATHON CLUB MINERVINO 00:53:35
    397 MM45    75  1355 PELLEGRINO Michele 1962 BA043 G.S.ATLETICA AMATORI CORATO 00:53:35
    398 MM55 17   237 COLANTUONO Pasquale 1953 BA039 A.S. AMICI STRADA DEL TESORO 00:53:35
    399 MM50    35   127 LACITIGNOLA Francesco S 1959 BA505 A.S. QUELLI DELLA PINETA 00:53:35
    400 MM45    76   530 BRUNO Michele 1962 BA029 A.A.'E. MANZARI' CASAMASSIMA 00:53:36
    401 MM40    94  1447 LAGRECA Francesco 1968 BA512 POL.GRAVINA AELECTI S.GRAMEGNA 00:53:37
    402 MM40    95  1348 FRASCOLLA Leonardo 1965 BA043 G.S.ATLETICA AMATORI CORATO 00:53:38
    403 NTF    40  3040 CAPPUCCIO Renato 1973 BA999 NON TESSERATI FIDAL 00:53:39
    404 MM40    96   281 VITIELLO Francesco 1966 BA580 A.S.D.  AGORA' 00:53:39
    405 MM55 18  1380 MASSA Sabino 1951 BA041 ATLETICA PRO CANOSA 00:53:40
    406 MM45    77  1392 SARDELLA Sabino Maria c 1960 BA041 ATLETICA PRO CANOSA 00:53:41
    407 TF     2  1397 MATARRESE Mariangela 1976 BA041 ATLETICA PRO CANOSA 00:53:42
    408 MM45    78  1382 MERAFINA Nicola Giusepp 1961 BA041 ATLETICA PRO CANOSA 00:53:43
    409 MM45    79  1364 D'AGNELLI Michele 1961 BA041 ATLETICA PRO CANOSA 00:53:43
    410 MM40    97   347 MADDALENA Sabino 1969 BA578 ATLETICA AUFIDUS 00:53:44
    411 MM40    98   956 DE SANTIS Domenico 1965 BA005 AMATORI ATL. ACQUAVIVA 00:53:45
    412 TM    49  3404 SALVEMINI Ruggiero 1982 BA551 ASS. NAZIONALE BERSAGLIERI BAR 00:53:45
    413 MM45    80  1388 PETRONI Pietro Riccardo 1960 BA041 ATLETICA PRO CANOSA 00:53:46
    414 MM40    99   189 MAGGI Sebastiano 1966 BA093 ATLETIC CLUB ALTAMURA 00:53:47
    415 MM35    64  1271 LOSETO Angelo 1971 BR113 ATLETICA CASALINI 00:53:48
    416 NTF    41  3244 BELLINO Luigi 1961 BA999 NON TESSERATI FIDAL 00:53:49
    417 MM45    81   427 COLAIEMMA Giovanni 1961 BA052 BARI ROAD RUNNERS CLUB 00:53:50
    418 MM45    82  1394 SCIANNAMEA Vincenzo 1961 BA041 ATLETICA PRO CANOSA 00:53:51
    419 MM45    83  3388 SCARABAGGIO Albino 1961 BA551 ASS. NAZIONALE BERSAGLIERI BAR 00:53:51
    420 MM50    36   439 TRICARICO Giancarlo 1957 BA052 BARI ROAD RUNNERS CLUB 00:53:52
    421 MM35    65   613 RELLA Domenico 1970 BA595 A.P.DIL. INSIEME PER LO SPORT 00:53:53
    422 NTF    42  3093 FERRIGNO Stefano 1971 BA999 NON TESSERATI FIDAL 00:53:54
    423 MM50    37   346 LUISI Luigi 1955 BA578 ATLETICA AUFIDUS 00:53:54
    424 TM    50   216 PANTALEO Alberto 1975 BA530 G.S.BRIGATA CORAZZATA PINEROLO 00:53:55
    425 NTF    43  3210 GERNONE Giovanni 1911 BA999 NON TESSERATI FIDAL 00:53:56
    426 MM45    84   741 STRAZIOTA Michele 1961 BA062 A.S. KANKUDAI 00:53:56
    427 MM40   100   673 TRAVISANI Giacomo 1966 BA082 ATLETICA TOMMASO ASSI TRANI 00:53:57
    428 NTF    44  3880 PAOLILLO Antonio 1970 BA999 NON TESSERATI FIDAL 00:53:58
    429 NTF    45  3464 BELLEZZA Paolo 1963 BA999 NON TESSERATI FIDAL 00:53:58
    430 NTF    46  3569 COLELLA Vincenzo 1966 BA999 NON TESSERATI FIDAL 00:54:00
    431 NTF    47  3942 TORTORA Francesco 1962 BA999 NON TESSERATI FIDAL 00:54:00
    432 MM50    38  3400 DE RUVO Pierangelo 1957 BA551 ASS. NAZIONALE BERSAGLIERI BAR 00:54:01
    433 MF40     1    17 CITTADINO Annunziata 1966 BA052 BARI ROAD RUNNERS CLUB 00:54:02
    434 TM    51   945 RASO Francesco 1977 BA005 AMATORI ATL. ACQUAVIVA 00:54:02
    435 TM    52  1131 GUAGLIANONE Christian 1975 BA531 A.S.D. SAN NICOLA RUNNERS 00:54:04
    436 TM    53   834 ABATINO Adolfo 1979 FG264 A.S. CULTURALE POD. S. STEFANO 00:54:04
    437 NTF    48   513 LORE Michele 1969 BA999 NON TESSERATI FIDAL 00:54:06
    438 AM     4   846 UNGARO Giuseppe 1993 BA007 CUS BARI 00:54:07
    439 MM40   101   924 TROIA Nicola 1968 BA507 A.MARATONETI ANDRIESI 00:54:07
    440 MM40   102   249 FIORE Domenico 1965 BA039 A.S. AMICI STRADA DEL TESORO 00:54:08
    441 MM40   103   793 DE GENNARO Francesco 1967 BA554 FREE RUNNERS MOLFETTA 00:54:08
    442 NTF    49  1071 SASSANELLI Luigi 1970 BA999 NON TESSERATI FIDAL 00:54:08
    443 MM45    85   826 ROMANO Antonio 1963 FG264 A.S. CULTURALE POD. S. STEFANO 00:54:09
    444 MM35    66   911 RAGNO Dante 1970 BA507 A.MARATONETI ANDRIESI 00:54:09
    445 MM50    39   614 JACOVONE Angelo 1955 BA595 A.P.DIL. INSIEME PER LO SPORT 00:54:10
    446 TM    54   190 LORUSSO Filippo 1977 BA093 ATLETIC CLUB ALTAMURA 00:54:11
    447 MM55 19   441 PETRIELLA Giuseppe 1952 BA052 BARI ROAD RUNNERS CLUB 00:54:12
    448 TF     3   286 VITALE Mariangela 1978 BA580 A.S.D.  AGORA' 00:54:13
    449 MM50    40   278 GRANDOLFO Ruggiero 1959 BA580 A.S.D.  AGORA' 00:54:14
    450 MM45    86  1349 GALLO Sergio 1962 BA043 G.S.ATLETICA AMATORI CORATO 00:54:15
    451 MM40   104  1000 RIZZI Arcangelo 1967 TA423 CLUB RUNNER 87 VALENTE ARREDI 00:54:20
    452 MM45    87  1148 ROMEO Giancarlo 1960 BA531 A.S.D. SAN NICOLA RUNNERS 00:54:21
    453 MM45    88   761 MUSCI Antonio 1960 BA582 SPORTING C. BISCEGLIE RUNNING 00:54:21
    454 MM55 20   715 DE PALMA Sergio 1953 BA062 A.S. KANKUDAI 00:54:22
    455 AM     5   843 LASTILLA Michele 1993 BA007 CUS BARI 00:54:22
    456 MM55 21  1311 MAGGIPINTO Pietro 1953 BA025 A.S. AMATORI PUTIGNANO 00:54:23
    457 MM45    89  1127 D'ALBA Vito 1962 BA531 A.S.D. SAN NICOLA RUNNERS 00:54:23
    458 MM45    90   850 ALESSANDRO Francesco 1964 BA507 A.MARATONETI ANDRIESI 00:54:23
    459 MM45    91   910 QUACQUARELLI Vincenzo 1963 BA507 A.MARATONETI ANDRIESI 00:54:24
    460 MM45    92   343 GROSSI Nicola 1964 BA578 ATLETICA AUFIDUS 00:54:24
    461 MM50    41   641 RIZZI Cosimo Damiano 1957 BA592 BARLETTA SPORTIVA 00:54:25
    462 MM35    67  1412 CURCI Domenico 1970 BA538 ATLETI  VALLE DELL'OFANTO 00:54:26
    463 MM35    68   217 LAPOLLA Manlio 1974 BA530 G.S.BRIGATA CORAZZATA PINEROLO 00:54:27
    464 MM65     1    27 SEBASTIANI Pietro 1943 BA050 A.S.NICOLAUS ATHLETIC CENTER 00:54:27
    465 MM35    69   603 SPERA Pasquale 1973 BA544 ATLETICA DISFIDA DI BARLETTA 00:54:28
    466 MM65     2  1319 CASCELLA Leonardo 1944 BA025 A.S. AMATORI PUTIGNANO 00:54:29
    467 MM45    93   247 PALATELLA Pietro 1964 BA039 A.S. AMICI STRADA DEL TESORO 00:54:29
    468 NTF    50  1486 DE FELICE Alessandro 1974 BA999 NON TESSERATI FIDAL 00:54:30
    469 NTF    51  3841 NARRACCI Francesco 1970 BA999 NON TESSERATI FIDAL 00:54:30
    470 MM35    70   996 RUGGI Tommaso 1971 TA423 CLUB RUNNER 87 VALENTE ARREDI 00:54:31
    471 MM35    71  1265 MARCONE Massimo 1972 BA529 A.S. TRANI MARATHON 00:54:32
    472 MF35     3  3391 FONTANAROSA Daniela 1970 BA551 ASS. NAZIONALE BERSAGLIERI BAR 00:54:33
    473 MM50    42   437 SERAFINO Antonio 1958 BA052 BARI ROAD RUNNERS CLUB 00:54:35
    474 NTF    52  3755 DECEGLIE Nicolo' 1972 BA999 NON TESSERATI FIDAL 00:54:35
    475 MM40   105   794 VISAGGI Nicolo' 1965 BA554 FREE RUNNERS MOLFETTA 00:54:36
    476 MM40   106   119 TORTELLI Gianfranco 1965 BA505 A.S. QUELLI DELLA PINETA 00:54:37
    477 MM35    72   324 GELAO Lorenzo 1970 BA525 CRAL AMIU BARI 00:54:38
    478 MM40   107   308 PESOLE Trifone 1968 BA586 A.S.D.ASOPICO RUNNER BARI 00:54:40
    479 MM45    94   700 CARNIMEO Domenico 1964 BA062 A.S. KANKUDAI 00:54:41
    480 MM35    73   421 PIEPOLI Daniele 1974 BA052 BARI ROAD RUNNERS CLUB 00:54:43
    481 NTF    53  2531 LACASELLA Francesco 1970 BA999 NON TESSERATI FIDAL 00:54:44
    482 RM     1   502 D'APRILE Massimo 1996 BA541 ALTEATLETICA ALTAMURA 00:54:45
    483 MM45    95   363 CRECCHIO Carmine 1961 BA007 CUS BARI 00:54:45
    484 MM45    96  1231 MASTROPIERRO Gaetano 1962 BA529 A.S. TRANI MARATHON 00:54:46
    485 TM    55  1155 VALERIO Michele 1976 BA531 A.S.D. SAN NICOLA RUNNERS 00:54:47
    486 MM40   108   757 DELL' OLIO Antonio 1966 BA582 SPORTING C. BISCEGLIE RUNNING 00:54:48
    487 MM50    43   596 MASCOLO Giovanni 1958 BA544 ATLETICA DISFIDA DI BARLETTA 00:54:49
    488 MM50    44   711 DE BENEDICTIS Antonio 1957 BA062 A.S. KANKUDAI 00:54:50
    489 NTF    54  3604 LOIACONO Domenico 1963 BA999 NON TESSERATI FIDAL 00:54:51
    490 MM45    97   674 INTRONA Attilio 1962 BA082 ATLETICA TOMMASO ASSI TRANI 00:54:52
    491 MM45    98  1474 VURRO Angelo 1961 BA543 MARATHON CLUB MINERVINO 00:54:54
    492 NTF    55   450 MITOLO Luigi 1968 BA999 NON TESSERATI FIDAL 00:54:56
    493 MM35    74  1353 MASTRONICOLA Nicola 1971 BA043 G.S.ATLETICA AMATORI CORATO 00:54:57
    494 NTF    56  3578 NASSISI Gaetano Luigi 1965 BA999 NON TESSERATI FIDAL 00:54:59
    495 MM35    75  1111 IANNITTI Julius Augustu 1970 TA423 CLUB RUNNER 87 VALENTE ARREDI 00:54:59
    496 TM    56   157 PALASCIANO Luca 1981 BA093 ATLETIC CLUB ALTAMURA 00:54:59
    497 MM55 22   156 PALASCIANO Giuseppe 1952 BA093 ATLETIC CLUB ALTAMURA 00:55:00
    498 MM50    45   158 SARDONE Angelo 1955 BA093 ATLETIC CLUB ALTAMURA 00:55:00
    499 MM40   109   533 DE LEONARDIS Nicola 1967 BA029 A.A.'E. MANZARI' CASAMASSIMA 00:55:00
    500 MM40   110   537 GAZZILLI Angelo 1965 BA029 A.A.'E. MANZARI' CASAMASSIMA 00:55:01
    501 MM50    46   703 CASALE Giuseppe 1959 BA062 A.S. KANKUDAI 00:55:01
    502 MM45    99  1072 FALANGONE Giuseppe Pant 1961 BR139 GYMNASIUM S. PANCRAZIO 00:55:01
    503 NTF    57  3953 MARZOCCA Gennaro 1969 BA999 NON TESSERATI FIDAL 00:55:02
    504 MM50    47   954 MINENNA Angelo 1956 BA005 AMATORI ATL. ACQUAVIVA 00:55:04
    505 TF     4  3393 VALERIO Maria Rosa 1977 BA551 ASS. NAZIONALE BERSAGLIERI BAR 00:55:05
    506 NTF    58  1176 ANNACLERIO Rocco 1978 BA999 NON TESSERATI FIDAL 00:55:05
    507 NTF    59  3795 RAMUNNO Cosimo 1965 BA999 NON TESSERATI FIDAL 00:55:06
    508 NTF    60  3821 AGOSTINACCHIO Nicola 1968 BA999 NON TESSERATI FIDAL 00:55:07
    509 MM45   100  1310 PALLARA Mauro 1962 BA025 A.S. AMATORI PUTIGNANO 00:55:07
    510 MM45   101  1370 GIANVECCHIO Ruggiero 1962 BA041 ATLETICA PRO CANOSA 00:55:08
    511 NTF    61   642 RASOLA Giuseppe 1977 BA999 NON TESSERATI FIDAL 00:55:08
    512 MF45     3   457 DE CORATO Grazia 1961 BA509 POD. CANUSIUM 2004 00:55:08
    513 MM40   111   468 FARFALLA Massimo 1966 BA509 POD. CANUSIUM 2004 00:55:09
    514 MM65     3  1008 MARTEMUCCI Vincenzo 1943 TA423 CLUB RUNNER 87 VALENTE ARREDI 00:55:09
    515 MM35    76   939 CORTIGIANO Antonio 1974 BA005 AMATORI ATL. ACQUAVIVA 00:55:10
    516 MM35    77  1404 ALBANESE Giuseppe 1971 BA538 ATLETI  VALLE DELL'OFANTO 00:55:10
    517 MM50    48   478 TODISCO Nicola 1959 BA509 POD. CANUSIUM 2004 00:55:12
    518 MM45   102  1143 PONTRANDOLFO Giovanni 1960 BA531 A.S.D. SAN NICOLA RUNNERS 00:55:14
    519 MM40   112   955 GERMANO Nicola 1968 BA005 AMATORI ATL. ACQUAVIVA 00:55:15
    520 MM50    49   751 AMORUSO Mauro Luciano 1958 BA582 SPORTING C. BISCEGLIE RUNNING 00:55:15
    521 MM40   113   759 LOSCIALE Domenico 1965 BA582 SPORTING C. BISCEGLIE RUNNING 00:55:16
    522 MM45   103   289 NACCI Domenico 1964 BA039 A.S. AMICI STRADA DEL TESORO 00:55:17
    523 MM40   114   325 LACALENDOLA Nicola 1967 BA525 CRAL AMIU BARI 00:55:17
    524 NTF    62   522 LUPOLI Vincenzo 1964 BA999 NON TESSERATI FIDAL 00:55:18
    525 NTF    63  1249 LANDRISCINA Teresa 1969 BA999 NON TESSERATI FIDAL 00:55:18
    526 NTF    64  3714 DE MARZO Vito 1962 BA999 NON TESSERATI FIDAL 00:55:19
    527 MM55 23   133 BIALLO Ugo 1951 BA505 A.S. QUELLI DELLA PINETA 00:55:20
    528 MM55 24  3550 DEL VENTO Vito 1952 BA529 A.S. TRANI MARATHON 00:55:23
    529 MM50    50   331 TEDESCO Vito 1956 BA525 CRAL AMIU BARI 00:55:25
    530 CM     2  3800 PEPE Giuseppe 1995 BA020 FIAMMA OLIMPIA PALO 00:55:26
    531 MM45   104   771 GOFFREDO Vittorio 1963 BA502 A.S.D. MONTEDORO NOCI 00:55:28
    532 MM45   105   770 DELLA CORTE Giovanni 1962 BA502 A.S.D. MONTEDORO NOCI 00:55:29
    533 MM35    78   571 CANTACESSI Nicola 1971 BA553 ATLETICA ADELFIA 00:55:30
    534 MM45   106   309 RINALDI Sabino 1960 BA586 A.S.D.ASOPICO RUNNER BARI 00:55:32
    535 TM    57  1088 TRIGGIANI Giuseppe Mich 1976 PZ555 PODISTICA HERMES LAVELLO 00:55:33
    536 TM    58   406 VISCI Nicola 1981 BA099 POL. 'D. PIETRI' GRAVINA 00:55:34
    537 MM45   107   126 TAURINO Giovanni 1961 BA505 A.S. QUELLI DELLA PINETA 00:55:34
    538 MM55 25   549 SASSANELLO Vincenzo 1954 BA029 A.A.'E. MANZARI' CASAMASSIMA 00:55:35
    539 MM35    79   833 PREZIOSA Nicola 1971 FG264 A.S. CULTURALE POD. S. STEFANO 00:55:36
    540 MM40   115   598 LIBERATO Giuseppe 1965 BA544 ATLETICA DISFIDA DI BARLETTA 00:55:37
    541 MM50    51  1152 SERVEDIO Carlo 1956 BA531 A.S.D. SAN NICOLA RUNNERS 00:55:41
    542 MM45   108   968 IPPOLITO Antonio 1961 BR144 ATALAS SAN VITO DEI NORMANNI 00:55:41
    543 MM60     5   508 NINIVAGGI Graziantonio 1946 BA541 ALTEATLETICA ALTAMURA 00:55:42
    544 MM45   109   721 FINIZIO Fabio 1963 BA062 A.S. KANKUDAI 00:55:43
    545 MM50    52   882 LISO Angelo 1957 BA507 A.MARATONETI ANDRIESI 00:55:43
    546 MM45   110   915 SANTOVITO Giuseppe 1963 BA507 A.MARATONETI ANDRIESI 00:55:44
    547 NTF    65  1196 TEOFILO Gaetano 1972 BA999 NON TESSERATI FIDAL 00:55:45
    548 MM45   111  1491 BOMBINO Paolo 1960 BA099 POL. 'D. PIETRI' GRAVINA 00:55:45
    549 MM60     6   235 TAMMA Francesco 1948 BA039 A.S. AMICI STRADA DEL TESORO 00:55:47
    550 MM50    53   435 MORETTI Biagio 1958 BA052 BARI ROAD RUNNERS CLUB 00:55:47
    551 MM60     7   820 TRAVERSI Nicola 1949 FG264 A.S. CULTURALE POD. S. STEFANO 00:55:47
    552 TM    59   185 LATERZA Onofrio 1977 BA093 ATLETIC CLUB ALTAMURA 00:55:48
    553 MM60     8  1151 SCALERA Giacomo 1948 BA531 A.S.D. SAN NICOLA RUNNERS 00:55:48
    554 MM35    80   419 MORISCO Giuseppe 1973 BA052 BARI ROAD RUNNERS CLUB 00:55:48
    555 MM45   112  3401 LACATENA Giovanni 1964 BA551 ASS. NAZIONALE BERSAGLIERI BAR 00:55:49
    556 NTF    66  2639 DIOMEDE Nicola 1954 BA999 NON TESSERATI FIDAL 00:55:50
    557 MM45   113   750 VIVACE Gaetano 1961 BA062 A.S. KANKUDAI 00:55:50
    558 MM45   114   518 FORTE Antonio 1964 BA541 ALTEATLETICA ALTAMURA 00:55:51
    559 MM50    54  1430 RUSSO Giuseppe 1959 BA538 ATLETI  VALLE DELL'OFANTO 00:55:52
    560 MM40   116   368 FUMAROLA Luciano 1968 BA007 CUS BARI 00:55:53
    561 TM    60   282 VISCONTI Mario Valerio 1978 BA580 A.S.D.  AGORA' 00:55:54
    562 NTF    67  3762 INTRONA Domenico 1965 BA999 NON TESSERATI FIDAL 00:55:54
    563 MM35    81   539 LAPORTA Luca 1972 BA029 A.A.'E. MANZARI' CASAMASSIMA 00:55:55
    564 MM45   115   763 ZECCHILLO Pasquale 1960 BA582 SPORTING C. BISCEGLIE RUNNING 00:55:56
    565 MM40   117   464 CASAMASSIMA Mauro 1967 BA509 POD. CANUSIUM 2004 00:55:57
    566 NTF    68  3136 RONZULLO Saverio 1983 BA999 NON TESSERATI FIDAL 00:55:58
    567 NTF    69   394 FESTA Agostino 1963 BA999 NON TESSERATI FIDAL 00:55:59
    568 TF     5  3405 SANGIORGIO Roberta 1978 BA551 ASS. NAZIONALE BERSAGLIERI BAR 00:56:00
    569 MM50    55   387 CALIA Mario 1958 BA099 POL. 'D. PIETRI' GRAVINA 00:56:00
    570 MM45   116   371 GUTTA' Vitaliano 1964 BA007 CUS BARI 00:56:01
    571 MM55 26  3397 CARBONARA Vito 1954 BA551 ASS. NAZIONALE BERSAGLIERI BAR 00:56:02
    572 MM45   117   973 SOLE Donato Gerardo 1962 BR144 ATALAS SAN VITO DEI NORMANNI 00:56:03
    573 MM45   118   946 CARRIERE Mario 1963 BA005 AMATORI ATL. ACQUAVIVA 00:56:04
    574 MM45   119    85 D'ABBICCO Donato 1963 BA546 POD. VALLE D'ITRIA LOCOROTONDO 00:56:05
    575 MM40   118   628 CORCELLA Luigi 1966 BA592 BARLETTA SPORTIVA 00:56:06
    576 MM60     9  1423 LUCE Vincenzo 1945 BA538 ATLETI  VALLE DELL'OFANTO 00:56:07
    577 MM55 27  1406 ARBUES Domenico 1952 BA538 ATLETI  VALLE DELL'OFANTO 00:56:08
    578 MM50    56  1426 PALMIERI Felice 1959 BA538 ATLETI  VALLE DELL'OFANTO 00:56:09
    579 MM35    82   810 FANELLI Francesco Onofr 1970 BA520 A.S. BARINCORSA 00:56:14
    580 MM45   120  3387 CIANCIOLA Giuseppe 1962 BA551 ASS. NAZIONALE BERSAGLIERI BAR 00:56:14
    581 TM    61   857 CAVALIERE Giuseppe 1976 BA507 A.MARATONETI ANDRIESI 00:56:15
    582 MM35    83   609 GHIZZOTA Ruggiero 1970 BA544 ATLETICA DISFIDA DI BARLETTA 00:56:16
    583 MM35    84   983 D'INNOCENTE Gianfranco 1972 BA553 ATLETICA ADELFIA 00:56:17
    584 NTF    70   523 NIGRO Tommaso 1965 BA999 NON TESSERATI FIDAL 00:56:18
    585 MM55 28   548 PASTORE Francesco 1954 BA029 A.A.'E. MANZARI' CASAMASSIMA 00:56:18
    586 MM40   119   897 NAPOLITANO Giovanni 1968 BA507 A.MARATONETI ANDRIESI 00:56:19
    587 MM55 29   269 IPPOLITO Luigi 1954 BA058 ATLETICA  MONOPOLI 00:56:19
    588 MF45     4  1162 MENOLASCINA Rosa 1961 BA531 A.S.D. SAN NICOLA RUNNERS 00:56:20
    589 MM50    57  1149 RUTIGLIANO Francesco 1958 BA531 A.S.D. SAN NICOLA RUNNERS 00:56:21
    590 TM    62   283 LORUSSO Vincenzo 1981 BA580 A.S.D.  AGORA' 00:56:21
    591 NTF    71   145 BUONAVOGLIA Francesco 1978 BA999 NON TESSERATI FIDAL 00:56:22
    592 MM45   121  1282 AMBRUOSO Nicola 1961 BA049 G.S.P. III REGIONE AEREA BARI 00:56:23
    593 MM40   120   877 GIANNONE Michele 1967 BA507 A.MARATONETI ANDRIESI 00:56:23
    594 NTF    72  3207 GREGORIO Ruggiero 1911 BA999 NON TESSERATI FIDAL 00:56:24
    595 MM40   121   632 DICORATO Patrizio Mose' 1969 BA592 BARLETTA SPORTIVA 00:56:25
    596 MM40   122  1047 STELLACCI Vito 1965 BA547 A.S.CORRIMONDO BITONTO 00:56:25
    597 MM45   122  1086 SCARAMUZZO Pasquale 1961 PZ555 PODISTICA HERMES LAVELLO 00:56:26
    598 AF     1   210 PEPE Stefania 1992 BA015 A.S. OLIMPIA CLUB 00:56:26
    599 MM45   123   485 DIMARNO Giovanni 1961 BA541 ALTEATLETICA ALTAMURA 00:56:27
    600 MM45   124   517 BERLOCO Nicola 1964 BA541 ALTEATLETICA ALTAMURA 00:56:28
    601 MM35    85  3498 CONTESTABILE Angelo 1972 BR138 A.S. TEAM FRANCAVILLA 00:56:29
    602 MM40   123  1372 INCHINGOLI Salvatore 1965 BA041 ATLETICA PRO CANOSA 00:56:29
    603 NTF 73 3928 DE PAOLA Cecilia 1979 BA999 NON TESSERATI FIDAL 00:56:30
    604 TM    63  1046 SECONDO Giuseppe 1977 BA547 A.S.CORRIMONDO BITONTO 00:56:31
    605 MM45   125    90 LADDOMADA Salvatore 1961 BA546 POD. VALLE D'ITRIA LOCOROTONDO 00:56:32
    606 NTF    73  3228 PAVONCIELLO Francesco 1980 BA999 NON TESSERATI FIDAL 00:56:32
    607 MM40   124   988 NEVE Sante Maurizio 1965 BA553 ATLETICA ADELFIA 00:56:33
    608 NTF    74  1479 CAPOZZI Corrado 1966 BA999 NON TESSERATI FIDAL 00:56:34
    609 NTF    75  3612 WILLEM  Dyk 1963 BA999 NON TESSERATI FIDAL 00:56:35
    610 NTF    76  3180 ALTAMURA Giuseppe 1972 BA999 NON TESSERATI FIDAL 00:56:36
    611 MM60    10   497 MATERA Donato 1946 BA541 ALTEATLETICA ALTAMURA 00:56:37
    612 MM40   125   666 FERRARO Antonio 1966 BA082 ATLETICA TOMMASO ASSI TRANI 00:56:38
    613 MM50    58   436 SCARAMUZZI Andrea 1956 BA052 BARI ROAD RUNNERS CLUB 00:56:40
    614 MM50    59   774 FASANO Vincenzo 1955 BA502 A.S.D. MONTEDORO NOCI 00:56:41
    615 MM35    86   420 PALMIOTTO Carlo 1970 BA052 BARI ROAD RUNNERS CLUB 00:56:41
    616 MM55 30   777 LUCIA Giuseppe 1953 BA502 A.S.D. MONTEDORO NOCI 00:56:42
    617 MM40   126   767 CALICCHIO Francesco Pao 1965 BA502 A.S.D. MONTEDORO NOCI 00:56:42
    618 MM50    60   108 GIOVE Luigi 1958 BA584 L'ATLETICA DEL COLLE 00:56:43
    619 MF40     2   225 RAMUNNO Nicoletta 1969 BA039 A.S. AMICI STRADA DEL TESORO 00:56:43
    620 NTF    77   575 PALMISANO Vito 1965 BA999 NON TESSERATI FIDAL 00:56:44
    621 MM40   127   529 BUSCO Raffaele 1968 BA029 A.A.'E. MANZARI' CASAMASSIMA 00:56:44
    622 MM50    61   475 FERRANTE Antonio 1958 BA509 POD. CANUSIUM 2004 00:56:45
    623 MF45     5  1236 PORCELLI Santa 1960 BA529 A.S. TRANI MARATHON 00:56:46
    624 MF40     3   310 SALANDRA Loredana 1968 BA586 A.S.D.ASOPICO RUNNER BARI 00:56:46
    625 MM40   128   315 TOTA Nicola 1967 BA586 A.S.D.ASOPICO RUNNER BARI 00:56:47
    626 MM50    62   663 FABIANO Domenico 1958 BA082 ATLETICA TOMMASO ASSI TRANI 00:56:48
    627 MM50    63   627 CILLI Raffaele 1958 BA592 BARLETTA SPORTIVA 00:56:49
    628 MM50    64   434 LOCONSOLE Costanzo 1957 BA052 BARI ROAD RUNNERS CLUB 00:56:50
    629 NTF    78  3835 V URRO Michele 1965 BA999 NON TESSERATI FIDAL 00:56:51
    630 MM45   126  1055 CARICATO Domenico 1962 BA587 LA PIETRA 00:56:52
    631 MM50    65   731 MODUGNO Antonio 1959 BA062 A.S. KANKUDAI 00:56:53
    632 MM55 31   876 GALENTINO Antonio 1950 BA507 A.MARATONETI ANDRIESI 00:56:55
    633 NTF    79  3092 PACUCCI Pasquale 1961 BA999 NON TESSERATI FIDAL 00:56:56
    634 MM65     4  1010 VALENTE Tommaso 1942 TA423 CLUB RUNNER 87 VALENTE ARREDI 00:56:57
    635 NTF    80  1485 CIARNIELLO Giovanni 1953 BA999 NON TESSERATI FIDAL 00:56:58
    636 MM45   127  1048 SURIANO Pasquale 1960 BA547 A.S.CORRIMONDO BITONTO 00:56:59
    637 NTF    81  3985 FRISONE Pasquale 1962 BA999 NON TESSERATI FIDAL 00:56:59
    638 TM    64   408 GUGLIELMI Giuseppe 1978 BA596 A.S.D. ANDRIA RUNS 00:57:00
    639 CF     1  3975 QUATRARO Vitania 1995 BA023 ATLETICA GIOVANILE ACQUAVIVA 00:57:01
    640 NTF    82  3990 PAPPALETTERA Domenico 1959 BA999 NON TESSERATI FIDAL 00:57:02
    641 MM45   128   426 CASSANO Vito 1961 BA052 BARI ROAD RUNNERS CLUB 00:57:02
    642 MM40   129   168 LOGRANO Giuseppe Maria 1966 BA093 ATLETIC CLUB ALTAMURA 00:57:03
    643 MM50    66   277 DE TULLIO Ricciotti Ant 1955 BA580 A.S.D.  AGORA' 00:57:04
    644 MM35    87  1240 MELILLO Francesco 1971 BA529 A.S. TRANI MARATHON 00:57:08
    645 MM60    11   274 MAGRINO Marco 1945 BA580 A.S.D.  AGORA' 00:57:08
    646 MM50    67   753 CAMERO Mario 1958 BA582 SPORTING C. BISCEGLIE RUNNING 00:57:08
    647 MM40   130   941 SAPONE Francesco 1966 BA005 AMATORI ATL. ACQUAVIVA 00:57:09
    648 MM45   129   765 AMENDOLAGINE Vincenzo 1963 BA582 SPORTING C. BISCEGLIE RUNNING 00:57:09
    649 NTF    83  3692 GIANCASPRO Giuseppe 1964 BA999 NON TESSERATI FIDAL 00:57:10
    650 MM50    68  1036 ACQUAFREDDA Vito Sante 1959 BA547 A.S.CORRIMONDO BITONTO 00:57:11
    651 MM45   130  1043 MORETTI Michele 1963 BA547 A.S.CORRIMONDO BITONTO 00:57:12
    652 TM    65   695 TATULLO Alessandro 1977 FG284 MARGHERITA DI SAVOIA RUNNERS 00:57:12
    653 MM45   131  1139 PACCIONE Antonio 1963 BA531 A.S.D. SAN NICOLA RUNNERS 00:57:13
    654 MM45   132   470 GALANTINO Pantaleo 1961 BA509 POD. CANUSIUM 2004 00:57:14
    655 MM35    88   154 PELLEGRINO Francesco 1970 BA093 ATLETIC CLUB ALTAMURA 00:57:14
    656 MM45   133  1409 CAPPABIANCA Gianmaria 1962 BA538 ATLETI  VALLE DELL'OFANTO 00:57:14
    657 MM45   134  1429 PIGNA Giuseppe 1962 BA538 ATLETI  VALLE DELL'OFANTO 00:57:14
    658 MM35    89  1410 CEDROLA Gionata 1972 BA538 ATLETI  VALLE DELL'OFANTO 00:57:14
    659 MM45   135  1368 DI STASI Matteo 1960 BA041 ATLETICA PRO CANOSA 00:57:14
    660 NTF    84  3564 PETRONE Michele 1973 BA999 NON TESSERATI FIDAL 00:57:15
    661 NTF    85  3887 CARELLA Flavio 1975 BA999 NON TESSERATI FIDAL 00:57:16
    662 MM40   131   978 BRANCALE Francesco 1965 BA553 ATLETICA ADELFIA 00:57:16
    663 MF40     4   224 PISCITELLI Filomena 1966 BA039 A.S. AMICI STRADA DEL TESORO 00:57:17
    664 MM35    90   976 ANGIULI Giuseppe Massim 1972 BA553 ATLETICA ADELFIA 00:57:18
    665 MM65     5    28 BIANCO Giovanni 1944 BA025 A.S. AMATORI PUTIGNANO 00:57:21
    666 MM45   136   429 SCIACOVELLI Francesco 1964 BA052 BARI ROAD RUNNERS CLUB 00:57:21
    667 MM40   132   561 PATRUNO Felice 1967 BA097 SPORT CENTER 00:57:21
    668 MM50    69   407 VISCI Vincenzo 1956 BA099 POL. 'D. PIETRI' GRAVINA 00:57:22
    669 MM35    91  1456 MOLITERNI Giuseppe 1971 BA512 POL.GRAVINA AELECTI S.GRAMEGNA 00:57:22
    670 NTF    86  3080 VITERBO Saverio 1961 BA999 NON TESSERATI FIDAL 00:57:24
    671 NTF    87  2915 MASSARI Francesco 1911 BA999 NON TESSERATI FIDAL 00:57:24
    672 MM45   137   527 BORREGGINE Nicola 1960 BA029 A.A.'E. MANZARI' CASAMASSIMA 00:57:25
    673 MM35    92   918 SGARRA Francesco 1971 BA507 A.MARATONETI ANDRIESI 00:57:25
    674 TM    66  1090 DI GIACOMO Sabino Mario 1975 PZ555 PODISTICA HERMES LAVELLO 00:57:26
    675 MF45 6   418 CEA Vincenza 1961 BA052 BARI ROAD RUNNERS CLUB 00:57:27
    676 NTF    88  3984 PASCULLI Nicola 1960 BA999 NON TESSERATI FIDAL 00:57:28
    677 MM40   133   500 LORUSSO Nicola 1965 BA541 ALTEATLETICA ALTAMURA 00:57:28
    678 NTF    89  3090 CENTODUCATI Oronzo 1962 BA999 NON TESSERATI FIDAL 00:57:29
    679 MM45   138   173 LEONE Giuseppe 1961 BA093 ATLETIC CLUB ALTAMURA 00:57:30
    680 NTF    90  1269 BATTISTA Gaetano 1957 BA999 NON TESSERATI FIDAL 00:57:30
    681 MM40   134  1124 CENTOLA Gianluigi 1965 BA531 A.S.D. SAN NICOLA RUNNERS 00:57:31
    682 MM65     6   229 CATALANO Nicola 1942 BA039 A.S. AMICI STRADA DEL TESORO 00:57:32
    683 NTF    91  1268 BARLETTA Natale 1962 BA999 NON TESSERATI FIDAL 00:57:32
    684 TM    67   152 CIFARELLI Pietro 1978 BA093 ATLETIC CLUB ALTAMURA 00:57:33
    685 MM35    93   928 ANZIOSO Michele 1970 BA507 A.MARATONETI ANDRIESI 00:57:36
    686 MM35    94   852 BRUNO Luigi 1970 BA507 A.MARATONETI ANDRIESI 00:57:36
    687 TM    68   854 CANNONE Mario 1977 BA507 A.MARATONETI ANDRIESI 00:57:37
    688 MM40   135  1360 ARNO Tommaso 1965 BA041 ATLETICA PRO CANOSA 00:57:37
    689 MM50    70  1468 PELLEGRINO Michele 1958 BA543 MARATHON CLUB MINERVINO 00:57:38
    690 MM45   139   123 ROMITO Nicola 1960 BA505 A.S. QUELLI DELLA PINETA 00:57:38
    691 MM35    95   875 FALCETTA Vincenzo 1972 BA507 A.MARATONETI ANDRIESI 00:57:39
    692 MM60    12   375 MAGGIO Rodolfo 1949 BA007 CUS BARI 00:57:40
    693 MM45   140   797 DE GENNARO Francesco Ma 1961 BA554 FREE RUNNERS MOLFETTA 00:57:43
    694 MM35    96   881 INCHINGOLO Giampaolo 1972 BA507 A.MARATONETI ANDRIESI 00:57:43
    695 MM45   141   863 CRAPOLICCHIO Vincenzo 1964 BA507 A.MARATONETI ANDRIESI 00:57:44
    696 MM50    71  1142 11PAPPAGALLO Sebastiano 1959 BA531 A.S.D. SAN NICOLA RUNNERS 00:57:44
    697 MM35    97    83 CHIAPPARINO Cristiano 1971 BA546 POD. VALLE D'ITRIA LOCOROTONDO 00:57:46
    698 TM    69  1066 SALIANI Davide 1982 BA587 LA PIETRA 00:57:47
    699 MM50    72   433 LECCE Antonio 1956 BA052 BARI ROAD RUNNERS CLUB 00:57:48
    700 NTF    92  3483 GRITTANI Aldo 1972 BA999 NON TESSERATI FIDAL 00:57:49
    701 MM45   142  1092 DEMONTE Domenico 1963 FG264 A.S. CULTURALE POD. S. STEFANO 00:57:50
    702 MM55 32   301 MANGIALARDI Lorenzo 1953 BA586 A.S.D.ASOPICO RUNNER BARI 00:57:53
    703 MM55 33  1332 LOVECCHIO Luigi 1952 BA550 AVIS IN CORSA CONVERSANO 00:57:54
    704 NTF    93  1244 NANNATRIZIO Angelo 1975 BA999 NON TESSERATI FIDAL 00:57:56
    705 MM40   136  1288 REDAVID Antonio 1966 BA049 G.S.P. III REGIONE AEREA BARI 00:57:58
    706 NTF    94  3586 PESCE  Antonello 1978 BA999 NON TESSERATI FIDAL 00:57:58
    707 MM40   137   699 REGGIO Pierluigi 1969 LE322 A.S. MARATHON CLUB LECCE 00:57:59
    708 MM40   138   381 QUARANTA Giovanni Anton 1968 BA007 CUS BARI 00:58:00
    709 NTF    95  3245 ROSSILEOO Filippo 1966 BA999 NON TESSERATI FIDAL 00:58:01
    710 NTF    96  3246 TASSIELLO Michele 1966 BA999 NON TESSERATI FIDAL 00:58:02
    711 MM40   139  1302 LABELLARTE Luca 1965 BA521 A.S. DOF AMATORI TURI 00:58:03
    712 NTF    97  3176 SCOCCIMARRO Cosimo 1957 BA999 NON TESSERATI FIDAL 00:58:03
    713 MM55 34   950 FRONTINI Nicola 1953 BA005 AMATORI ATL. ACQUAVIVA 00:58:04
    714 NTF    98  3939 ANGELILLI Costantino 1963 BA999 NON TESSERATI FIDAL 00:58:05
    715 NTF    99  3605 CASCIONE Cosimo 1963 BA999 NON TESSERATI FIDAL 00:58:05
    716 MM60    13  1315 TRIA Domenico 1948 BA025 A.S. AMATORI PUTIGNANO 00:58:06
    717 TM    70  1016 STENDARDI Francesco 1980 TA423 CLUB RUNNER 87 VALENTE ARREDI 00:58:07
    718 MF45     7   590 NANULA Antonia 1961 BA544 ATLETICA DISFIDA DI BARLETTA 00:58:07
    719 MM45   143   589 FILOMENO Pasquale 1960 BA544 ATLETICA DISFIDA DI BARLETTA 00:58:08
    720 MM60    14   135 LORUSSO Nicola 1949 BA505 A.S. QUELLI DELLA PINETA 00:58:09
    721 MM50    73   980 PISCOPO Giuseppe 1955 BA553 ATLETICA ADELFIA 00:58:10
    722 MM55 35   454 LISI Antonio 1953 BA014 ATL. FERROTRANVIARIA 00:58:11
    723 MM50    74   432 DE BENEDICTIS Michele 1956 BA052 BARI ROAD RUNNERS CLUB 00:58:12
    724 MM55 36  1123 CATALANO Sebastiano 1954 BA531 A.S.D. SAN NICOLA RUNNERS 00:58:13
    725 MM55 37  1362 BILENCHI Gianfranco 1952 BA041 ATLETICA PRO CANOSA 00:58:14
    726 NTF   100  2702 CAVALLUZZI Michele 1971 BA999 NON TESSERATI FIDAL 00:58:15
    727 MM50    75   245 GIULIANI Vito 1956 BA039 A.S. AMICI STRADA DEL TESORO 00:58:16
    728 NTF   101   384 DE CHIRICO Stefania 1978 BA999 NON TESSERATI FIDAL 00:58:17
    729 MM55 38  1350 LAFIANDRA Giuseppe 1953 BA043 G.S.ATLETICA AMATORI CORATO 00:58:18
    730 MM40   140   853 CALDARONE Onofrio 1968 BA507 A.MARATONETI ANDRIESI 00:58:19
    731 MM45   144   888 LUCE Riccardo 1962 BA507 A.MARATONETI ANDRIESI 00:58:20
    732 NTF   102  3774 LORE' Nicola 1971 BA999 NON TESSERATI FIDAL 00:58:20
    733 MM50    76   807 DE SARIO Ernesto 1959 BA520 A.S. BARINCORSA 00:58:21
    734 MM35    98   515 LOSURDO Domenico 1971 BA541 ALTEATLETICA ALTAMURA 00:58:22
    735 MM60    15  1432 TUPPUTI Salvatore 1949 BA538 ATLETI  VALLE DELL'OFANTO 00:58:23
    736 CM     3  1109 MASELLI Giacomo 1994 BA023 ATLETICA GIOVANILE ACQUAVIVA 00:58:24
    737 TM    71   582 FARANO Giuseppe 1975 BA544 ATLETICA DISFIDA DI BARLETTA 00:58:25
    738 MM70 1   452 CARESSA Pietro 1938 BA014 ATL. FERROTRANVIARIA 00:58:26
    739 NTF   103  1116 LOPEZ  Domenico 1971 BA999 NON TESSERATI FIDAL 00:58:26
    740 MM50    77   169 PAPANGELO Nunzio 1958 BA093 ATLETIC CLUB ALTAMURA 00:58:27
    741 NTF   104  3091 SEMERARO Antonio 1961 BA999 NON TESSERATI FIDAL 00:58:28
    742 NTF   105  3756 PETRUZZELLA Giuseppe 1963 BA999 NON TESSERATI FIDAL 00:58:29
    743 MM50    78   618 LACALAMITA Cesare 1959 BA595 A.P.DIL. INSIEME PER LO SPORT 00:58:30
    744 MM65     7  1320 CASSONE Domenico 1941 BA025 A.S. AMATORI PUTIGNANO 00:58:31
    745 MM55 39   442 PIEPOLI Gennaro 1952 BA052 BARI ROAD RUNNERS CLUB 00:58:31
    746 MM60    16  1006 GADALETO Giuseppe 1947 TA423 CLUB RUNNER 87 VALENTE ARREDI 00:58:32
    747 NTF   106  1440 IACOVIELLO Alfredo 1979 BA999 NON TESSERATI FIDAL 00:58:33
    748 MM45   145   616 MISCIAGNA Nicola 1961 BA595 A.P.DIL. INSIEME PER LO SPORT 00:58:33
    749 MM45   146   617 PROSCIA Domenico 1963 BA595 A.P.DIL. INSIEME PER LO SPORT 00:58:34
    750 MF50     1   866 DI BARI Francesca 1959 BA507 A.MARATONETI ANDRIESI 00:58:35
    751 MM50    79   716 DI BARI Nicola 1959 BA062 A.S. KANKUDAI 00:58:35
    752 MM50    80   734 PISANI Francesco 1957 BA062 A.S. KANKUDAI 00:58:36
    753 MM40   141   202 MONGELLI Domenico 1969 TA440 ATHLETIC TEAM PALAGIANO 00:58:36
    754 MM60    17   622 TOMANELLI Italo 1948 BA595 A.P.DIL. INSIEME PER LO SPORT 00:58:37
    755 NTF   107  3240 ZAMBETTA Saverio 1962 BA999 NON TESSERATI FIDAL 00:58:38
    756 NTF   108  3447 CAPOZZI Andrea 2002 BA999 NON TESSERATI FIDAL 00:58:38
    757 MM40   142   361 CASERTANO Raffaele 1966 BA007 CUS BARI 00:58:39
    758 MM45   147  1222 AVVENIENTE Onofrio 1962 BA529 A.S. TRANI MARATHON 00:58:40
    759 MM45   148   341 DI GIOIA Leonardo 1962 BA578 ATLETICA AUFIDUS 00:58:41
    760 NTF   109  3382 VERNA  Pietro 1963 BA999 NON TESSERATI FIDAL 00:58:42
    761 MM50    81  1292 PITEO Salvatore 1958 BA049 G.S.P. III REGIONE AEREA BARI 00:58:43
    762 NTF   110  1337 PACE Angelo 1962 BA999 NON TESSERATI FIDAL 00:58:44
    763 MM50    82  1492 BOSCO Giuseppe 1958 BA099 POL. 'D. PIETRI' GRAVINA 00:58:47
    764 MM50    83   307 PARTIPILO Pasquale 1959 BA586 A.S.D.ASOPICO RUNNER BARI 00:58:47
    765 MF45     8   223 FIORENTINO Lorenza 1963 BA039 A.S. AMICI STRADA DEL TESORO 00:58:49
    766 NTF   111  3088 SAVARESE Gioacchino 1968 BA999 NON TESSERATI FIDAL 00:58:50
    767 MM50    84   322 DABBICCO Sabino 1956 BA525 CRAL AMIU BARI 00:58:50
    768 TM    72   483 PACIOLLA Eligio 1975 BA509 POD. CANUSIUM 2004 00:58:51
    769 MM35    99   355 1206TORQUATINO Giovanni 1972 RM024 ATL. VICOVARO 00:58:52
    770 NTF   112   656 MELIDDO Michele 1971 BA999 NON TESSERATI FIDAL 00:58:53
    771 MM35   100   683 DI LECCE Francesco 1972 FG284 MARGHERITA DI SAVOIA RUNNERS 00:58:53
    772 NTF   113  3450 DE TULLIO Carmine 1944 BA999 NON TESSERATI FIDAL 00:58:54
    773 MM45   149   828 SANTORO Savino 1960 FG264 A.S. CULTURALE POD. S. STEFANO 00:58:54
    774 MF45     9   458 PACIOLLA Francesca 1962 BA509 POD. CANUSIUM 2004 00:58:55
    775 MF40     5  1325 DI NINNO Donata 1966 BA025 A.S. AMATORI PUTIGNANO 00:58:55
    776 NTF   114  3530 DEL CONTE Cristian 1976 BA999 NON TESSERATI FIDAL 00:58:56
    777 MM50    85  1291 LACANDELA Giuseppe 1959 BA049 G.S.P. III REGIONE AEREA BARI 00:58:56
    778 MM65     8   253 CARACCIOLO Riccardo 1941 BA522 MURGIA MARATHON ANDRIA 00:58:57
    779 NTF   115  3117 MASELLI Rocco 1965 BA999 NON TESSERATI FIDAL 00:58:57
    780 MM40   143   786 PIRELLI Sabino 1969 BA509 POD. CANUSIUM 2004 00:58:58
    781 MM35   101   860 CIVITA Antonio 1972 BA507 A.MARATONETI ANDRIESI 00:58:58
    782 MM40   144   873 DI RUVO Antonio 1968 BA507 A.MARATONETI ANDRIESI 00:58:59
    783 MM35   102   514 NATRELLA Leonardo 1972 BA541 ALTEATLETICA ALTAMURA 00:59:00
    784 MM45   150   830 CAPPIELLO Donato 1964 FG264 A.S. CULTURALE POD. S. STEFANO 00:59:01
    785 MM45   151   594 CASTAGNARO Giuseppe 1964 BA544 ATLETICA DISFIDA DI BARLETTA 00:59:02
    786 MM50    86   646 CARRASSI Gaetano 1958 BA555 AVIS PODISTICA MOLA 00:59:03
    787 MM45   152   370 GENTILE Francesco 1962 BA007 CUS BARI 00:59:04
    788 MM60    18   365 DE SANTIS Francesco 1949 BA007 CUS BARI 00:59:05
    789 MM35   103   654 BELLOMO Carlo 1974 BA099 POL. 'D. PIETRI' GRAVINA 00:59:06
    790 TM    73  1469 GIULIANO Giovanni 1976 BA543 MARATHON CLUB MINERVINO 00:59:07
    791 MM40   145  1074 LEZZI Vito 1968 BR139 GYMNASIUM S. PANCRAZIO 00:59:10
    792 MM55 40  1076 RISOLO Donato 1950 BR139 GYMNASIUM S. PANCRAZIO 00:59:10
    793 TM    74   155 LORUSSO Francesco Claud 1976 BA093 ATLETIC CLUB ALTAMURA 00:59:11
    794 MM45   153   124 RUSIGNIUOLO Nicola 1962 BA505 A.S. QUELLI DELLA PINETA 00:59:12
    795 MM55 41   736 PORCELLI Nicola 1954 BA062 A.S. KANKUDAI 00:59:13
    796 MM45   154   839 DILUCIA Giovanni 1964 FG264 A.S. CULTURALE POD. S. STEFANO 00:59:14
    797 MM55 42  1270 LORUSSO Paolo 1953 BR113 ATLETICA CASALINI 00:59:15
    798 NTF   116  3758 CAPPELLUTI Paolo 1954 BA999 NON TESSERATI FIDAL 00:59:17
    799 MM45   155   544 NANNA Francesco 1964 BA029 A.A.'E. MANZARI' CASAMASSIMA 00:59:18
    800 TM    75   388 CIRILLI Aldo 1976 BA099 POL. 'D. PIETRI' GRAVINA 00:59:18
    801 MM50    87   379 PORTA Cesare 1955 BA007 CUS BARI 00:59:19
    802 NTF   117  3219 RISOLA Angelo 1959 BA999 NON TESSERATI FIDAL 00:59:19
    803 MM45   156   193 FERRULLI Antonio 1960 BA093 ATLETIC CLUB ALTAMURA 00:59:20
    804 MM50    88   849 ADDARIO Francesco 1958 BA507 A.MARATONETI ANDRIESI 00:59:20
    805 NTF   118  3160 MALATO Stefano 1965 BA999 NON TESSERATI FIDAL 00:59:21
    806 MM40   146  1477 GIANNELLI Giovanni 1967 BA545 AMATORI ATLETICA TRIGGIANO 00:59:22
    807 MF40     6   803 GADALETA Concetta 1965 BA554 FREE RUNNERS MOLFETTA 00:59:23
    808 MM50    89   747 VASILE Giuseppe 1956 BA062 A.S. KANKUDAI 00:59:23
    809 MM40   147   901 PASTORE Vincenzo 1969 BA507 A.MARATONETI ANDRIESI 00:59:24
    810 MM45   157   638 MANGINI Rocco 1961 BA592 BARLETTA SPORTIVA 00:59:26
    811 MM60    19  1459 CICALA Carlo 1945 BA512 POL.GRAVINA AELECTI S.GRAMEGNA 00:59:29
    812 MM60    20  1317 INTINI Vito 1948 BA025 A.S. AMATORI PUTIGNANO 00:59:29
    813 MM65     9  1367 DI PALMA Costanzo 1943 BA041 ATLETICA PRO CANOSA 00:59:30
    814 MM50    90  1376 LOPS Sabino 1958 BA041 ATLETICA PRO CANOSA 00:59:31
    815 MF45    10  1159 DESIDERATO Bianca 1962 BA531 A.S.D. SAN NICOLA RUNNERS 00:59:31
    816 MM45   158  1467 D'AVENIA Franco 1960 BA543 MARATHON CLUB MINERVINO 00:59:32
    817 MF35     4   366 DE TULLIO Antonella 1972 BA007 CUS BARI 00:59:33
    818 NTF   119  3043 PALMIERI Paolo 1911 BA999 NON TESSERATI FIDAL 00:59:33
    819 NTF   120  3042 CASSANIELLO Paolo 1911 BA999 NON TESSERATI FIDAL 00:59:34
    820 NTF   121  3234 MARTULLINO Martino 1980 BA999 NON TESSERATI FIDAL 00:59:34
    821 MF35     5  3494 LOSACCO Anna Maria 1971 BA526 PODISTICA ALBEROBELLO A.S.D. 00:59:35
    822 MM45   159   512 DINARDO Vito Domenico 1962 BA541 ALTEATLETICA ALTAMURA 00:59:36
    823 MM35   104   461 D'AMICO Antonio Massimo 1970 BA509 POD. CANUSIUM 2004 00:59:37
    824 MF50     2  1157 CRUCIATA Angela 1959 BA531 A.S.D. SAN NICOLA RUNNERS 00:59:37
    825 MM45   160  1309 CHIAPPERINO Raffaele 1962 BA025 A.S. AMATORI PUTIGNANO 00:59:39
    826 MF40     7  1028 FANIZZI Liliane 1968 BA050 A.S.NICOLAUS ATHLETIC CENTER 00:59:39
    827 MM60    21   453 GELAO Raffaele 1947 BA014 ATL. FERROTRANVIARIA 00:59:40
    828 MM50    91  1272 MAGGI Stefano 1955 BR113 ATLETICA CASALINI 00:59:41
    829 MM40   148   511 MORAMARCO Francesco 1966 BA541 ALTEATLETICA ALTAMURA 00:59:41
    830 MM50    92   506 SIMONE Rocco 1959 BA541 ALTEATLETICA ALTAMURA 00:59:41
    831 NTF   122  3101 MONTEFUSCO Antonio 1956 BA999 NON TESSERATI FIDAL 00:59:42
    832 MM50    93  1373 LAGRASTA Giuseppe 1958 BA041 ATLETICA PRO CANOSA 00:59:42
    833 MM40   149  1042 MARINELLI Vito 1966 BA547 A.S.CORRIMONDO BITONTO 00:59:43
    834 MM55 43   914 SANGUEDOLCE Vincenzo 1953 BA507 A.MARATONETI ANDRIESI 00:59:45
    835 NTF   123  3499 BITETTO Antonio 1974 BA999 NON TESSERATI FIDAL 00:59:45
    836 TM    76  1488 LOCONSOLE Michele 1977 BA007 CUS BARI 00:59:46
    837 MM50    95  1435 GRIECO Michele 1957 BA538 ATLETI  VALLE DELL'OFANTO 00:59:47
    838 MM50    96  1375 LAMANUZZI Sabino 1957 BA041 ATLETICA PRO CANOSA 00:59:48
    839 MM60    22  1374 LAMANUZZI Gaetano 1946 BA041 ATLETICA PRO CANOSA 00:59:49
    840 MM45   161   344 LAGRASTA Sabino 1963 BA578 ATLETICA AUFIDUS 00:59:50
    841 NTF   124  3192 COMENTALE Paolo 1956 BA999 NON TESSERATI FIDAL 00:59:51
    842 NTF   125  3189 SIGNORILE Giuseppe 1960 BA999 NON TESSERATI FIDAL 00:59:52
    843 NTF   126  3558 IACOBELLIS Tommaso 1961 BA999 NON TESSERATI FIDAL 00:59:52
    844 NTF   127   576 CAPURSO Michele 1957 BA999 NON TESSERATI FIDAL 00:59:53
    845 NTF   128  3677 PETRUZZELLI  Pietro 1962 BA999 NON TESSERATI FIDAL 00:59:53
    846 TF     6  1085 SALVATORE Giovanna Pia 1983 PZ555 PODISTICA HERMES LAVELLO 00:59:55
    847 MM55 44   134 PELLEGRINO Michele 1953 BA505 A.S. QUELLI DELLA PINETA 00:59:58
    848 MM35   105   994 TORRES Domenico 1970 BA553 ATLETICA ADELFIA 00:59:59
    849 MM35   106   607 PESCHECHERA Nicola 1971 BA544 ATLETICA DISFIDA DI BARLETTA 01:00:01
    850 MM45   162   167 SQUICCIARINO Michele 1964 BA093 ATLETIC CLUB ALTAMURA 01:00:03
    851 NTF   129  3828 BARRACCHIA Cristoforo 1944 BA999 NON TESSERATI FIDAL 01:00:04
    852 MM55 45   240 MESSINA Leonardo 1953 BA039 A.S. AMICI STRADA DEL TESORO 01:00:06
    853 NTF   130  3761 GERVAZIO Sabino 1976 BA999 NON TESSERATI FIDAL 01:00:07
    854 MF40     8  1227 GUSMAI Annamaria 1966 BA529 A.S. TRANI MARATHON 01:00:08
    855 NTF   131  3083 ROCCHITELLI Raffaele 1968 BA999 NON TESSERATI FIDAL 01:00:09
    856 NTF   132  3082 GIANNICO Francesco 1962 BA999 NON TESSERATI FIDAL 01:00:10
    857 NTF   133  3827 DE MARTIIS  Cosimo 1936 BA999 NON TESSERATI FIDAL 01:00:11
    858 NTF   134  3081 TERMINE Cristofaro 1968 BA999 NON TESSERATI FIDAL 01:00:11
    859 MM50    97  1121 CALDARULO Angelo 1959 BA531 A.S.D. SAN NICOLA RUNNERS 01:00:12
    860 MM45   163   166 PINTO Michele 1960 BA093 ATLETIC CLUB ALTAMURA 01:00:13
    861 MM50    98  1449 LEONE Pietro 1957 BA512 POL.GRAVINA AELECTI S.GRAMEGNA 01:00:14
    862 NTF   135  1245 NANNATRIZIO Claudio 1982 BA999 NON TESSERATI FIDAL 01:00:14
    863 MM45   164  1446 ESPOSTO Domenico 1963 BA512 POL.GRAVINA AELECTI S.GRAMEGNA 01:00:15
    864 MM40   150   630 DIBARI Riccardo 1969 BA592 BARLETTA SPORTIVA 01:00:15
    865 MM35   107  1062 MELE David 1970 BA587 LA PIETRA 01:00:16
    866 MM40   151   832 QUARTO Francesco 1965 FG264 A.S. CULTURALE POD. S. STEFANO 01:00:17
    867 NTF   136  3456 MANZARI Gabriele 1963 BA999 NON TESSERATI FIDAL 01:00:18
    868 MM55 46   890 MARINELLI Giuseppe 1952 BA507 A.MARATONETI ANDRIESI 01:00:18
    869 MM40   152  1135 MARASCO Marcello 1968 BA531 A.S.D. SAN NICOLA RUNNERS 01:00:19
    870 NTF   137  3961 DELL'INDICE Antonio 1950 BA999 NON TESSERATI FIDAL 01:00:19
    871 NTF   138  3766 PALASCIANO Domenico 1965 BA999 NON TESSERATI FIDAL 01:00:20
    872 NTF   139  3767 RAGONE Giovanni 1962 BA999 NON TESSERATI FIDAL 01:00:21
    873 MM65    10  1260 TAMMA Vincenzo 1942 BA039 A.S. AMICI STRADA DEL TESORO 01:00:21
    874 MM50    99   823 COLANGIONE Pio Giuseppe 1958 FG264 A.S. CULTURALE POD. S. STEFANO 01:00:22
    875 MM60    23  1007 PALMISANO Francesco 1947 TA423 CLUB RUNNER 87 VALENTE ARREDI 01:00:23
    876 NTF   140  3534 PIZZOLORUSSO Antonio 1950 BA999 NON TESSERATI FIDAL 01:00:24
    877 TF     7   553 PASSALACQUA Vita Leonar 1975 BA057 ATHLETIC MARATHON SANTERAMO 01:00:24
    878 MM40   153   148 PICERNO Giacomo 1966 BA093 ATLETIC CLUB ALTAMURA 01:00:25
    879 NTF   141  3074 COVELLI Vito 1949 BA999 NON TESSERATI FIDAL 01:00:26
    880 MF40     9   417 PASCOSCHI Angela 1965 BA052 BARI ROAD RUNNERS CLUB 01:00:27
    881 MM55 47  3152 NINNI Rodolfo 1954 BA052 BARI ROAD RUNNERS CLUB 01:00:28
    882 MF45    11  1237 PORCELLI Teresa 1964 BA529 A.S. TRANI MARATHON 01:00:29
    883 MM45   165   991 RIPOLI Giovanni Camillo 1964 BA553 ATLETICA ADELFIA 01:00:29
    884 NTF   142  3606 PASCALE Giuseppe 1986 BA999 NON TESSERATI FIDAL 01:00:30
    885 NTF   143  3112 FERRI Luigi 1965 BA999 NON TESSERATI FIDAL 01:00:30
    886 NTF   144  3988 RICCI Vito Andrea 1973 BA999 NON TESSERATI FIDAL 01:00:30
    887 MM60    24   886 LOTTI Giuseppe 1948 BA507 A.MARATONETI ANDRIESI 01:00:30
    888 MM50   100   244 EPIFANIA Manlio 1957 BA039 A.S. AMICI STRADA DEL TESORO 01:00:30
    889 NTF   145   501 CICCIMARRA Tommaso 1960 BA999 NON TESSERATI FIDAL 01:00:31
    890 TF     8  1305 POCI Simona 1981 BA521 A.S. DOF AMATORI TURI 01:00:32
    891 MM40   154   927 ZAGARIA Vincenzo 1966 BA507 A.MARATONETI ANDRIESI 01:00:33
    892 TM    77  1298 CANIELLO Maurizio 1979 BA521 A.S. DOF AMATORI TURI 01:00:33
    893 MM65    11   230 MANZONI Giovanni 1943 BA039 A.S. AMICI STRADA DEL TESORO 01:00:34
    894 MM50   101   328 MONNO Michele 1956 BA525 CRAL AMIU BARI 01:00:35
    895 MM50   102   824 RICCIARDI Rocco 1959 FG264 A.S. CULTURALE POD. S. STEFANO 01:00:35
    896 MM35   108   690 PIAZZOLLA Davide 1970 FG284 MARGHERITA DI SAVOIA RUNNERS 01:00:36
    897 MM70 2   972 POTENZA Antonio 1939 BR144 ATALAS SAN VITO DEI NORMANNI 01:00:37
    898 MM35   109  1070 CAUTERO Livio 1972 BA587 LA PIETRA 01:00:37
    899 NTF   146  1233 PAPPALETTERA Vincenzo 1959 BA999 NON TESSERATI FIDAL 01:00:38
    900 MM45   166  1239 ZAGARIA Nicola 1962 BA529 A.S. TRANI MARATHON 01:00:39
    901 MM55 48   105 MINERVA Gennaro 1954 BA010 A.S.D. DOPOLAVORO FERROVIARIO 01:00:39
    902 NTF   147  3140 BONDANESE Giuseppe 1975 BA999 NON TESSERATI FIDAL 01:00:40
    903 TM    78  3399 DE CAROLIS Andrea Ricca 1982 BA551 ASS. NAZIONALE BERSAGLIERI BAR 01:00:41
    904 MM35   110   602 SPERA Giovanni 1971 BA544 ATLETICA DISFIDA DI BARLETTA 01:00:41
    905 TM    79   835 COLANGIONE Giuseppe 1978 FG264 A.S. CULTURALE POD. S. STEFANO 01:00:42
    906 MM40   155  1064 OSIMANI Salvatore 1969 BA587 LA PIETRA 01:00:42
    907 NTF   148  3986 NARDULLI Domenico 1960 BA999 NON TESSERATI FIDAL 01:00:43
    908 MM35   111   788 SPADAVECCHIA Francesco 1974 BA554 FREE RUNNERS MOLFETTA 01:00:43
    909 MM50   103   129 MONNO Riccardo 1959 BA505 A.S. QUELLI DELLA PINETA 01:00:44
    910 MM45   167  3389 DI CONNO Giuseppe 1962 BA551 ASS. NAZIONALE BERSAGLIERI BAR 01:00:44
    911 MM45   168   878 GRUMO Vito 1960 BA507 A.MARATONETI ANDRIESI 01:00:44
    912 MM45   169  1333 LOVECCHIO Nicola 1961 BA550 AVIS IN CORSA CONVERSANO 01:00:45
    913 MM35   112   634 DORONZO Emanuele 1971 BA592 BARLETTA SPORTIVA 01:00:45
    914 TM    80  1413 DEFAZIO Michele 1976 BA538 ATLETI  VALLE DELL'OFANTO 01:00:46
    915 MM35   113   404 RENZO Francesco 1973 BA099 POL. 'D. PIETRI' GRAVINA 01:00:46
    916 MM55 49   176 CAGGIANO Lorenzo 1952 BA093 ATLETIC CLUB ALTAMURA 01:00:47
    917 TF     9  1161 MELE Antonia 1976 BA531 A.S.D. SAN NICOLA RUNNERS 01:00:47
    918 MM55 50  1119 BATTISTA Vincenzo 1951 BA531 A.S.D. SAN NICOLA RUNNERS 01:00:48
    919 MM50   104   385 AMENTA Giuseppe 1959 BA099 POL. 'D. PIETRI' GRAVINA 01:00:48
    920 NTF   149  3894 ARDIMENTO Pasquale 1975 BA999 NON TESSERATI FIDAL 01:00:49
    921 MM35   114   685 DI TRANI Gioacchino 1970 FG284 MARGHERITA DI SAVOIA RUNNERS 01:00:49
    922 NTF   150  3923 CAZZORLA Sabino 1962 BA999 NON TESSERATI FIDAL 01:00:50
    923 NTF   151   975 TANESE Giuseppe 1973 BA999 NON TESSERATI FIDAL 01:00:51
    924 MM55 51  1452 FERRARESE Francesco 1952 BA512 POL.GRAVINA AELECTI S.GRAMEGNA 01:00:51
    925 MM50   105   389 CONCA Giuseppe 1959 BA099 POL. 'D. PIETRI' GRAVINA 01:00:53
    926 NTF   152  3845 STASOLLA Francesco 1966 BA999 NON TESSERATI FIDAL 01:00:53
    927 MM35   115   197 BARBIERI Filippo 1970 BA093 ATLETIC CLUB ALTAMURA 01:00:54
    928 TM    81  1243 CALEFATO Lorenzo 1976 BA529 A.S. TRANI MARATHON 01:00:54
    929 NTF   153  2704 SCAVO Gennaro 1970 BA999 NON TESSERATI FIDAL 01:00:54
    930 MF40    10   937 FABIANO Cetti 1968 BA047 NUOVA ATL. FEMM. ACQUAVIVA 01:00:55
    931 MM55 52   664 PELLEGRINO Sergio 1952 BA082 ATLETICA TOMMASO ASSI TRANI 01:00:56
    932 MF40    11   802 DE PINTO Raffaella 1969 BA554 FREE RUNNERS MOLFETTA 01:00:57
    933 MM45   170   872 DI PALMA Nicola 1960 BA507 A.MARATONETI ANDRIESI 01:00:57
    934 MM40   156   898 NAPOLITANO Vincenzo 1966 BA507 A.MARATONETI ANDRIESI 01:00:58
    935 MM35   116   604 RINALDI Giuseppe 1971 BA544 ATLETICA DISFIDA DI BARLETTA 01:00:59
    936 NTF   154   340 DI GENNARO Sabino 1963 BA999 NON TESSERATI FIDAL 01:01:00
    937 MF40    12   162 CANNITO Vincenza 1968 BA093 ATLETIC CLUB ALTAMURA 01:01:00
    938 MF60     1   161 LOVIGLIO Pasqua 1949 BA093 ATLETIC CLUB ALTAMURA 01:01:01
    939 MM45   171   163 NUZZI Giuseppe 1964 BA093 ATLETIC CLUB ALTAMURA 01:01:01
    940 MM60    25   977 ANTONACCI Rocco 1948 BA553 ATLETICA ADELFIA 01:01:02
    941 MM55 53   921 TAMMACCARO Salvatore 1952 BA507 A.MARATONETI ANDRIESI 01:01:02
    942 MM40   157   578 BUTTARI Nicola 1965 BA544 ATLETICA DISFIDA DI BARLETTA 01:01:03
    943 MM55 54    23 LAFORGIA Nicola 1951 BA062 A.S. KANKUDAI 01:01:03
    944 MM50   106   884 LOPS Sabino 1956 BA507 A.MARATONETI ANDRIESI 01:01:04
    945 NTF   155  3784 DIERENZO Pietro 1965 BA999 NON TESSERATI FIDAL 01:01:04
    946 MM55 55  1327 BUONSANTE Mario 1952 BA550 AVIS IN CORSA CONVERSANO 01:01:05
    947 NTF   156  3479 RUTA Giuseppe 1958 BA999 NON TESSERATI FIDAL 01:01:06
    948 NTF   157  3619 LORUSSO Nicola 1948 BA999 NON TESSERATI FIDAL 01:01:07
    949 MM50   107   838 ZAGARIA Vito 1959 FG264 A.S. CULTURALE POD. S. STEFANO 01:01:07
    950 MM70 3   669 DE TOMA Andrea 1938 BA082 ATLETICA TOMMASO ASSI TRANI 01:01:08
    951 MM40   158   422 CATANESE Francesco 1965 BA052 BARI ROAD RUNNERS CLUB 01:01:08
    952 NTF   158  3045 GALENTINO Andrea 1978 BA999 NON TESSERATI FIDAL 01:01:09
    953 MM45   172  1439 MAZZOCCA Giuseppe 1962 BA538 ATLETI  VALLE DELL'OFANTO 01:01:10
    954 NTF   159  3843 CANNALE Giuseppe 1977 BA999 NON TESSERATI FIDAL 01:01:11
    955 MM45   173   401 MESSINA Pietro 1960 BA099 POL. 'D. PIETRI' GRAVINA 01:01:12
    956 NTF   160  3154 LABELLARTE Luigi 1961 BA999 NON TESSERATI FIDAL 01:01:12
    957 NTF   161  2705 PETRUZZI Giovanni 1974 BA999 NON TESSERATI FIDAL 01:01:13
    958 NTF   162  3954 MASELLIS Rita 1970 BA999 NON TESSERATI FIDAL 01:01:14
    959 NTF   163  3193 RUFO Jose' 1984 BA999 NON TESSERATI FIDAL 01:01:14
    960 TF    10   625 BINETTI Rosalba 1983 BA592 BARLETTA SPORTIVA 01:01:16
    961 MM45   174    71 FERRARA Alberto 1964 BA546 POD. VALLE D'ITRIA LOCOROTONDO 01:01:17
    962 NTF   164  1018 MAIULLARI Marco 1974 BA999 NON TESSERATI FIDAL 01:01:17
    963 NTF   165  3888 MADDALENA Paolo 1984 BA999 NON TESSERATI FIDAL 01:01:18
    964 NTF   166  3444 IGNOMIRIELLO Nicola 1970 BA999 NON TESSERATI FIDAL 01:01:18
    965 MM40   159  1508 SASANELLI Pasquale 1965 BA512 POL.GRAVINA AELECTI S.GRAMEGNA 01:01:20
    966 NTF   167  3488 BARILE Antonio 1966 BA999 NON TESSERATI FIDAL 01:01:21
    967 NTF   168  3567 DE PALMA Francesco 1958 BA999 NON TESSERATI FIDAL 01:01:22
    968 MM40   160   648 CLEMENTE Pietro 1966 BA555 AVIS PODISTICA MOLA 01:01:23
    969 MM40   161   712 DE GEMMIS Gioacchino 1965 BA062 A.S. KANKUDAI 01:01:24
    970 MM45   175   684 DI PACE Michele 1961 FG284 MARGHERITA DI SAVOIA RUNNERS 01:01:25
    971 MM55 56   236 CARDETTA Leonardo 1951 BA039 A.S. AMICI STRADA DEL TESORO 01:01:26
    972 MM50   108   766 DI BITETTO Francesco 1957 BA582 SPORTING C. BISCEGLIE RUNNING 01:01:27
    973 NTF   169  3115 DE GIULIO Marco 1968 BA999 NON TESSERATI FIDAL 01:01:28
    974 MF45    12    16 LUCARIELLO Domenica 1961 BA007 CUS BARI 01:01:29
    975 MM40   162  1462 DI PALO Michele 1967 BA543 MARATHON CLUB MINERVINO 01:01:30
    976 NTF   170  3482 FACCILONGO Fernando 1974 BA999 NON TESSERATI FIDAL 01:01:34
    977 MM40   163   649 DESILVIO Nicola 1965 BA555 AVIS PODISTICA MOLA 01:01:35
    978 MM40   164   304 NEVIERA Giuseppe 1966 BA586 A.S.D.ASOPICO RUNNER BARI 01:01:36
    979 NTF   171  3084 TERMINE  Berardo 1951 BA999 NON TESSERATI FIDAL 01:01:41
    980 MM50   109  3582 MASSARI Pasquale 1957 BA597 ASD NUOVA ATLETICA GIOVINAZZO 01:01:42
    981 MM45   176  1037 ANTUOFERMO Pasquale 1964 BA547 A.S.CORRIMONDO BITONTO 01:01:43
    982 MM40   165  1280 SANTERAMO Giacomo 1968 BA049 G.S.P. III REGIONE AEREA BARI 01:01:44
    983 NTF 171  3208 SANTORSOLA Vincenzo 1911 BA999 NON TESSERATI FIDAL 01:01:45
    984 NTF   172  3768 LORUSSO Domenico 1980 BA999 NON TESSERATI FIDAL 01:01:47
    985 MM55 57   276 ROMITO Vito 1950 BA580 A.S.D.  AGORA' 01:01:48
    986 NTF   173  3235 DEL VECCHIO Giovanni 1976 BA999 NON TESSERATI FIDAL 01:01:49
    987 MM45   177   120 CANTACESSI Nicola 1960 BA505 A.S. QUELLI DELLA PINETA 01:01:52
    988 MM45   178  1138 MASELLI Nicola 1962 BA531 A.S.D. SAN NICOLA RUNNERS 01:01:53
    989 NTF   174  3559 IACOBELLIS Silvio 1965 BA999 NON TESSERATI FIDAL 01:01:55
    990 NTF   175  3885 NIRCHIA Giuseppe 1985 BA999 NON TESSERATI FIDAL 01:01:56
    991 NTF   176  3934 AMMATURO Vito 1965 BA999 NON TESSERATI FIDAL 01:01:57
    992 MM55 58   238 GAROFALO Nicola 1953 BA039 A.S. AMICI STRADA DEL TESORO 01:01:58
    993 MF60     2    24 LEGROTTAGLIE Maria 1948 BA062 A.S. KANKUDAI 01:01:59
    994 MM40   166  1419 SERNIA Vito 1968 BA538 ATLETI  VALLE DELL'OFANTO 01:01:59
    995 MM45   179  1081 BERGAMASCO Antonio Maur 1963 PZ555 PODISTICA HERMES LAVELLO 01:02:00
    996 TF    11   551 LASSANDRO Marella 1977 BA057 ATHLETIC MARATHON SANTERAMO 01:02:00
    997 NTF   177  3842 ELIOTROPIO Giancarlo 1977 BA999 NON TESSERATI FIDAL 01:02:01
    998 NTF   178  3113 PATANO Roberto 1968 BA999 NON TESSERATI FIDAL 01:02:02
    999 MM55 59  1476 QUARTO Michele 1953 RM041 G.S. BANCARI ROMANI 01:02:02
    1000 MM35   117  1422 LUCE Raimondo 1972 BA538 ATLETI  VALLE DELL'OFANTO 01:02:03
    1001 MM45   180   903 PICCOLO Riccardo 1963 BA507 A.MARATONETI ANDRIESI 01:02:04
    1002 MM60    26    78 CARDONE Donato 1945 BA546 POD. VALLE D'ITRIA LOCOROTONDO 01:02:05
    1003 NTF   179  1238 SCARINGI Michele 1960 BA999 NON TESSERATI FIDAL 01:02:06
    1004 MM60    27    76 PALMISANO Michele 1948 BA546 POD. VALLE D'ITRIA LOCOROTONDO 01:02:07
    1005 MM50   110   735 POCCHIARI Savino 1959 BA062 A.S. KANKUDAI 01:02:08
    1006 MM40   167   923 TONDOLO Saverio 1968 BA507 A.MARATONETI ANDRIESI 01:02:09
    1007 MM40   168   856 CARBONE Riccardo 1966 BA507 A.MARATONETI ANDRIESI 01:02:09
    1008 MM45   181   783 MESSA Antonio 1964 BA535 A.S. ATLETICA POLIGNANO 01:02:10
    1009 NTF   180  3684 AMORUSO Onofrio 1950 BA999 NON TESSERATI FIDAL 01:02:11
    1010 NTF   181  3086 LAGONA Vito 1965 BA999 NON TESSERATI FIDAL 01:02:12
    1011 NTF   182  3825 DELLISANTI Giovanni 1944 BA999 NON TESSERATI FIDAL 01:02:13
    1012 MM35   118   294 CALABRESE Giuseppe 1970 BA586 A.S.D.ASOPICO RUNNER BARI 01:02:14
    1013 NTF   183  3625 BUONO Domenico 1963 BA999 NON TESSERATI FIDAL 01:02:15
    1014 MM35   119  1017 MARTEMUCCI Stefano 1972 TA423 CLUB RUNNER 87 VALENTE ARREDI 01:02:17
    1015 MM60    28   925 VIRGILIO Vincenzo 1947 BA507 A.MARATONETI ANDRIESI 01:02:18
    1016 MM60    29   382 ROTONDO Luigi 1947 BA007 CUS BARI 01:02:19
    1017 MM50   111   178 SELVAGGI Michele 1959 BA093 ATLETIC CLUB ALTAMURA 01:02:20
    1018 NTF   184  3111 GIULIANO Erasmo 1964 BA999 NON TESSERATI FIDAL 01:02:20
    1019 MM55 60   778 LIPPOLIS Saverio 1951 BA502 A.S.D. MONTEDORO NOCI 01:02:21
    1020 MM40   169   870 DI FRANCO Luigi 1966 BA507 A.MARATONETI ANDRIESI 01:02:22
    1021 NTF   185  3145 NITTI Mikele 1959 BA999 NON TESSERATI FIDAL 01:02:23
    1022 MM35   120   653 NOYA Guglielmo 1971 BA058 ATLETICA  MONOPOLI 01:02:23
    1023 MM65    12   580 FUCCI Domenico Raffael 1942 BA544 ATLETICA DISFIDA DI BARLETTA 01:02:24
    1024 NTF   186  1185 DE VITIS Fabio 1961 BA999 NON TESSERATI FIDAL 01:02:28
    1025 MM45   182   916 SCIANANDRONE Giuseppe 1962 BA507 A.MARATONETI ANDRIESI 01:02:29
    1026 MM40   170   999 PARISI Pierluigi 1967 TA423 CLUB RUNNER 87 VALENTE ARREDI 01:02:30
    1027 MM35   121  1395 ZANNO Pasquale 1972 BA041 ATLETICA PRO CANOSA 01:02:30
    1028 MM55 61   241 PERRELLI Michele 1950 BA039 A.S. AMICI STRADA DEL TESORO 01:02:31
    1029 MM45   183   631 DIBARI Mauro 1964 BA592 BARLETTA SPORTIVA 01:02:32
    1030 MM65    13   383 RICUPERO Domenico 1944 BA007 CUS BARI 01:02:32
    1031 MM45   184   720 FERRANTE Nicola 1962 BA062 A.S. KANKUDAI 01:02:33
    1032 MM35   122  1041 DE PALMA Michelangelo 1971 BA547 A.S.CORRIMONDO BITONTO 01:02:34
    1033 MM60    30   784 NISTRIO Vito Giuseppe 1946 BA535 A.S. ATLETICA POLIGNANO 01:02:35
    1034 MM50   112   295 CALABRESE Vito 1955 BA586 A.S.D.ASOPICO RUNNER BARI 01:02:36
    1035 NTF   187  3437 FANELLI Tommaso 1946 BA999 NON TESSERATI FIDAL 01:02:38
    1036 NTF   188  3297 PESCHETOLO Giovanni 1967 BA999 NON TESSERATI FIDAL 01:02:38
    1037 NTF   189  3296 SCARAFILE Donato 1969 BA999 NON TESSERATI FIDAL 01:02:40
    1038 MM45   185   780 CARONE Natale 1961 BA535 A.S. ATLETICA POLIGNANO 01:02:43
    1039 MM60    31   275 PALERMO Francesco 1948 BA580 A.S.D.  AGORA' 01:02:44
    1040 MM40   171   698 SPERTI Guido 1969 LE322 A.S. MARATHON CLUB LECCE 01:02:45
    1041 MM45   186   981 DI LORENZO Michele 1960 BA553 ATLETICA ADELFIA 01:02:46
    1042 NTF   190  3155 LOIACONO Giovanni 1960 BA999 NON TESSERATI FIDAL 01:02:47
    1043 NTF   191  3572 GUASTADISEGNI Luigi 1960 BA999 NON TESSERATI FIDAL 01:02:47
    1044 NTF   192  3669 CONTI Ettore 1963 BA999 NON TESSERATI FIDAL 01:02:49
    1045 NTF   193  3037 LATIANO Pasquale 1963 BA999 NON TESSERATI FIDAL 01:02:50
    1046 NTF   194  1254 DELL0GLIO Guido 1972 BA999 NON TESSERATI FIDAL 01:02:51
    1047 MF45    13   935 ANTONACCI Annamaria 1962 BA047 NUOVA ATL. FEMM. ACQUAVIVA 01:02:52
    1048 MM55 62   804 ARMENISE Fedele 1951 BA520 A.S. BARINCORSA 01:02:52
    1049 MM60    32   160 RAGONE Giovanni 1946 BA093 ATLETIC CLUB ALTAMURA 01:02:53
    1050 NTF   195  3089 TAFURI Lorenzo 1948 BA999 NON TESSERATI FIDAL 01:02:53
    1051 NTF   196  1117 DI MARO Giovanni 1966 BA999 NON TESSERATI FIDAL 01:02:54
    1052 NTF   197  3525 CIOCE Michele 1985 BA999 NON TESSERATI FIDAL 01:02:55
    1053 MF45    14  3390 PETRUZZELLI Cristina 1962 BA551 ASS. NAZIONALE BERSAGLIERI BAR 01:02:56
    1054 MM60    33   234 DE NICOLO' Gaetano 1946 BA039 A.S. AMICI STRADA DEL TESORO 01:02:56
    1055 NTF   198  2708 CALAPRICE Michele 1974 BA999 NON TESSERATI FIDAL 01:02:57
    1056 MM55 63   357 ANDRIOLA Nicolangelo 1951 BA007 CUS BARI 01:02:58
    1057 MM45   187   367 FANIZZI Piero 1960 BA007 CUS BARI 01:02:59
    1058 NTF   199  1163 CAPOCASALE Antonella 1974 BA999 NON TESSERATI FIDAL 01:03:00
    1059 NTF   200  3581 MASTROMARINO Francesco 1960 BA999 NON TESSERATI FIDAL 01:03:00
    1060 NTF   201  3628 ROMEO Andrea 1989 BA999 NON TESSERATI FIDAL 01:03:01
    1061 MM40   172  1484 CICCARESE Luigi 1969 BR131 A.S. ATLETICA LATIANO 01:03:01
    1062 MM45   188  1482 COLAFATI Antonello 1962 BR131 A.S. ATLETICA LATIANO 01:03:02
    1063 MM40   173   337 CENTRONE Lorenzo 1967 BA578 ATLETICA AUFIDUS 01:03:03
    1064 NTF   202  3229 MONGELLI Nicola 1964 BA999 NON TESSERATI FIDAL 01:03:03
    1065 MM40   174   859 CELLAMMARE Giovanni 1968 BA507 A.MARATONETI ANDRIESI 01:03:04
    1066 NTF   203  1494 DEL MEDICO Paolo 1964 BA999 NON TESSERATI FIDAL 01:03:04
    1067 NTF   204  3770 ACQUAVIVA Giovanni 1976 BA999 NON TESSERATI FIDAL 01:03:04
    1068 MM40   175   895 MOLINO Nicola 1966 BA507 A.MARATONETI ANDRIESI 01:03:05
    1069 NTF   205  3938 PICICCO Romeo 1959 BA999 NON TESSERATI FIDAL 01:03:06
    1070 MM45   189   338 DECORATO Donato 1961 BA578 ATLETICA AUFIDUS 01:03:07
    1071 NTF   206  3237 PICCOLI Vito 1972 BA999 NON TESSERATI FIDAL 01:03:07
    1072 NTF   207  3991 GIANNONE Cosimo 1955 BA999 NON TESSERATI FIDAL 01:03:08
    1073 NTF   208  3598 AMORUSO  Nicola 1950 BA999 NON TESSERATI FIDAL 01:03:09
    1074 TM    82  1415 DIPAOLA Ruggero 1977 BA538 ATLETI  VALLE DELL'OFANTO 01:03:10
    1075 MF45    15  1414 DILEO Maria Rosaria 1964 BA538 ATLETI  VALLE DELL'OFANTO 01:03:10
    1076 MM50   113  1417 FILOMENO Giovanni 1957 BA538 ATLETI  VALLE DELL'OFANTO 01:03:11
    1077 NTF   209  3137 SPIZZICO Massimo 1976 BA999 NON TESSERATI FIDAL 01:03:12
    1078 MM50   114  1378 MANGINO Biagio 1955 BA041 ATLETICA PRO CANOSA 01:03:13
    1079 MM45   190   672 COIA Nicola 1962 BA539 POL. ARAME PUGLIA 01:03:14
    1080 NTF   210  1187 FERRARA Alessandro 1971 BA999 NON TESSERATI FIDAL 01:03:19
    1081 MM40   176   809 FANELLI Antonio 1967 BA520 A.S. BARINCORSA 01:03:20
    1082 MM45   191   795 CALDAROLA Paolo 1963 BA554 FREE RUNNERS MOLFETTA 01:03:21
    1083 TM    83  1063 MURGOLO Francesco 1981 BA587 LA PIETRA 01:03:22
    1084 MM35   123    97 RINALDI Donato 1974 BA546 POD. VALLE D'ITRIA LOCOROTONDO 01:03:23
    1085 MM45   192   640 PORCELLUZZI Gennaro 1964 BA592 BARLETTA SPORTIVA 01:03:24
    1086 NTF   211  1049 RUCCIA  Vincenzo 1976 BA999 NON TESSERATI FIDAL 01:03:25
    1087 MF45    16   113 CUSANO Anna 1960 BA505 A.S. QUELLI DELLA PINETA 01:03:30
    1088 MM50   115  1287 BENEDETTO Giovanni 1959 BA049 G.S.P. III REGIONE AEREA BARI 01:03:31
    1089 MM50   116  1290 FRESCHINI Domenico Giov 1958 BA049 G.S.P. III REGIONE AEREA BARI 01:03:32
    1090 NTF   212  2591 FERRARA Onofrio 1956 BA999 NON TESSERATI FIDAL 01:03:33
    1091 NTF   213  3496 SCIOLTO Sebastiano 1974 BA999 NON TESSERATI FIDAL 01:03:34
    1092 MM70 4   214 DIACONO Gaetano 1939 BA530 G.S.BRIGATA CORAZZATA PINEROLO 01:03:35
    1093 NTF   214  3998 DI FONZO Michele 1963 BA999 NON TESSERATI FIDAL 01:03:36
    1094 NTF   215   334 SARDONE Francesco Bruno 1967 BA999 NON TESSERATI FIDAL 01:03:37
    1095 MM55 64   587 RIZZI Giuseppe 1951 BA544 ATLETICA DISFIDA DI BARLETTA 01:03:40
    1096 MM40   177   218 CATALANO Nicola 1969 BA530 G.S.BRIGATA CORAZZATA PINEROLO 01:03:43
    1097 NTF   216  3630 DAL MASTRO Riccardo 1949 BA999 NON TESSERATI FIDAL 01:03:44
    1098 MM55 65  1331 LACANDELA Giovanni 1951 BA550 AVIS IN CORSA CONVERSANO 01:03:45
    1099 NTF   217  3563 MONNO Giacomo 1965 BA999 NON TESSERATI FIDAL 01:03:45
    1100 NTF   218  3832 RONDINONE Antonella 1982 BA999 NON TESSERATI FIDAL 01:03:46
    1101 MM65    14   665 BASSO Giacomo 1941 BA082 ATLETICA TOMMASO ASSI TRANI 01:03:47
    1102 NTF   219  3243 CHIMIENTI Luigi 1969 BA999 NON TESSERATI FIDAL 01:03:48
    1103 MM45   193   196 DIRIENZO Marco 1962 BA093 ATLETIC CLUB ALTAMURA 01:03:48
    1104 TM    84  1059 INTRANUOVO Vito 1979 BA587 LA PIETRA 01:03:49
    1105 NTF   220  3182 BUONPENSIERE Umberto 1953 BA999 NON TESSERATI FIDAL 01:03:50
    1106 MM60    34   952 CIRIELLI Leonardo 1946 BA005 AMATORI ATL. ACQUAVIVA 01:03:51
    1107 MF40    13   112 PADOVANO Lucrezia 1969 BA505 A.S. QUELLI DELLA PINETA 01:03:51
    1108 MM35   124   300 LOIACONO Marco 1972 BA586 A.S.D.ASOPICO RUNNER BARI 01:03:52
    1109 MM50   117   128 LOSETO Francesco 1955 BA505 A.S. QUELLI DELLA PINETA 01:03:52
    1110 MM45   194   398 LOGLISCI Michele 1964 BA099 POL. 'D. PIETRI' GRAVINA 01:03:53
    1111 NTF   221  3992 FIORENZO Filippo 1975 BA999 NON TESSERATI FIDAL 01:03:54
    1112 NTF   222  3535 RACANIELLO Domenico 1957 BA999 NON TESSERATI FIDAL 01:03:55
    1113 MM50   118   896 MONTAGNA Michele 1957 BA507 A.MARATONETI ANDRIESI 01:03:56
    1114 NTF   223  3573 CASSANO Francesco 1965 BA999 NON TESSERATI FIDAL 01:03:56
    1115 MM35   125  1300 IACOBBE Andrea 1974 BA521 A.S. DOF AMATORI TURI 01:03:57
    1116 MM50   119   917 SCIANANDRONE Vincenzo 1958 BA507 A.MARATONETI ANDRIESI 01:03:58
    1117 TM    85   979 CUSCITO Vito Michele 1976 BA553 ATLETICA ADELFIA 01:03:58
    1118 MM50   120   906 PISTILLO Vincenzo 1957 BA507 A.MARATONETI ANDRIESI 01:03:59
    1119 NTF   224  3926 MASTRANGELO Marcello 1981 BA999 NON TESSERATI FIDAL 01:04:00
    1120 NTF   225  3552 GABRIELLI Cosimo 1978 BA999 NON TESSERATI FIDAL 01:04:03
    1121 TF    12  1301 IACOVIELLO Gaia 1977 BA521 A.S. DOF AMATORI TURI 01:04:04
    1122 NTF   226  2642 LUCCHESI Maurizio 1962 BA999 NON TESSERATI FIDAL 01:04:05
    1123 MM50   121  1132 LAPEDOTA Antonio 1958 BA531 A.S.D. SAN NICOLA RUNNERS 01:04:06
    1124 AF     2   212 URSI Fabiana 1993 BA015 A.S. OLIMPIA CLUB 01:04:08
    1125 NTF   227  3163 ANDRIANI Felice 1945 BA999 NON TESSERATI FIDAL 01:04:09
    1126 MM50   122   869 DI CIOMMO Vito 1959 BA507 A.MARATONETI ANDRIESI 01:04:11
    1127 NTF   228  3385 PROSPERO Luigi 1963 BA999 NON TESSERATI FIDAL 01:04:12
    1128 NTF   229  3867 FANTAZZINI Dino 1962 BA999 NON TESSERATI FIDAL 01:04:14
    1129 NTF   230  3895 MASTROROSA Cristina 1974 BA999 NON TESSERATI FIDAL 01:04:15
    1130 MF55     1  1024 DE PALMA Maria Teresa 1954 BA050 A.S.NICOLAUS ATHLETIC CENTER 01:04:15
    1131 MF35     6   637 LOPS Teresa 1970 BA592 BARLETTA SPORTIVA 01:04:16
    1132 MM35   126    94 CONVERTINI Pietro 1972 BA546 POD. VALLE D'ITRIA LOCOROTONDO 01:04:16
    1133 NTF   231  3476 SIVA Michele 1976 BA999 NON TESSERATI FIDAL 01:04:17
    1134 MF45    17  1399 ZINGARELLI Maria 1961 BA041 ATLETICA PRO CANOSA 01:04:19
    1135 NTF   232  3577 GENCHI Donato 1959 BA999 NON TESSERATI FIDAL 01:04:20
    1136 MM60    35   271 AVERSA Antonio 1948 BA058 ATLETICA  MONOPOLI 01:04:20
    1137 MF45    18   350 PATRUNO Nunzia 1962 BA578 ATLETICA AUFIDUS 01:04:22
    1138 NTF   233  3996 GIANNOCCARO Nunzio 1911 BA999 NON TESSERATI FIDAL 01:04:26
    1139 NTF   234  3918 PAGANO Francesco 1980 BA999 NON TESSERATI FIDAL 01:04:27
    1140 MM65    15  1351 LORIZZO Antonio 1942 BA043 G.S.ATLETICA AMATORI CORATO 01:04:30
    1141 MM35   127  1507 LOVERO Donato 1972 BA512 POL.GRAVINA AELECTI S.GRAMEGNA 01:04:32
    1142 CM     4  1099 DINIELLI Enrico 1994 BA023 ATLETICA GIOVANILE ACQUAVIVA 01:04:34
    1143 CM     5  1104 FORTUNATO Vito 1995 BA023 ATLETICA GIOVANILE ACQUAVIVA 01:04:35
    1144 RM     2  3970 MASTROROCCO Antonio 1996 BA023 ATLETICA GIOVANILE ACQUAVIVA 01:04:35
    1145 NTF   235  2525 FINO Emanuele 1975 BA999 NON TESSERATI FIDAL 01:04:36
    1146 NTF   236  2529 RUSCIGNO Antonello 1979 BA999 NON TESSERATI FIDAL 01:04:36
    1147 NTF   237  2536 IANNONE Vincenzo 1952 BA999 NON TESSERATI FIDAL 01:04:37
    1148 NTF   238  3195 FILOGRANO Massimo 1960 BA999 NON TESSERATI FIDAL 01:04:38
    1149 TM    86  1038 CARDAMONE Mario 1982 BA547 A.S.CORRIMONDO BITONTO 01:04:40
    1150 NTF   239  3777 CARONE Pierpaolo 1971 BA999 NON TESSERATI FIDAL 01:04:42
    1151 MM50   123  3106 COSTANZA Cosimo Damiano 1959 RM041 G.S. BANCARI ROMANI 01:04:43
    1152 MM50   124   920 SURIANO Antonio 1956 BA507 A.MARATONETI ANDRIESI 01:04:44
    1153 MF55     2   460 DI SIBIO Angela 1954 BA509 POD. CANUSIUM 2004 01:04:45
    1154 MM60    36   481 SCIANNAMEA Giuseppe 1947 BA509 POD. CANUSIUM 2004 01:04:45
    1155 MM35   128   867 DI BARI Savino 1974 BA507 A.MARATONETI ANDRIESI 01:04:46
    1156 NTF   240  3121 DICUONZO Mario 1956 BA999 NON TESSERATI FIDAL 01:04:47
    1157 NTF   241  3994 GIORGIO Evangelista 1976 BA999 NON TESSERATI FIDAL 01:04:48
    1158 MF55     3   541 MAGLIO Maria 1954 BA029 A.A.'E. MANZARI' CASAMASSIMA 01:04:49
    1159 MM35   129   293 CACCIAPAGLIA Paolo Anto 1970 BA586 A.S.D.ASOPICO RUNNER BARI 01:04:50
    1160 MM45   195   332 MOSSA Loeonardo 1962 BA525 CRAL AMIU BARI 01:04:51
    1161 MM35   130   312 SMALDINO Francesco 1971 BA586 A.S.D.ASOPICO RUNNER BARI 01:04:51
    1162 NTF   242  3635 TRISCIUZZI Leonardo 1972 BA999 NON TESSERATI FIDAL 01:04:52
    1163 MM60    37   801 MILONE Gaetano 1946 BA554 FREE RUNNERS MOLFETTA 01:04:53
    1164 NTF   243  3238 ABBATISCIANNI Antonio 1971 BA999 NON TESSERATI FIDAL 01:05:00
    1165 NTF   244  3601 PETRUZZELLI Michele 1966 BA999 NON TESSERATI FIDAL 01:05:00
    1166 MM45   196  1297 ARDILLO Giuseppe 1962 BA521 A.S. DOF AMATORI TURI 01:05:02
    1167 MM60    38   689 MASCOLO Ruggiero Antoni 1945 FG284 MARGHERITA DI SAVOIA RUNNERS 01:05:04
    1168 TM    87  1454 CASSANO Francesco 1977 BA512 POL.GRAVINA AELECTI S.GRAMEGNA 01:05:08
    1169 NTF   245  1194 BERARDI Antonio 1972 BA999 NON TESSERATI FIDAL 01:05:09
    1170 MF50     3   707 CRUCIATA Anna 1957 BA062 A.S. KANKUDAI 01:05:09
    1171 MM55 66   101 ZONNO Gioacchino 1951 BA010 A.S.D. DOPOLAVORO FERROVIARIO 01:05:12
    1172 MM60    39  1314 D'ALOIA Antonio 1949 BA025 A.S. AMATORI PUTIGNANO 01:05:14
    1173 MM60    40   660 RIZZI Domenico 1949 BA082 ATLETICA TOMMASO ASSI TRANI 01:05:15
    1174 MM55 67   192 FERRULLI Giuseppe 1950 BA093 ATLETIC CLUB ALTAMURA 01:05:16
    1175 AM     6  3968 VISCEGLIA Antonio 1992 BA005 AMATORI ATL. ACQUAVIVA 01:05:17
    1176 EM     1  3973 PALMIROTTA Elio 1998 BA023 ATLETICA GIOVANILE ACQUAVIVA 01:05:18
    1177 NTF   246  3526 CASSANO Domenico 1986 BA999 NON TESSERATI FIDAL 01:05:19
    1178 MM50   125   758 DI BITETTO Giuseppe 1959 BA582 SPORTING C. BISCEGLIE RUNNING 01:05:20
    1179 NTF   247  3226 PATRUNO Luigi 1958 BA999 NON TESSERATI FIDAL 01:05:21
    1180 NTF   248  3231 DEMARINIS Nicola 1964 BA999 NON TESSERATI FIDAL 01:05:22
    1181 MM60    41   136 BIALLO Vincenzo 1946 BA505 A.S. QUELLI DELLA PINETA 01:05:24
    1182 MM50   126   474 BORRACCINO Giuseppe 1955 BA509 POD. CANUSIUM 2004 01:05:25
    1183 NTF   249  3580 ROBLES Nicola 1961 BA999 NON TESSERATI FIDAL 01:05:28
    1184 NTF   250  3123 SIGNORILE Roberto 1973 BA999 NON TESSERATI FIDAL 01:05:29
    1185 NTF   251  3667 BALENZANO Cosimo 1975 BA999 NON TESSERATI FIDAL 01:05:30
    1186 MM60    42   100 RANDO Tommaso 1948 BA010 A.S.D. DOPOLAVORO FERROVIARIO 01:05:31
    1187 NTF   252  3449 BONASIA Vincenzo 1945 BA999 NON TESSERATI FIDAL 01:05:33
    1188 MM50   127   891 MARZANO Francesco 1956 BA507 A.MARATONETI ANDRIESI 01:05:34
    1189 MF35     7   936 CACCIAPAGLIA Claudia 1972 BA047 NUOVA ATL. FEMM. ACQUAVIVA 01:05:35
    1190 NTF   253  3616 MAGARELLI Maria 1963 BA999 NON TESSERATI FIDAL 01:05:37
    1191 MM50   128  1471 GIULIANO Mario 1957 BA543 MARATHON CLUB MINERVINO 01:05:38
    1192 MM35   131  1040 DE PALMA Damiano 1972 BA547 A.S.CORRIMONDO BITONTO 01:05:39
    1193 NTF   254  3125 PASSIATORE Ferdinando 1969 BA999 NON TESSERATI FIDAL 01:05:41
    1194 MM65    16   138 BELLANOVA Rocco 1942 BA505 A.S. QUELLI DELLA PINETA 01:05:42
    1195 MM45   197  1144 PRISCIANDARO Vincenzo 1961 BA531 A.S.D. SAN NICOLA RUNNERS 01:05:42
    1196 MM40   178   782 MARTELLOTTA Vito 1969 BA535 A.S. ATLETICA POLIGNANO 01:05:43
    1197 NTF   255  3618 DE CHIRICO Antonio 1969 BA999 NON TESSERATI FIDAL 01:05:44
    1198 NTF   256   445 CONTE Luigi 1959 BA999 NON TESSERATI FIDAL 01:05:44
    1199 NTF   257  3995 MAZZEO Rocco 1960 BA999 NON TESSERATI FIDAL 01:05:45
    1200 MF45    19  1213 PERCHIAZZI Maria 1961 BA531 A.S.D. SAN NICOLA RUNNERS 01:05:46
    1201 MM50   129   900 PAPARUSSO Vincenzo 1959 BA507 A.MARATONETI ANDRIESI 01:05:46
    1202 NTF   258  3613 DE VIVO Michele 1956 BA999 NON TESSERATI FIDAL 01:05:47
    1203 MM40   179   995 GIRONE Nicola 1968 BA553 ATLETICA ADELFIA 01:05:47
    1204 MM35   132   323 FUSCO Saverio 1971 BA525 CRAL AMIU BARI 01:05:49
    1205 MF55     4   252 BARILE Isabella Edda 1952 BA522 MURGIA MARATHON ANDRIA 01:05:49
    1206 NTF   259  3589 BRUNO Angelo 1948 BA999 NON TESSERATI FIDAL 01:05:50
    1207 NTF   260  1180 RANIERI Carlo 1962 BA999 NON TESSERATI FIDAL 01:05:51
    1208 MM45   198  1051 CALDARULO Giuseppe 1964 BA587 LA PIETRA 01:05:52
    1209 MM45   199  1060 MANGIALARDI Giuseppe 1964 BA587 LA PIETRA 01:05:53
    1210 MM35   133  1078 MAZZARELLI Andrea Rocco 1970 PZ555 PODISTICA HERMES LAVELLO 01:05:54
    1211 NTF   261  3597 VOLPE Teresa 1961 BA999 NON TESSERATI FIDAL 01:05:55
    1212 NTF   262  3753 BRESCIA Michele 1947 BA999 NON TESSERATI FIDAL 01:05:56
    1213 MM50   130  1004 NINNI Antonio 1955 TA423 CLUB RUNNER 87 VALENTE ARREDI 01:05:56
    1214 MM50   131  1262 FURIO Giuseppe 1956 BA039 A.S. AMICI STRADA DEL TESORO 01:05:57
    1215 NTF   263  1202 MAZZETTI Emilio 1954 BA999 NON TESSERATI FIDAL 01:06:00
    1216 NTF   264  3242 SCHIAVONE Francesco 1969 BA999 NON TESSERATI FIDAL 01:06:02
    1217 NTF   265  2703 ROPPO Francesco 1973 BA999 NON TESSERATI FIDAL 01:06:03
    1218 MM40   180  1509 LAPOLLA Domenico 1968 BA512 POL.GRAVINA AELECTI S.GRAMEGNA 01:06:07
    1219 MM45   200  1286 VALENTINO Pietro 1960 BA049 G.S.P. III REGIONE AEREA BARI 01:06:09
    1220 MM45   201   647 CASSANO Domenico 1963 BA555 AVIS PODISTICA MOLA 01:06:10
    1221 NTF   266  3782 CLEMENTE Vitantonio 1968 BA999 NON TESSERATI FIDAL 01:06:10
    1222 NTF   267  1341 CIFARELLI Giovanni 1964 BA999 NON TESSERATI FIDAL 01:06:11
    1223 NTF   268  3596 FERRAREIS Annamaria 1964 BA999 NON TESSERATI FIDAL 01:06:12
    1224 MF50     4    21 ATTOLICO Maddalena 1956 BA062 A.S. KANKUDAI 01:06:12
    1225 NTF   269  3595 CEGLIE Domenica 1969 BA999 NON TESSERATI FIDAL 01:06:13
    1226 MF40    14   652 CASSANO Maria 1968 BA555 AVIS PODISTICA MOLA 01:06:15
    1227 NTF   270  3772 FINEO Giovanni 1969 BA999 NON TESSERATI FIDAL 01:06:16
    1228 MM45   202   172 LOPORCARO Carlo 1960 BA093 ATLETIC CLUB ALTAMURA 01:06:17
    1229 NTF   271  3993 FIORE  Antonio 1974 BA999 NON TESSERATI FIDAL 01:06:18
    1230 MM50   132   650 DATTOLO Ottavio 1957 BA555 AVIS PODISTICA MOLA 01:06:18
    1231 MM60    43  1316 RENNA Onofrio 1948 BA025 A.S. AMATORI PUTIGNANO 01:06:19
    1232 MM50   133   919 SOLOFRIZZO Francesco 1955 BA507 A.MARATONETI ANDRIESI 01:06:20
    1233 MM50   134  1470 TARANTO Antonio 1956 BA543 MARATHON CLUB MINERVINO 01:06:20
    1234 MM40   181   756 DEGAETANO Giuseppe 1968 BA582 SPORTING C. BISCEGLIE RUNNING 01:06:21
    1235 MM40   182  1466 BRANDI Arcangelo 1968 BA543 MARATHON CLUB MINERVINO 01:06:21
    1236 NTF   272  3151 VIVACE Antonio 1911 BA999 NON TESSERATI FIDAL 01:06:22
    1237 TM    88   880 GUGLIELMI Domenico 1975 BA507 A.MARATONETI ANDRIESI 01:06:23
    1238 NTF   273  3095 COLUCCI Giuseppe 1967 BA999 NON TESSERATI FIDAL 01:06:25
    1239 NTF   274  3603 GRANDOLFO Nicola 1966 BA999 NON TESSERATI FIDAL 01:06:26
    1240 NTF   275  3588 CALVANO Mario 1972 BA999 NON TESSERATI FIDAL 01:06:27
    1241 MM75     1   644 DITERLIZZI Angelo 1933 BA026 ATLETICA BARLETTA 01:06:28
    1242 NTF   276  3124 MORINI Ida 1972 BA999 NON TESSERATI FIDAL 01:06:28
    1243 MM55 68   239 LEO Salvatore 1952 BA039 A.S. AMICI STRADA DEL TESORO 01:06:29
    1244 MM55 69  1473 VITAGLIANO Carlo 1953 BA543 MARATHON CLUB MINERVINO 01:06:38
    1245 MM55 70   670 PALMIERI Ignazio 1953 BA082 ATLETICA TOMMASO ASSI TRANI 01:06:39
    1246 MM55 71   505 LOIUDICE Vito 1953 BA541 ALTEATLETICA ALTAMURA 01:06:40
    1247 NTF   277  3921 CATALANO Vincenzo 1979 BA999 NON TESSERATI FIDAL 01:06:41
    1248 NTF   278  3633 RENDINE Riccardo 1980 BA999 NON TESSERATI FIDAL 01:06:42
    1249 NTF   279  3165 PANEBIANCO Gaetano 1971 BA999 NON TESSERATI FIDAL 01:06:44
    1250 TM    89  1307 CALO' Giovanni 1983 BA025 A.S. AMATORI PUTIGNANO 01:06:45
    1251 MM55 72   377 MESTO Vito 1952 BA007 CUS BARI 01:06:47
    1252 MM45   203   862 CRAPOLICCHIO Giuseppe 1962 BA507 A.MARATONETI ANDRIESI 01:06:48
    1253 MF40    15  1158 DE GIOSA Eugenia 1965 BA531 A.S.D. SAN NICOLA RUNNERS 01:06:49
    1254 NTF   280  2930 IUSCO Mariantonietta 1911 BA999 NON TESSERATI FIDAL 01:06:50
    1255 NTF   281  3943 SANTOVITO Vincenzo 1966 BA999 NON TESSERATI FIDAL 01:06:51
    1256 MM55 73  1005 CANGIULLI Salvatore 1954 TA423 CLUB RUNNER 87 VALENTE ARREDI 01:06:52
    1257 NTF   282  3522 BOCCIA Fabrizio 1987 BA999 NON TESSERATI FIDAL 01:06:54
    1258 NTF   283  1264 BARBERA Michele 1971 BA999 NON TESSERATI FIDAL 01:06:55
    1259 NTF   284  3432 GENCHI Gianni 1948 BA999 NON TESSERATI FIDAL 01:06:56
    1260 NTF   285  2535 CIMINO Claudio 1993 BA999 NON TESSERATI FIDAL 01:06:57
    1261 NTF   286  3568 MINERVINI Corrado 1958 BA999 NON TESSERATI FIDAL 01:06:58
    1262 NTF   287   659 PATERNO Giovanni 1968 BA999 NON TESSERATI FIDAL 01:06:59
    1263 NTF   288  3769 SARDONE Nicola 1954 BA999 NON TESSERATI FIDAL 01:07:01
    1264 NTF   289  3571 DE SANTIS Carlo 1943 BA999 NON TESSERATI FIDAL 01:07:06
    1265 NTF   290  3600 MALDARIZZI Cosimo 1969 BA999 NON TESSERATI FIDAL 01:07:07
    1266 NTF   291  1115 COLELLA Giuseppe 1955 BA999 NON TESSERATI FIDAL 01:07:08
    1267 NTF   292  3661 LITURRI Silvestro 1968 BA999 NON TESSERATI FIDAL 01:07:10
    1268 MM35   134   658 DESIANTE Vito Antonio 1974 BA099 POL. 'D. PIETRI' GRAVINA 01:07:12
    1269 NTF   293  3760 LA FORGIA Corrado 1953 BA999 NON TESSERATI FIDAL 01:07:13
    1270 MM55 74   484 SCALERA Francesco 1951 BA541 ALTEATLETICA ALTAMURA 01:07:14
    1271 NTF   294  3876 LORUSSO Alberto 1977 BA999 NON TESSERATI FIDAL 01:07:15
    1272 NTF   295  3839 BERARDINO Laura 1960 BA999 NON TESSERATI FIDAL 01:07:19
    1273 MM50   135  1458 BURDI Giacomo 1958 BA512 POL.GRAVINA AELECTI S.GRAMEGNA 01:07:20
    1274 NTF   296  3585 ABRUZZESE Nicola 1962 BA999 NON TESSERATI FIDAL 01:07:21
    1275 NTF   297  3053 CHIRONNA Domenico 1973 BA999 NON TESSERATI FIDAL 01:07:22
    1276 NTF   298  3052 BOVENGA Valerio 1973 BA999 NON TESSERATI FIDAL 01:07:24
    1277 NTF   299  3936 FASCICOLO Pasquale 1949 BA999 NON TESSERATI FIDAL 01:07:25
    1278 MM35   135   390 D'AGOSTINO Raffaele 1971 BA099 POL. 'D. PIETRI' GRAVINA 01:07:26
    1279 MM60    44   621 MARTOSCIA Tommaso 1949 BA595 A.P.DIL. INSIEME PER LO SPORT 01:07:27
    1280 NTF   300  3673 BRACCIOLINI Salvatore 1972 BA999 NON TESSERATI FIDAL 01:07:28
    1281 MM50   136   990 PALAZZO Francesco 1956 BA553 ATLETICA ADELFIA 01:07:29
    1282 MM35   136  3862 AMODIO Nicolo' 1970 BA058 ATLETICA  MONOPOLI 01:07:30
    1283 NTF   301  3935 MINERVINI Francesca 1976 BA999 NON TESSERATI FIDAL 01:07:31
    1284 NTF   302  3922 CESAREO Elviro 1967 BA999 NON TESSERATI FIDAL 01:07:32
    1285 NTF   303  3532 QUINTO Giuseppe 1964 BA999 NON TESSERATI FIDAL 01:07:33
    1286 NTF   304  3206 FACCILONGO Michele 1956 BA999 NON TESSERATI FIDAL 01:07:36
    1287 MF45    20   111 LOSITO Celeste 1964 BA505 A.S. QUELLI DELLA PINETA 01:07:41
    1288 MF40    16   411 CHIEPPA Teresa 1969 BA596 A.S.D. ANDRIA RUNS 01:07:42
    1289 MM55 75   714 DE MEDIO Giancarlo 1954 BA062 A.S. KANKUDAI 01:07:43
    1290 MM55 76   822 GIANNATEMPO Savino 1951 FG264 A.S. CULTURALE POD. S. STEFANO 01:07:45
    1291 NTF   305  1489 NARDULLI Saverio 1962 BA999 NON TESSERATI FIDAL 01:07:47
    1292 TM    90   153 COLONNA Vito 1976 BA093 ATLETIC CLUB ALTAMURA 01:07:50
    1293 NTF   306  1344 SOLLECITO Giovanni 1953 BA999 NON TESSERATI FIDAL 01:07:51
    1294 NTF   307  3824 MELILLO Francesco 1954 BA999 NON TESSERATI FIDAL 01:07:52
    1295 MM45   204   521 GIORDANO Salvatore 1962 BA541 ALTEATLETICA ALTAMURA 01:07:52
    1296 NTF   308   930 PETRONI Prospero 1962 BA999 NON TESSERATI FIDAL 01:07:53
    1297 NTF   309  3458 MELIOTA Giuseppe 1963 BA999 NON TESSERATI FIDAL 01:07:54
    1298 NTF   310  3457 PORRELLI Vito Antonio 1963 BA999 NON TESSERATI FIDAL 01:07:54
    1299 MM55 77  1080 CARLONE Michele 1953 PZ555 PODISTICA HERMES LAVELLO 01:07:54
    1300 MM45   205  1082 RIVIEZZO Mauro Giuseppe 1960 PZ555 PODISTICA HERMES LAVELLO 01:07:55
    1301 NTF   311  3050 PALMIOTTO Michele 1972 BA999 NON TESSERATI FIDAL 01:07:56
    1302 NTF   312  3776 CAGGIANO Porzia 1969 BA999 NON TESSERATI FIDAL 01:07:57
    1303 NTF   313  3147 SALATINO Nicola 1965 BA999 NON TESSERATI FIDAL 01:07:58
    1304 NTF   314  3148 GIACULLI Alfonso 1963 BA999 NON TESSERATI FIDAL 01:07:59
    1305 MF45    21   410 STASI Rosa 1964 BA596 A.S.D. ANDRIA RUNS 01:08:00
    1306 MF45    22   702 CACACE Anna 1964 BA062 A.S. KANKUDAI 01:08:01
    1307 MM40   183   733 PERNIOLA Carlo 1965 BA062 A.S. KANKUDAI 01:08:01
    1308 NTF   315  3072 RUSSO Lorenzo 1962 BA999 NON TESSERATI FIDAL 01:08:02
    1309 NTF   316  2939 VOLPICELLA Vito 1961 BA999 NON TESSERATI FIDAL 01:08:03
    1310 NTF   317  3539 MASTROLONARDO Raffaele 1969 BA999 NON TESSERATI FIDAL 01:08:04
    1311 NTF   318  3540 MASTROLONARDO Niccolo' 1998 BA999 NON TESSERATI FIDAL 01:08:05
    1312 TM    91   657 MALCANGI Felice 1978 BA099 POL. 'D. PIETRI' GRAVINA 01:08:06
    1313 NTF   319  3537 MAFFIONE Leonardo 1967 BA999 NON TESSERATI FIDAL 01:08:07
    1314 NTF   320  3652 ROSSINI Michele 1967 BA999 NON TESSERATI FIDAL 01:08:09
    1315 MF55     5  1031 MORRONE Anastasia 1950 BA050 A.S.NICOLAUS ATHLETIC CENTER 01:08:10
    1316 NTF   321  3672 FERRARA Emanuele 1977 BA999 NON TESSERATI FIDAL 01:08:11
    1317 MM65    17  1009 RECCHIA Giuseppe 1942 TA423 CLUB RUNNER 87 VALENTE ARREDI 01:08:12
    1318 NTF   322  3727 SCARCELLI Antonio 1968 BA999 NON TESSERATI FIDAL 01:08:13
    1319 MM55 78   200 PALDERA Renato 1951 BA010 A.S.D. DOPOLAVORO FERROVIARIO 01:08:14
    1320 NTF   323  3658 SIFARELLI Luigi 1956 BA999 NON TESSERATI FIDAL 01:08:15
    1321 NTF   324  2914 MASCOLO Gerardo 1911 BA999 NON TESSERATI FIDAL 01:08:16
    1322 NTF   325  3442 LATERZA Martino 1964 BA999 NON TESSERATI FIDAL 01:08:17
    1323 MM45   206  1091 DELL'AIA Domenico 1964 FG264 A.S. CULTURALE POD. S. STEFANO 01:08:18
    1324 MM55 79  1460 TARANTINO Francesco 1950 BA512 POL.GRAVINA AELECTI S.GRAMEGNA 01:08:23
    1325 TM    92    95 MAFFEI Giuseppe 1980 BA546 POD. VALLE D'ITRIA LOCOROTONDO 01:08:26
    1326 NTF   326  1391 SARDELLA Giuseppe 1977 BA999 NON TESSERATI FIDAL 01:08:27
    1327 MM50   137   848 ABBASCIANO Francesco 1956 BA507 A.MARATONETI ANDRIESI 01:08:28
    1328 TM    93   816 TRIGGIANI Marco 1985 BA520 A.S. BARINCORSA 01:08:30
    1329 MM45   207  1461 GIAMPIETRO Giovanni 1961 BA512 POL.GRAVINA AELECTI S.GRAMEGNA 01:08:31
    1330 NTF   327  1186 PAPARELLA Domenico 1967 BA999 NON TESSERATI FIDAL 01:08:33
    1331 MM35   137  1504 MARIANO Antonio 1972 BA512 POL.GRAVINA AELECTI S.GRAMEGNA 01:08:34
    1332 MF45    23  3392 BARNABA' Maddalena 1961 BA551 ASS. NAZIONALE BERSAGLIERI BAR 01:08:35
    1333 MM55 80   102 SFORZA Michele 1952 BA010 A.S.D. DOPOLAVORO FERROVIARIO 01:08:36
    1334 NTF   328  3944 MATERA Mario 1968 BA999 NON TESSERATI FIDAL 01:08:37
    1335 MM50   138   922 TEDESCO Riccardo 1955 BA507 A.MARATONETI ANDRIESI 01:08:38
    1336 MF45    24  1437 SPINAZZOLA Nicoletta Ma 1960 BA538 ATLETI  VALLE DELL'OFANTO 01:08:40
    1337 NTF   329  3087 MESSA Nicola 1980 BA999 NON TESSERATI FIDAL 01:08:44
    1338 NTF   330  3233 NATRELLA Donato 1972 BA999 NON TESSERATI FIDAL 01:08:45
    1339 NTF   331  1401 CORSINI Diego 1973 BA999 NON TESSERATI FIDAL 01:08:47
    1340 NTF   332  2589 MARGARITO Donato 1952 BA999 NON TESSERATI FIDAL 01:08:48
    1341 MM40   184   150 PATERNOSTER Orlando 1968 BA093 ATLETIC CLUB ALTAMURA 01:08:52
    1342 MM45   208  1255 CRISTIANO Emanuele 1961 FG284 MARGHERITA DI SAVOIA RUNNERS 01:08:53
    1343 NTF   333  3950 DERENZIO Francesco 1962 BA999 NON TESSERATI FIDAL 01:08:53
    1344 MM35   138  1408 CAFAGNA Nicola 1974 BA538 ATLETI  VALLE DELL'OFANTO 01:08:54
    1345 NTF   334  3622 GIORDANO Eustachio 1955 BA999 NON TESSERATI FIDAL 01:08:59
    1346 MM50   139   610 DIPACE Arcangelo 1958 BA544 ATLETICA DISFIDA DI BARLETTA 01:09:01
    1347 NTF   335  3889 VERNONE  Antonia 1960 BA999 NON TESSERATI FIDAL 01:09:02
    1348 NTF   336  3440 CALELLA Francesco 1942 BA999 NON TESSERATI FIDAL 01:09:03
    1349 NTF   337  3158 FINO Pietro 1944 BA999 NON TESSERATI FIDAL 01:09:04
    1350 NTF   338  3489 ZANNA Michele 1963 BA999 NON TESSERATI FIDAL 01:09:05
    1351 NTF   339  3141 CORSINI Geremia 1968 BA999 NON TESSERATI FIDAL 01:09:06
    1352 MM35   139   360 CALLEA Raffaele 1970 BA007 CUS BARI 01:09:06
    1353 NTF   340  3779 ACQUAVIVA Loredana 1978 BA999 NON TESSERATI FIDAL 01:09:06
    1354 TM    94   151 CICIRELLI Lorenzo 1978 BA093 ATLETIC CLUB ALTAMURA 01:09:07
    1355 NTF   341  3870 MILELLA Gianluca 1974 BA999 NON TESSERATI FIDAL 01:09:08
    1356 NTF   342  3617 RANIERI Ezio 1966 BA999 NON TESSERATI FIDAL 01:09:10
    1357 MM65    18  1321 FANIUOLO Mario 1941 BA025 A.S. AMATORI PUTIGNANO 01:09:11
    1358 NTF   343   633 DI TRIZIO Luigia 1983 BA999 NON TESSERATI FIDAL 01:09:12
    1359 MM35   140   769 LASARACINA Rocco 1970 BA502 A.S.D. MONTEDORO NOCI 01:09:13
    1360 NTF   344  3987 GENTILE Giuseppe 1955 BA999 NON TESSERATI FIDAL 01:09:16
    1361 NTF   345  3775 CIRROTTOLA Michele 1956 BA999 NON TESSERATI FIDAL 01:09:16
    1362 MM50   140  1026 DI CEGLIE Pietro 1955 BA050 A.S.NICOLAUS ATHLETIC CENTER 01:09:17
    1363 NTF   346  3149 LAVIOSA Franceso 1950 BA999 NON TESSERATI FIDAL 01:09:19
    1364 MM55 81   559 LONGO Nicola 1954 BA097 SPORT CENTER 01:09:20
    1365 MF50     5   762 RUGGIERI Teresa 1959 BA582 SPORTING C. BISCEGLIE RUNNING 01:09:21
    1366 MM70 5   299 LATTANZI Domenico 1937 BA586 A.S.D.ASOPICO RUNNER BARI 01:09:23
    1367 NTF   347  3543 GELAO Francesco Saveri 1957 BA999 NON TESSERATI FIDAL 01:09:27
    1368 NTF   348  2588 MINIELLO Celestino 1954 BA999 NON TESSERATI FIDAL 01:09:33
    1369 MM65    19  1234 PICCOLINI Cosimo 1944 BA529 A.S. TRANI MARATHON 01:09:34
    1370 NTF   349  3778 VENTRICELLI Ippolita 1972 BA999 NON TESSERATI FIDAL 01:09:35
    1371 NTF   350  3562 ROMITO Luigi 1967 BA999 NON TESSERATI FIDAL 01:09:35
    1372 MF50     6   144 CATALDI Anna 1959 BA505 A.S. QUELLI DELLA PINETA 01:09:35
    1373 NTF   351  3203 VEFGNE Michele 1911 BA999 NON TESSERATI FIDAL 01:09:38
    1374 NTF   352  3666 LOSITO Giuseppe 1969 BA999 NON TESSERATI FIDAL 01:09:46
    1375 NTF   353  1170 NATRELLA Davide 1973 BA999 NON TESSERATI FIDAL 01:09:47
    1376 NTF   354   351 ROSSIGNOLI Dinato 1957 BA999 NON TESSERATI FIDAL 01:09:48
    1377 NTF   355  1175 GABRIELE Giuseppe Costa 1990 BA999 NON TESSERATI FIDAL 01:09:49
    1378 NTF   356  3609 ALESSANDRI Andrea 1964 BA999 NON TESSERATI FIDAL 01:09:49
    1379 NTF   357  3848 DI PALMA Michele 1956 BA999 NON TESSERATI FIDAL 01:09:50
    1380 NTF   358  3094 DE GIGLIO Maurizio 1964 BA999 NON TESSERATI FIDAL 01:09:54
    1381 MM60    45  1313 MONGELLI Pietro 1949 BA025 A.S. AMATORI PUTIGNANO 01:09:54
    1382 MM55 82  3402 LANGIANESE Paolo 1954 BA551 ASS. NAZIONALE BERSAGLIERI BAR 01:09:59
    1383 NTF   359  3097 DI BELLO Alessandro 1966 BA999 NON TESSERATI FIDAL 01:10:01
    1384 MF50     7   380 PROVENZANO Maria Rosari 1956 BA007 CUS BARI 01:10:03
    1385 MM45   209   181 NAPOLETANO Giovanni 1963 BA093 ATLETIC CLUB ALTAMURA 01:10:04
    1386 NTF   360  3914 MAURELLI Alberto 1994 BA999 NON TESSERATI FIDAL 01:10:06
    1387 NTF   361  1251 LORUSSO Michele 1946 BA999 NON TESSERATI FIDAL 01:10:06
    1388 NTF   362  1247 DI LERNIA Pasquale 1964 BA999 NON TESSERATI FIDAL 01:10:08
    1389 NTF   363  3869 STILLA Valentina 1972 BA999 NON TESSERATI FIDAL 01:10:09
    1390 NTF   364  1168 ABBINANTE Enrico 1979 BA999 NON TESSERATI FIDAL 01:10:10
    1391 NTF   365  2528 LIBERTI Chiara 1981 BA999 NON TESSERATI FIDAL 01:10:11
    1392 NTF   366  3459 DE GIROLAMO Filippo 1963 BA999 NON TESSERATI FIDAL 01:10:16
    1393 MM60    46   740 SCHINO Michele 1947 BA062 A.S. KANKUDAI 01:10:17
    1394 MM50   141  1122 CAROPPO Francesco 1958 BA531 A.S.D. SAN NICOLA RUNNERS 01:10:18
    1395 NTF   367  1400 MASSA Antonio 1982 BA999 NON TESSERATI FIDAL 01:10:19
    1396 MM50   142  1120 BISCIONE Rocco 1955 BA531 A.S.D. SAN NICOLA RUNNERS 01:10:20
    1397 MF50     8   374 LADISA Giuseppina 1957 BA007 CUS BARI 01:10:25
    1398 NTF   368   493 FACENDOLA Donato 1955 BA999 NON TESSERATI FIDAL 01:10:29
    1399 NTF   369  3846 BENCHI Antonio 1947 BA999 NON TESSERATI FIDAL 01:10:30
    1400 NTF   370  3107 SARACINO Luigi 1964 BA999 NON TESSERATI FIDAL 01:10:30
    1401 MM55 83   737 PORTOGHESE Vito 1951 BA062 A.S. KANKUDAI 01:10:33
    1402 MM55 84   799 DE IUDICIBUS Nicola 1950 BA554 FREE RUNNERS MOLFETTA 01:10:34
    1403 NTF   371  3849 MINUTILLO Sabino 1958 BA999 NON TESSERATI FIDAL 01:10:41
    1404 NTF   372  1174 ELIA Piero 1978 BA999 NON TESSERATI FIDAL 01:10:42
    1405 NTF   373  1167 CAPRIATI Angelo 1961 BA999 NON TESSERATI FIDAL 01:10:43
    1406 MF45    25  1032 RUSSO Anna Maria 1960 BA050 A.S.NICOLAUS ATHLETIC CENTER 01:10:47
    1407 NTF   374  3844 ARMENISE Nicola 1974 BA999 NON TESSERATI FIDAL 01:10:49
    1408 NTF   375  3678 SCARDIGNO Paolo 1971 BA999 NON TESSERATI FIDAL 01:10:49
    1409 NTF   376  3576 ANNESE Vincenzo Alberto 1984 BA999 NON TESSERATI FIDAL 01:10:50
    1410 NTF   377  3157 TRITTO Annamaria 1968 BA999 NON TESSERATI FIDAL 01:10:53
    1411 NTF   378  3561 BATTISTA Antonio 1991 BA999 NON TESSERATI FIDAL 01:10:54
    1412 NTF   379  3047 PATRUNO Michele 1911 BA999 NON TESSERATI FIDAL 01:10:57
    1413 NTF   380   492 CANNITO Nunzio 1954 BA999 NON TESSERATI FIDAL 01:10:58
    1414 MM65    20    12 BUZZOTTA Giovanni 1940 BA535 A.S. ATLETICA POLIGNANO 01:10:59
    1415 MM45   210   942 PRIORE Giuseppe 1964 BA005 AMATORI ATL. ACQUAVIVA 01:11:00
    1416 MM70 6   812 INVERARDI Vittorio 1937 BA520 A.S. BARINCORSA 01:11:02
    1417 NTF   381  3164 CARBONARA Giuseppe 1985 BA999 NON TESSERATI FIDAL 01:11:03
    1418 NTF   382  3560 BATTISTA Giovanni 1960 BA999 NON TESSERATI FIDAL 01:11:05
    1419 MF35     8  1241 SPERTI Alessandra 1970 BA529 A.S. TRANI MARATHON 01:11:06
    1420 NTF   383  1184 GAROFALO Giuseppe 1960 BA999 NON TESSERATI FIDAL 01:11:10
    1421 NTF   384  3434 DE SARIO Antonio 1960 BA999 NON TESSERATI FIDAL 01:11:11
    1422 MM45   211   772 GIANCANE Tommaso 1963 BA502 A.S.D. MONTEDORO NOCI 01:11:12
    1423 MM55 85   776 FUSILLO Domenico 1951 BA502 A.S.D. MONTEDORO NOCI 01:11:14
    1424 NTF   385  3102 PASSAQUINDICI Lorenzo 1981 BA999 NON TESSERATI FIDAL 01:11:16
    1425 TM    95   142 SCRIMIERI Antonio 1984 BA505 A.S. QUELLI DELLA PINETA 01:11:17
    1426 NTF   386  3439 DIOGUARDI Sebastiano 1954 BA999 NON TESSERATI FIDAL 01:11:18
    1427 NTF   387  3614 DE GENNARO Paolo 1966 BA999 NON TESSERATI FIDAL 01:11:22
    1428 MF35     9   386 BRANA' Luciana 1974 BA099 POL. 'D. PIETRI' GRAVINA 01:11:24
    1429 MF35    10  1453 RIVIELLO Giacomina 1974 BA512 POL.GRAVINA AELECTI S.GRAMEGNA 01:11:25
    1430 MM55 86  1505 SCARCI Nicola 1950 BA512 POL.GRAVINA AELECTI S.GRAMEGNA 01:11:26
    1431 NTF   388  3161 CALABRESE Gaetano 1958 BA999 NON TESSERATI FIDAL 01:11:29
    1432 NTF   389  3591 VIRGILIO  Pietro 1959 BA999 NON TESSERATI FIDAL 01:11:30
    1433 MM50   143  1431 SCISCO Giuseppe 1955 BA538 ATLETI  VALLE DELL'OFANTO 01:11:32
    1434 MM60    47  1427 PARENTE Salvatore 1949 BA538 ATLETI  VALLE DELL'OFANTO 01:11:33
    1435 MM40   185  1354 MEZZINA Giuseppe Davide 1966 BA043 G.S.ATLETICA AMATORI CORATO 01:11:34
    1436 NTF   390  3454 BRUNO Giuseppe 1951 BA999 NON TESSERATI FIDAL 01:11:35
    1437 NTF   391  3431 DI CARNE Daniela 1973 BA999 NON TESSERATI FIDAL 01:11:38
    1438 NTF   392  3847 GAROFALO Sabino 1951 BA999 NON TESSERATI FIDAL 01:11:39
    1439 NTF   393  3480 LAUDADIO Marco 1976 BA999 NON TESSERATI FIDAL 01:11:40
    1440 MM40   186   705 COLAIANNI Maurizio 1966 BA062 A.S. KANKUDAI 01:11:41
    1441 MM50   144   969 MARSEGLIA Pietro 1958 BR144 ATALAS SAN VITO DEI NORMANNI 01:11:42
    1442 NTF   394  3584 MATERA Giovanni 1969 BA999 NON TESSERATI FIDAL 01:11:43
    1443 MM60    48   137 MAGARELLI Sergio Paolo 1948 BA505 A.S. QUELLI DELLA PINETA 01:11:49
    1444 NTF   395  3662 PRUDENTE Vincenzo 1966 BA999 NON TESSERATI FIDAL 01:11:50
    1445 NTF   396  3544 SERAFINI Luigi 1964 BA999 NON TESSERATI FIDAL 01:11:51
    1446 NTF   397  3497 STEA Francesco 1968 BA999 NON TESSERATI FIDAL 01:11:54
    1447 MM75     2   231 RICCIARDIELLO Donato 1933 BA039 A.S. AMICI STRADA DEL TESORO 01:11:56
    1448 NTF   398  3822 STERLICCHIO Domenico 1940 BA999 NON TESSERATI FIDAL 01:12:05
    1449 NTF   399  3527 MIZZI Corrado 1974 BA999 NON TESSERATI FIDAL 01:12:06
    1450 CF     2  1106 LUCARELLI Annalisa 1995 BA023 ATLETICA GIOVANILE ACQUAVIVA 01:12:07
    1451 MM50   145   246 VALERIO Sebastiano 1955 BA039 A.S. AMICI STRADA DEL TESORO 01:12:09
    1452 NTF   400  3952 VALERIO Michele 1977 BA999 NON TESSERATI FIDAL 01:12:13
    1453 MF50     9   459 DI NUNNO Rosa 1956 BA509 POD. CANUSIUM 2004 01:12:15
    1454 MM35   141   221 DI PAOLA Giorgio 1972 BA581 A.S.D. ATLETICA BITRITTO 01:12:16
    1455 NTF   401  3105 COLAIANNI Stefano 1955 BA999 NON TESSERATI FIDAL 01:12:17
    1456 MM70 7    98 ANTONINO Giovanni 1937 BA010 A.S.D. DOPOLAVORO FERROVIARIO 01:12:17
    1457 MM40   187  1450 LORUSSO Michele 1966 BA512 POL.GRAVINA AELECTI S.GRAMEGNA 01:12:21
    1458 NTF   402  3660 VALERIANO Adriana 1961 BA999 NON TESSERATI FIDAL 01:12:23
    1459 NTF   403  2523 SCAROLA Antonio 1982 BA999 NON TESSERATI FIDAL 01:12:24
    1460 NTF   404  3478 MARRA Paolo 1957 BA999 NON TESSERATI FIDAL 01:12:25
    1461 MM55 87   199 SCATTARELLI Giuseppe 1950 BA010 A.S.D. DOPOLAVORO FERROVIARIO 01:12:26
    1462 NTF   405  3587 FUSIELLO Francesco 1985 BA999 NON TESSERATI FIDAL 01:12:27
    1463 NTF   406  3999 ARMNISE Rosa 1968 BA999 NON TESSERATI FIDAL 01:12:30
    1464 MF45    26   115 PRIORE Teresa 1964 BA505 A.S. QUELLI DELLA PINETA 01:12:32
    1465 MF60     3   815 MAZZA Lucia 1947 BA520 A.S. BARINCORSA 01:12:33
    1466 MM65    21   232 TAVANO Vincenzo 1944 BA039 A.S. AMICI STRADA DEL TESORO 01:12:34
    1467 NTF   407  3322 SCHINO Maurizio 1962 BA999 NON TESSERATI FIDAL 01:12:35
    1468 NTF   408  3324 NOCERINO Francesco 1958 BA999 NON TESSERATI FIDAL 01:12:37
    1469 MM50   146   619 SARDONE Domenico 1958 BA595 A.P.DIL. INSIEME PER LO SPORT 01:12:40
    1470 MF60     4  1416 FARANO Chiara 1949 BA538 ATLETI  VALLE DELL'OFANTO 01:12:44
    1471 NTF   409  3791 INTRONA Gennaro 1949 BA999 NON TESSERATI FIDAL 01:12:45
    1472 MF50    10   742 STRIPPOLI Lucrezia 1958 BA062 A.S. KANKUDAI 01:12:45
    1473 MM50   147   748 VITALE Girolamo 1957 BA062 A.S. KANKUDAI 01:12:46
    1474 MM50   148   723 FOGGETTI Giovanni 1955 BA062 A.S. KANKUDAI 01:12:47
    1475 NTF   410  3668 INCALZA Claudia 1967 BA999 NON TESSERATI FIDAL 01:12:47
    1476 NTF   411  3579 MELCORE Francesco 1975 BA999 NON TESSERATI FIDAL 01:12:48
    1477 NTF   412  3656 NOVELLI Domenico 1947 BA999 NON TESSERATI FIDAL 01:12:50
    1478 MM55 88   691 POLVANI Paolo Napoleone 1951 FG284 MARGHERITA DI SAVOIA RUNNERS 01:12:51
    1479 MM50   149   220 ANACLERIO Domenico 1956 BA581 A.S.D. ATLETICA BITRITTO 01:12:52
    1480 NTF   413  2539 ROMANO Isabella 1960 BA999 NON TESSERATI FIDAL 01:12:53
    1481 MF55     6  3386 BRASCIA Rosa 1951 BA551 ASS. NAZIONALE BERSAGLIERI BAR 01:13:05
    1482 NTF   414  3812 SORIANO Pasquale 1972 BA999 NON TESSERATI FIDAL 01:13:06
    1483 NTF   415  3810 SPINELLI Sergio 1968 BA999 NON TESSERATI FIDAL 01:13:06
    1484 MM50   150   958 TROILO Angelo 1959 BA005 AMATORI ATL. ACQUAVIVA 01:13:08
    1485 MF60     5   262 TONDOLO Carmela 1949 BA522 MURGIA MARATHON ANDRIA 01:13:09
    1486 MM50   151  1293 RONGA Antimo 1956 BA049 G.S.P. III REGIONE AEREA BARI 01:13:09
    1487 MM55 89  1294 LANERA Natale 1951 BA049 G.S.P. III REGIONE AEREA BARI 01:13:10
    1488 MM60    49  1083 RUSSO Felice 1945 PZ555 PODISTICA HERMES LAVELLO 01:13:21
    1489 MF45    27   520 OSTUNI Angela 1964 BA541 ALTEATLETICA ALTAMURA 01:13:22
    1490 MF45    28   926 ZAGARIA Giovanna 1961 BA507 A.MARATONETI ANDRIESI 01:13:23
    1491 NTF   416  2513 MELE Alessandro 1965 BA999 NON TESSERATI FIDAL 01:13:24
    1492 MM50   152   775 DELLA CORTE Domenico 1956 BA502 A.S.D. MONTEDORO NOCI 01:13:25
    1493 NTF   417  2524 MELE Alessio 1988 BA999 NON TESSERATI FIDAL 01:13:27
    1494 MM60    50  1329 CAMPANELLA Nicola 1946 BA550 AVIS IN CORSA CONVERSANO 01:13:28
    1495 NTF   418  1173 BUONAMICO Fabio 1975 BA999 NON TESSERATI FIDAL 01:13:29
    1496 TF    13   509 CALABRESE Rosa 1977 BA541 ALTEATLETICA ALTAMURA 01:13:34
    1497 NTF   419  3127 PORFIDO Domenico 1980 BA999 NON TESSERATI FIDAL 01:13:36
    1498 NTF   420  3184 MARINO Simone 1990 BA999 NON TESSERATI FIDAL 01:13:38
    1499 MM45   212  1136 MARINO Nicola 1962 BA531 A.S.D. SAN NICOLA RUNNERS 01:13:39
    1500 NTF   421  3891 CARLUCCI Palmiro 1960 BA999 NON TESSERATI FIDAL 01:13:40
    1501 NTF   422  3892 LOSURDO Luigi 1954 BA999 NON TESSERATI FIDAL 01:13:41
    1502 NTF   423  3937 SCORZA Leonardo 1952 BA999 NON TESSERATI FIDAL 01:13:44
    1503 MM55 90  1261 RUBINO Giovanni 1952 BA039 A.S. AMICI STRADA DEL TESORO 01:13:45
    1504 TM    96   785 ZUPO Pasquale 1980 BA535 A.S. ATLETICA POLIGNANO 01:13:47
    1505 NTF   424  3765 COLONNA Domenco 1965 BA999 NON TESSERATI FIDAL 01:13:48
    1506 NTF   425  1340 MONTARULI Felice 1951 BA999 NON TESSERATI FIDAL 01:13:49
    1507 MM45   213   728 MARZULLI Ignazio 1962 BA062 A.S. KANKUDAI 01:13:51
    1508 MF45    29  1224 CALEFATO Teresa 1962 BA529 A.S. TRANI MARATHON 01:13:53
    1509 MM50   153  1369 FALCETTA Cosimo Damiano 1955 BA041 ATLETICA PRO CANOSA 01:13:57
    1510 NTF   426  1343 DE SANTIS Michele 1961 BA999 NON TESSERATI FIDAL 01:13:58
    1511 NTF   427  2905 MONGELLI Filippo 1911 BA999 NON TESSERATI FIDAL 01:14:01
    1512 MM55 91   440 MAURELLI Tommaso 1953 BA052 BARI ROAD RUNNERS CLUB 01:14:03
    1513 NTF   428  3150 TANZI Giacinto 1970 BA999 NON TESSERATI FIDAL 01:14:06
    1514 MM45   214   764 ZONNO Vito 1964 BA582 SPORTING C. BISCEGLIE RUNNING 01:14:10
    1515 MF45 30  1418 GOTTARDO Angela 1963 BA538 ATLETI  VALLE DELL'OFANTO 01:14:12
    1516 MF60     6  1214 SAMBOCO Antonietta 1946 BA531 A.S.D. SAN NICOLA RUNNERS 01:14:14
    1517 NTF   429  3594 SARNO Giuseppe 1957 BA999 NON TESSERATI FIDAL 01:14:16
    1518 MM55 92  1084 SALVATORE Antonio Carmi 1953 PZ555 PODISTICA HERMES LAVELLO 01:14:28
    1519 MM70 8  3398 DE CAROLIS Roberto 1938 BA551 ASS. NAZIONALE BERSAGLIERI BAR 01:14:29
    1520 MM55 93   103 PERNA Giuseppe Natale 1950 BA010 A.S.D. DOPOLAVORO FERROVIARIO 01:14:29
    1521 MM50   154   592 DORONZO Gennaro 1958 BA544 ATLETICA DISFIDA DI BARLETTA 01:14:30
    1522 MF50    11   591 CASSATELLA Franca 1957 BA544 ATLETICA DISFIDA DI BARLETTA 01:14:34
    1523 NTF   430  1172 MARCHIANO' Luciano 1966 BA999 NON TESSERATI FIDAL 01:14:36
    1524 MM45   215  1451 LORUSSO Paolo 1962 BA512 POL.GRAVINA AELECTI S.GRAMEGNA 01:14:40
    1525 NTF   431  3864 DI FONTE Nicola 1959 BA999 NON TESSERATI FIDAL 01:14:43
    1526 MF35    11   696 VALENDINO Lucia 1970 FG284 MARGHERITA DI SAVOIA RUNNERS 01:14:46
    1527 NTF   432  3548 CUCOVILLO Angelo 1965 BA999 NON TESSERATI FIDAL 01:14:49
    1528 MM45   216   679 BERLOCO Giovanni 1964 FG284 MARGHERITA DI SAVOIA RUNNERS 01:14:50
    1529 MF50    12  1438 DISTASIO Raffaella 1959 BA538 ATLETI  VALLE DELL'OFANTO 01:14:51
    1530 MM50   155   686 DIAFERIO Tommaso 1955 FG284 MARGHERITA DI SAVOIA RUNNERS 01:14:52
    1531 NTF   433  3583 GUGLIELMI Giuseppe 1964 BA999 NON TESSERATI FIDAL 01:14:55
    1532 NTF   434  3790 LOMBARDI  Francesco 1946 BA999 NON TESSERATI FIDAL 01:14:56
    1533 NTF   435   507 SIMONE Giovanni 1994 BA999 NON TESSERATI FIDAL 01:15:01
    1534 NTF   436  3671 PAPALEO Valentina 1982 BA999 NON TESSERATI FIDAL 01:15:02
    1535 NTF   437  3546 MINCUZZI Tommaso 1951 BA999 NON TESSERATI FIDAL 01:15:06
    1536 NTF   438  3549 MULE' Donato 1958 BA999 NON TESSERATI FIDAL 01:15:09
    1537 NTF   439  2522 FANELLI Francesco Paolo 1982 BA999 NON TESSERATI FIDAL 01:15:10
    1538 NTF   440  3205 DE TULLIO Giovanni 1941 BA999 NON TESSERATI FIDAL 01:15:14
    1539 MF50    13  1215 SERAFINO Vincenza 1955 BA531 A.S.D. SAN NICOLA RUNNERS 01:15:15
    1540 NTF   441  1250 DELL'ACCIO Vittorio 1935 BA999 NON TESSERATI FIDAL 01:15:17
    1541 NTF   442  3118 D'ADDABBO Leonardo 1968 BA999 NON TESSERATI FIDAL 01:15:21
    1542 MF50    14   179 DI TRIA Antonietta 1958 BA093 ATLETIC CLUB ALTAMURA 01:15:22
    1543 TF    14   180 RAGUSO Daniela 1977 BA093 ATLETIC CLUB ALTAMURA 01:15:24
    1544 NTF   443  3773 MARIANO Lucia 1962 BA999 NON TESSERATI FIDAL 01:15:25
    1545 NTF   444  1166 ARMENISE Domenico 1976 BA999 NON TESSERATI FIDAL 01:15:27
    1546 MF50    15  1490 PARISI Michelina 1955 FG264 A.S. CULTURALE POD. S. STEFANO 01:15:35
    1547 MM60    51   819 MANSI Luigi 1945 FG264 A.S. CULTURALE POD. S. STEFANO 01:15:36
    1548 NTF   445  3655 BOCCUZZI Francesco 1946 BA999 NON TESSERATI FIDAL 01:15:36
    1549 NTF   446  3659 MARINARO Teresa 1956 BA999 NON TESSERATI FIDAL 01:15:37
    1550 MM80     1  1125 CHIMENTI Gennaro 1926 BA531 A.S.D. SAN NICOLA RUNNERS 01:15:40
    1551 MM55 94   306 PAGANO Gennaro 1951 BA586 A.S.D.ASOPICO RUNNER BARI 01:15:41
    1552 NTF   447  3198 L'ABBATE Donato 1964 BA999 NON TESSERATI FIDAL 01:15:47
    1553 NTF   448  3197 DI GIORGIO Nicola 1957 BA999 NON TESSERATI FIDAL 01:15:47
    1554 MF45 31   258 LATTANZIO Rosa 1962 BA522 MURGIA MARATHON ANDRIA 01:15:48
    1555 MM60    52   254 GUADAGNO Antonio 1946 BA522 MURGIA MARATHON ANDRIA 01:15:48
    1556 NTF   449  3657 FIORE Giuseppe 1947 BA999 NON TESSERATI FIDAL 01:15:52
    1557 CF     3  1102 FASANO Eleonora 1995 BA023 ATLETICA GIOVANILE ACQUAVIVA 01:15:54
    1558 NTF   450  3466 LADISA Nicola 1964 BA999 NON TESSERATI FIDAL 01:15:55
    1559 MF40    17   752 BARNABA Anna Maria 1967 BA582 SPORTING C. BISCEGLIE RUNNING 01:15:55
    1560 EF     1  3979 TANGORRA Luciana 1999 BA023 ATLETICA GIOVANILE ACQUAVIVA 01:15:57
    1561 NTF   451  1197 TURI Pasquale 1980 BA999 NON TESSERATI FIDAL 01:15:58
    1562 MM50   156   431 CROLLO Salvatore 1959 BA052 BARI ROAD RUNNERS CLUB 01:16:00
    1563 MF45 32  1405 AMENDOLA Angela 1962 BA538 ATLETI  VALLE DELL'OFANTO 01:16:02
    1564 MM70 9   593 RIZZITELLI Giuseppe 1939 BA544 ATLETICA DISFIDA DI BARLETTA 01:16:03
    1565 NTF   452  2701 SOLLECITO Adriano 1969 BA999 NON TESSERATI FIDAL 01:16:05
    1566 NTF   453  2616 CASTELLANA Gianluigi 1992 BA999 NON TESSERATI FIDAL 01:16:14
    1567 NTF   454  3798 TULLO Arcangela 1969 BA999 NON TESSERATI FIDAL 01:16:18
    1568 NTF   455  3230 DE CARNE Roberta 1974 BA999 NON TESSERATI FIDAL 01:16:25
    1569 NTF   456  3868 STILLA Mario 1948 BA999 NON TESSERATI FIDAL 01:16:27
    1570 NTF   457  3038 CIOCE Francesco 1965 BA999 NON TESSERATI FIDAL 01:16:42
    1571 MM70    10   725 LOPRIENO Lorenzo 1939 BA062 A.S. KANKUDAI 01:16:44
    1572 MM50   157   885 LORUSSO Domenico 1957 BA507 A.MARATONETI ANDRIESI 01:16:47
    1573 NTF   458  3570 TURI Giuseppe 1969 BA999 NON TESSERATI FIDAL 01:16:51
    1574 MM55 95   195 FORTE Michele 1952 BA093 ATLETIC CLUB ALTAMURA 01:16:52
    1575 NTF   459  1169 LORUSSO Riccardo 1968 BA999 NON TESSERATI FIDAL 01:16:58
    1576 MF40    18   813 MARTIRADONNA Teresa 1966 BA520 A.S. BARINCORSA 01:17:02
    1577 NTF   460  3469 PISANI Pasquale 1978 BA999 NON TESSERATI FIDAL 01:17:04
    1578 MM60    53  1465 ROCHIRA Ciro 1949 BA543 MARATHON CLUB MINERVINO 01:17:06
    1579 NTF   461  1216 CATALANO Benedetta 1955 BA999 NON TESSERATI FIDAL 01:17:07
    1580 NTF   462  3126 BASSO Pierangelo 1981 BA999 NON TESSERATI FIDAL 01:17:08
    1581 NTF   463  3826 CORALLO Stefano 1965 BA999 NON TESSERATI FIDAL 01:17:10
    1582 MF50    16   931 LATARTARA Maria 1955 BA047 NUOVA ATL. FEMM. ACQUAVIVA 01:17:13
    1583 MM70    11    11 DE ASTIS Vito 1935 BA505 A.S. QUELLI DELLA PINETA 01:17:20
    1584 MM60    54  1379 MASOTINA Antonio 1945 BA041 ATLETICA PRO CANOSA 01:17:21
    1585 MM55 96  1365 D'ALESSANDRO Sabino 1953 BA041 ATLETICA PRO CANOSA 01:17:35
    1586 NTF   464  3162 PATERNOSTER Renato 1958 BA999 NON TESSERATI FIDAL 01:17:37
    1587 MM50   158   948 CUSCITO Giuseppe 1955 BA005 AMATORI ATL. ACQUAVIVA 01:17:43
    1588 NTF   465  3911 PALELLA Dino 1974 BA999 NON TESSERATI FIDAL 01:18:00
    1589 NTF   466  3067 MONTEMURRO Pasquale 1944 BA999 NON TESSERATI FIDAL 01:18:03
    1590 MF35    12  1257 LAVIOLA Margherita 1972 FG264 A.S. CULTURALE POD. S. STEFANO 01:18:04
    1591 NTF   467  1252 MARCHIO Riccardo 1951 BA999 NON TESSERATI FIDAL 01:18:05
    1592 NTF   468  3915 TORSIELLO Romeo 1957 BA999 NON TESSERATI FIDAL 01:18:08
    1593 MF45 33   114 MINECCIA Fara 1960 BA505 A.S. QUELLI DELLA PINETA 01:18:12
    1594 NTF   469  3816 ROMITO  Luigi 1967 BA999 NON TESSERATI FIDAL 01:18:18
    1595 NTF   470  3813 GUERRA  Giovanni 1972 BA999 NON TESSERATI FIDAL 01:18:19
    1596 MM55 97   989 NIGRO Luigi 1953 BA553 ATLETICA ADELFIA 01:18:22
    1597 MM45   217  1500 PIIZZI Giancarlo 1960 BA512 POL.GRAVINA AELECTI S.GRAMEGNA 01:18:23
    1598 MM55 98  1501 SCALTRITO Fedele 1954 BA512 POL.GRAVINA AELECTI S.GRAMEGNA 01:18:26
    1599 NTF   471  1217 CAMPANALE Pasqua 1965 BA999 NON TESSERATI FIDAL 01:18:31
    1600 NTF   472  3443 CATANIA Giuseppe 1977 BA999 NON TESSERATI FIDAL 01:18:34
    1601 NTF   473  3879 MINERVINI Maria Saveria 1960 BA999 NON TESSERATI FIDAL 01:18:45
    1602 NTF   474  3890 DI PIERRO Giacomo 1955 BA999 NON TESSERATI FIDAL 01:18:48
    1603 NTF   475  1113 FERRI  Nicola 1966 BA999 NON TESSERATI FIDAL 01:18:50
    1604 NTF   476  3886 ZAVOIANNI Nicola 1985 BA999 NON TESSERATI FIDAL 01:19:01
    1605 MM75     3    29 MIRIZZI Vincenzo 1933 BA025 A.S. AMATORI PUTIGNANO 01:19:01
    1606 MF40    19  1323 CASSANO Carmela 1967 BA025 A.S. AMATORI PUTIGNANO 01:19:04
    1607 NTF   477   806 CIMINO Diana 1954 BA999 NON TESSERATI FIDAL 01:19:05
    1608 NTF   478  3239 MY Antonio 1981 BA999 NON TESSERATI FIDAL 01:19:10
    1609 TF    15   636 FINZI Annalisa 1978 BA592 BARLETTA SPORTIVA 01:19:24
    1610 NTF   479  2707 BRATTA Carmine 1971 BA999 NON TESSERATI FIDAL 01:19:29
    1611 MM70    12   399 LORUSSO Giuseppe 1939 BA099 POL. 'D. PIETRI' GRAVINA 01:19:30
    1612 NTF   480  3636 GIORDANO Mario 1958 BA999 NON TESSERATI FIDAL 01:19:30
    1613 NTF   481  2613 RAGONE Felice 1911 BA999 NON TESSERATI FIDAL 01:19:46
    1614 NTF   482  3931 LEUCI Angela 1952 BA999 NON TESSERATI FIDAL 01:19:48
    1615 NTF   483  3076 GIARDINO Alessandro 1993 BA999 NON TESSERATI FIDAL 01:19:59
    1616 MF55     7   704 CATALANO Filomena 1951 BA062 A.S. KANKUDAI 01:20:00
    1617 NTF   484  1402 SINIGAGLIA Elisabetta 1960 BA999 NON TESSERATI FIDAL 01:20:03
    1618 NTF   485  3036 BARBAROSSA Marilena 1977 BA999 NON TESSERATI FIDAL 01:20:20
    1619 NTF   486  1487 ARMENISE Armando 1948 BA999 NON TESSERATI FIDAL 01:20:24
    1620 NTF   487  3209 DE SERIO Giovanni 1973 BA999 NON TESSERATI FIDAL 01:20:29
    1621 NTF   488  3797 PAIANO Caterina 1967 BA999 NON TESSERATI FIDAL 01:20:30
    1622 NTF   489  3521 PELUSO Gennaro 1945 BA999 NON TESSERATI FIDAL 01:20:44
    1623 NTF   490  3462 IMPEDOVO Alessandro 1111 BA999 NON TESSERATI FIDAL 01:20:47
    1624 NTF   491  3471 CALABRETTO Deborah 1970 BA999 NON TESSERATI FIDAL 01:20:50
    1625 NTF   492  3472 CIANCIOLA Antonella 1971 BA999 NON TESSERATI FIDAL 01:20:51
    1626 NTF   493  3470 PISTRITTO Osario 1965 BA999 NON TESSERATI FIDAL 01:20:52
    1627 NTF   494  3793 DI CHIO Angela 1970 BA999 NON TESSERATI FIDAL 01:20:54
    1628 NTF   495  3878 SICOLI Silvana 1972 BA999 NON TESSERATI FIDAL 01:20:56
    1629 NTF   496  3631 ZAGARIA Nicola 1972 BA999 NON TESSERATI FIDAL 01:20:57
    1630 TM    97  3632 COVELLI Giuseppe 1976 BA507 A.MARATONETI ANDRIESI 01:20:58
    1631 NTF   497  2521 NOVIELLO Alessandra 1982 BA999 NON TESSERATI FIDAL 01:20:59
    1632 NTF   498  3877 LACALAMITA Francesca 1970 BA999 NON TESSERATI FIDAL 01:21:03
    1633 MM60    55  3590 ANIELLO Michele 1946 BA507 A.MARATONETI ANDRIESI 01:21:04
    1634 MM55 99  1503 LATORRE Vincenzo 1952 BA512 POL.GRAVINA AELECTI S.GRAMEGNA 01:21:15
    1635 NTF   499  3913 MAURELLI Pasquale 1965 BA999 NON TESSERATI FIDAL 01:21:29
    1636 MM45   218  1455 CIRASOLA Michele 1960 BA512 POL.GRAVINA AELECTI S.GRAMEGNA 01:21:30
    1637 MM45   219  1425 MATERA Giuseppe 1962 BA538 ATLETI  VALLE DELL'OFANTO 01:21:31
    1638 MF50    17  1434 DIMONTE Angela 1955 BA538 ATLETI  VALLE DELL'OFANTO 01:21:35
    1639 MM35   142  1407 BORRACCINO Nicola 1970 BA538 ATLETI  VALLE DELL'OFANTO 01:21:36
    1640 MM70    13  1421 LOMBARDI Michele 1936 BA538 ATLETI  VALLE DELL'OFANTO 01:21:37
    1641 MF50    18  1428 PICCOLO Teresa 1959 BA538 ATLETI  VALLE DELL'OFANTO 01:22:11
    1642 MF50    19   510 PAPANGELO Giuditta 1956 BA541 ALTEATLETICA ALTAMURA 01:22:11
    1643 MM45   220   729 MENEGHELLA Emilio 1963 BA062 A.S. KANKUDAI 01:22:23
    1644 MM40   188  1053 CAPRIATI Leonardo 1966 BA587 LA PIETRA 01:22:23
    1645 NTF   500  3602 PANARESE Fabio 1974 BA999 NON TESSERATI FIDAL 01:22:24
    1646 NTF   501  3200 SARACINO Gianfranco 1975 BA999 NON TESSERATI FIDAL 01:23:14
    1647 MM60    56   233 BIANCO Francesco 1946 BA039 A.S. AMICI STRADA DEL TESORO 01:23:16
    1648 NTF   502  2537 ARBORE Isabella 1978 BA999 NON TESSERATI FIDAL 01:23:22
    1649 NTF   503  3477 LARICCHIA Pietro 1962 BA999 NON TESSERATI FIDAL 01:23:23
    1650 MM60    57    22 CALLEA Carlo 1949 BA062 A.S. KANKUDAI 01:23:24
    1651 NTF   504  3751 MAIMONE Dario 1796 BA999 NON TESSERATI FIDAL 01:24:21
    1652 NTF   505  1345 SEGRETO Ivan 1998 BA999 NON TESSERATI FIDAL 01:24:24
    1653 MM40   189   159 SEGRETO Filippo 1966 BA093 ATLETIC CLUB ALTAMURA 01:24:25
    1654 MM60    58    99 GREGORIO Mario 1949 BA010 A.S.D. DOPOLAVORO FERROVIARIO 01:24:27
    1655 NTF   506  3781 LATERZA Saverio 1976 BA999 NON TESSERATI FIDAL 01:24:49
    1656 NTF   507  3046 LASCIAREA Sabino 1956 BA999 NON TESSERATI FIDAL 01:24:50
    1657 MF45 34  1496 SCARINGELLA Anna 1960 BA522 MURGIA MARATHON ANDRIA 01:24:51
    1658 NTF   508   519 CORNACCHIA Teresa 1961 BA999 NON TESSERATI FIDAL 01:24:52
    1659 NTF   509  3763 GERNONE Lorenzo 1964 BA999 NON TESSERATI FIDAL 01:24:59
    1660 NTF   510  3893 AQUINO Filippina 1964 BA999 NON TESSERATI FIDAL 01:25:21
    1661 NTF   511  3241 MY Pasquale 1959 BA999 NON TESSERATI FIDAL 01:26:45
    1662 NTF   512  3565 ANCONA Gaetano 1933 BA999 NON TESSERATI FIDAL 01:26:54
    1663 MM75     4   226 DI MODUGNO Vincenzo 1931 BA039 A.S. AMICI STRADA DEL TESORO 01:27:04
    1664 NTF   513  3764 MORGESE Giuseppe 1972 BA999 NON TESSERATI FIDAL 01:27:20
    1665 NTF   514  3634 COVELLI Maria Teresa 1972 BA999 NON TESSERATI FIDAL 01:27:30
    1666 NTF   515  3557 SCIACOVELLI Daniela 1982 BA999 NON TESSERATI FIDAL 01:27:43
    1667 NTF   516  3556 DI MATTEO Antonio 1978 BA999 NON TESSERATI FIDAL 01:27:44
    1668 NTF   517  3771 CAMPANELLA Angelo 1947 BA999 NON TESSERATI FIDAL 01:27:45
    1669 NTF   518  2543 CASCELLA Cesare Pio 1994 BA999 NON TESSERATI FIDAL 01:27:46
    1670 NTF   519  3796 RAMUNNO Anna 1971 BA999 NON TESSERATI FIDAL 01:27:52
    1671 NTF   520  3555 CASSANO Francesca 1983 BA999 NON TESSERATI FIDAL 01:28:42
    1672 NTF   521  3554 CACACE Francesco 1970 BA999 NON TESSERATI FIDAL 01:29:28
    1673 NTF   522  3941 DE BERNARDIS Giacinto 1957 BA999 NON TESSERATI FIDAL 01:29:29
    1674 NTF   523  2532 AZZONE Giuseppe 1948 BA999 NON TESSERATI FIDAL 01:31:23
    1675 NTF   524  3850 LANZOLLA Isabella 1965 BA999 NON TESSERATI FIDAL 01:31:37
    1676 NTF   525  3566 DE GIULIO Michele 1970 BA999 NON TESSERATI FIDAL 01:31:52
    1677 MF50    20   259 PIACENZA Concetta 1956 BA522 MURGIA MARATHON ANDRIA 01:31:53
    1678 MF70     1   256 GUADAGNO Scelsa 1937 BA522 MURGIA MARATHON ANDRIA 01:31:57
    1679 NTF   526  3882 D'ABBICCO Luigi 1961 BA999 NON TESSERATI FIDAL 01:32:17
    1680 NTF   527  2516 GRAZIOSI Maddalena 1982 BA999 NON TESSERATI FIDAL 01:33:31
    1681 NTF   528  1179 DE NATALE Teresa 1978 BA999 NON TESSERATI FIDAL 01:34:15
    1682 NTF   529  3575 ANACLERIO Michele 1975 BA999 NON TESSERATI FIDAL 01:36:28
    1683 NTF   530  2533 RODIO Pietro 1963 BA999 NON TESSERATI FIDAL 01:37:17
    1684 NTF   531  2530 RODIO Angelo 1995 BA999 NON TESSERATI FIDAL 01:37:27
    1685 NTF   532  3819 DE FEUDIS Mauro 1933 BA999 NON TESSERATI FIDAL 01:38:05
    1686 NTF   533  3608 CALDAROLA Annamaria 1954 BA999 NON TESSERATI FIDAL 01:38:06